﻿<?xml version="1.0" encoding="UTF-8" standalone="no" ?>
<gpx xmlns="http://www.topografix.com/GPX/1/1" creator="CompeGPS" version="1.1" xmlns:xsi="http://www.w3.org/2001/XMLSchema-instance" xsi:schemaLocation="http://www.topografix.com/GPX/1/1 http://www.topografix.com/GPX/1/1/gpx.xsd http://www.garmin.com/xmlschemas/GpxExtensions/v3 http://www.garmin.com/xmlschemas/GpxExtensionsv3.xsd http://www.garmin.com/xmlschemas/TrackPointExtension/v1 http://www.garmin.com/xmlschemas/TrackPointExtensionv1.xsd" xmlns:gpxtpx="http://www.garmin.com/xmlschemas/TrackPointExtension/v1">
  <metadata>
    <link href="http://www.compegps.com">
      <text>CompeGPS TEAM, SL</text>
    </link>
    <time>2018-11-25T16:04:47Z</time>
    <bounds maxlat="42.872801" maxlon="0.674385" minlat="42.851328" minlon="0.617975"/>
  </metadata>
  <trk>
    <name>pic_burat</name>
    <userMyTwoNav></userMyTwoNav>
    <serialNumber></serialNumber>
    <trkseg>
      <trkpt lat="42.854871" lon="0.620973">
        <ele>904.3</ele>
        <time>2018-11-16T12:24:55Z</time>
      </trkpt>
      <trkpt lat="42.854903" lon="0.620970">
        <ele>910.1</ele>
        <time>2018-11-16T12:25:16Z</time>
      </trkpt>
      <trkpt lat="42.854999" lon="0.620907">
        <ele>911.3</ele>
        <time>2018-11-16T12:25:26Z</time>
      </trkpt>
      <trkpt lat="42.855107" lon="0.620837">
        <ele>912.4</ele>
        <time>2018-11-16T12:25:36Z</time>
      </trkpt>
      <trkpt lat="42.855198" lon="0.620729">
        <ele>913.5</ele>
        <time>2018-11-16T12:25:45Z</time>
      </trkpt>
      <trkpt lat="42.855271" lon="0.620633">
        <ele>914.5</ele>
        <time>2018-11-16T12:25:53Z</time>
      </trkpt>
      <trkpt lat="42.855367" lon="0.620567">
        <ele>915.5</ele>
        <time>2018-11-16T12:26:02Z</time>
      </trkpt>
      <trkpt lat="42.855483" lon="0.620519">
        <ele>916.6</ele>
        <time>2018-11-16T12:26:10Z</time>
      </trkpt>
      <trkpt lat="42.855583" lon="0.620517">
        <ele>917.9</ele>
        <time>2018-11-16T12:26:17Z</time>
      </trkpt>
      <trkpt lat="42.855678" lon="0.620532">
        <ele>919.5</ele>
        <time>2018-11-16T12:26:27Z</time>
      </trkpt>
      <trkpt lat="42.855783" lon="0.620525">
        <ele>921.2</ele>
        <time>2018-11-16T12:26:36Z</time>
      </trkpt>
      <trkpt lat="42.855896" lon="0.620506">
        <ele>922.7</ele>
        <time>2018-11-16T12:26:47Z</time>
      </trkpt>
      <trkpt lat="42.856020" lon="0.620456">
        <ele>923.7</ele>
        <time>2018-11-16T12:26:55Z</time>
      </trkpt>
      <trkpt lat="42.856130" lon="0.620413">
        <ele>923.8</ele>
        <time>2018-11-16T12:27:02Z</time>
      </trkpt>
      <trkpt lat="42.856221" lon="0.620359">
        <ele>923.9</ele>
        <time>2018-11-16T12:27:09Z</time>
      </trkpt>
      <trkpt lat="42.856309" lon="0.620302">
        <ele>923.8</ele>
        <time>2018-11-16T12:27:14Z</time>
      </trkpt>
      <trkpt lat="42.856377" lon="0.620225">
        <ele>924.6</ele>
        <time>2018-11-16T12:27:21Z</time>
      </trkpt>
      <trkpt lat="42.856470" lon="0.620165">
        <ele>925.7</ele>
        <time>2018-11-16T12:27:28Z</time>
      </trkpt>
      <trkpt lat="42.856560" lon="0.620123">
        <ele>926.1</ele>
        <time>2018-11-16T12:27:34Z</time>
      </trkpt>
      <trkpt lat="42.856661" lon="0.620124">
        <ele>926.8</ele>
        <time>2018-11-16T12:27:41Z</time>
      </trkpt>
      <trkpt lat="42.856762" lon="0.620160">
        <ele>928.1</ele>
        <time>2018-11-16T12:27:48Z</time>
      </trkpt>
      <trkpt lat="42.856863" lon="0.620130">
        <ele>928.5</ele>
        <time>2018-11-16T12:27:56Z</time>
      </trkpt>
      <trkpt lat="42.856997" lon="0.620126">
        <ele>929.1</ele>
        <time>2018-11-16T12:28:05Z</time>
      </trkpt>
      <trkpt lat="42.857127" lon="0.620238">
        <ele>931.8</ele>
        <time>2018-11-16T12:28:19Z</time>
      </trkpt>
      <trkpt lat="42.857215" lon="0.620286">
        <ele>933.1</ele>
        <time>2018-11-16T12:28:26Z</time>
      </trkpt>
      <trkpt lat="42.857311" lon="0.620343">
        <ele>934.6</ele>
        <time>2018-11-16T12:28:33Z</time>
      </trkpt>
      <trkpt lat="42.857405" lon="0.620400">
        <ele>936.3</ele>
        <time>2018-11-16T12:28:41Z</time>
      </trkpt>
      <trkpt lat="42.857507" lon="0.620448">
        <ele>938.0</ele>
        <time>2018-11-16T12:28:49Z</time>
      </trkpt>
      <trkpt lat="42.857598" lon="0.620493">
        <ele>939.6</ele>
        <time>2018-11-16T12:28:56Z</time>
      </trkpt>
      <trkpt lat="42.857673" lon="0.620578">
        <ele>941.3</ele>
        <time>2018-11-16T12:29:03Z</time>
      </trkpt>
      <trkpt lat="42.857790" lon="0.620612">
        <ele>943.5</ele>
        <time>2018-11-16T12:29:13Z</time>
      </trkpt>
      <trkpt lat="42.857886" lon="0.620645">
        <ele>944.8</ele>
        <time>2018-11-16T12:29:20Z</time>
      </trkpt>
      <trkpt lat="42.857968" lon="0.620709">
        <ele>946.6</ele>
        <time>2018-11-16T12:29:27Z</time>
      </trkpt>
      <trkpt lat="42.858047" lon="0.620796">
        <ele>949.1</ele>
        <time>2018-11-16T12:29:36Z</time>
      </trkpt>
      <trkpt lat="42.858137" lon="0.620878">
        <ele>950.3</ele>
        <time>2018-11-16T12:29:43Z</time>
      </trkpt>
      <trkpt lat="42.858235" lon="0.620942">
        <ele>951.6</ele>
        <time>2018-11-16T12:29:50Z</time>
      </trkpt>
      <trkpt lat="42.858336" lon="0.620991">
        <ele>953.4</ele>
        <time>2018-11-16T12:29:59Z</time>
      </trkpt>
      <trkpt lat="42.858483" lon="0.621015">
        <ele>955.5</ele>
        <time>2018-11-16T12:30:09Z</time>
      </trkpt>
      <trkpt lat="42.858627" lon="0.621008">
        <ele>957.3</ele>
        <time>2018-11-16T12:30:18Z</time>
      </trkpt>
      <trkpt lat="42.858735" lon="0.620956">
        <ele>959.4</ele>
        <time>2018-11-16T12:30:27Z</time>
      </trkpt>
      <trkpt lat="42.858839" lon="0.620848">
        <ele>961.0</ele>
        <time>2018-11-16T12:30:34Z</time>
      </trkpt>
      <trkpt lat="42.858911" lon="0.620738">
        <ele>962.5</ele>
        <time>2018-11-16T12:30:41Z</time>
      </trkpt>
      <trkpt lat="42.858997" lon="0.620692">
        <ele>965.3</ele>
        <time>2018-11-16T12:30:50Z</time>
      </trkpt>
      <trkpt lat="42.859125" lon="0.620738">
        <ele>967.7</ele>
        <time>2018-11-16T12:31:00Z</time>
      </trkpt>
      <trkpt lat="42.859226" lon="0.620770">
        <ele>970.6</ele>
        <time>2018-11-16T12:31:10Z</time>
      </trkpt>
      <trkpt lat="42.859321" lon="0.620759">
        <ele>972.5</ele>
        <time>2018-11-16T12:31:17Z</time>
      </trkpt>
      <trkpt lat="42.859399" lon="0.620822">
        <ele>974.3</ele>
        <time>2018-11-16T12:31:25Z</time>
      </trkpt>
      <trkpt lat="42.859416" lon="0.620949">
        <ele>976.1</ele>
        <time>2018-11-16T12:31:33Z</time>
      </trkpt>
      <trkpt lat="42.859355" lon="0.621040">
        <ele>978.2</ele>
        <time>2018-11-16T12:31:43Z</time>
      </trkpt>
      <trkpt lat="42.859269" lon="0.621119">
        <ele>979.7</ele>
        <time>2018-11-16T12:31:51Z</time>
      </trkpt>
      <trkpt lat="42.859231" lon="0.621163">
        <ele>982.1</ele>
        <time>2018-11-16T12:32:03Z</time>
      </trkpt>
      <trkpt lat="42.859196" lon="0.621267">
        <ele>982.4</ele>
        <time>2018-11-16T12:32:13Z</time>
      </trkpt>
      <trkpt lat="42.859185" lon="0.621409">
        <ele>984.2</ele>
        <time>2018-11-16T12:32:23Z</time>
      </trkpt>
      <trkpt lat="42.859304" lon="0.621357">
        <ele>986.1</ele>
        <time>2018-11-16T12:32:31Z</time>
      </trkpt>
      <trkpt lat="42.859411" lon="0.621382">
        <ele>988.1</ele>
        <time>2018-11-16T12:32:39Z</time>
      </trkpt>
      <trkpt lat="42.859476" lon="0.621472">
        <ele>989.6</ele>
        <time>2018-11-16T12:32:47Z</time>
      </trkpt>
      <trkpt lat="42.859427" lon="0.621598">
        <ele>992.0</ele>
        <time>2018-11-16T12:32:58Z</time>
      </trkpt>
      <trkpt lat="42.859383" lon="0.621706">
        <ele>993.5</ele>
        <time>2018-11-16T12:33:06Z</time>
      </trkpt>
      <trkpt lat="42.859374" lon="0.621832">
        <ele>994.9</ele>
        <time>2018-11-16T12:33:17Z</time>
      </trkpt>
      <trkpt lat="42.859389" lon="0.621982">
        <ele>995.8</ele>
        <time>2018-11-16T12:33:25Z</time>
      </trkpt>
      <trkpt lat="42.859365" lon="0.622105">
        <ele>997.3</ele>
        <time>2018-11-16T12:33:32Z</time>
      </trkpt>
      <trkpt lat="42.859324" lon="0.622209">
        <ele>999.0</ele>
        <time>2018-11-16T12:33:40Z</time>
      </trkpt>
      <trkpt lat="42.859289" lon="0.622351">
        <ele>1001.5</ele>
        <time>2018-11-16T12:33:49Z</time>
      </trkpt>
      <trkpt lat="42.859260" lon="0.622482">
        <ele>1003.3</ele>
        <time>2018-11-16T12:33:57Z</time>
      </trkpt>
      <trkpt lat="42.859244" lon="0.622619">
        <ele>1005.5</ele>
        <time>2018-11-16T12:34:06Z</time>
      </trkpt>
      <trkpt lat="42.859232" lon="0.622776">
        <ele>1008.4</ele>
        <time>2018-11-16T12:34:17Z</time>
      </trkpt>
      <trkpt lat="42.859128" lon="0.622737">
        <ele>1010.9</ele>
        <time>2018-11-16T12:34:27Z</time>
      </trkpt>
      <trkpt lat="42.859020" lon="0.622691">
        <ele>1014.0</ele>
        <time>2018-11-16T12:34:39Z</time>
      </trkpt>
      <trkpt lat="42.859016" lon="0.622801">
        <ele>1015.7</ele>
        <time>2018-11-16T12:34:47Z</time>
      </trkpt>
      <trkpt lat="42.859025" lon="0.622932">
        <ele>1017.3</ele>
        <time>2018-11-16T12:34:55Z</time>
      </trkpt>
      <trkpt lat="42.859032" lon="0.623063">
        <ele>1019.0</ele>
        <time>2018-11-16T12:35:03Z</time>
      </trkpt>
      <trkpt lat="42.859036" lon="0.623195">
        <ele>1021.3</ele>
        <time>2018-11-16T12:35:12Z</time>
      </trkpt>
      <trkpt lat="42.859035" lon="0.623354">
        <ele>1023.2</ele>
        <time>2018-11-16T12:35:22Z</time>
      </trkpt>
      <trkpt lat="42.859009" lon="0.623528">
        <ele>1024.7</ele>
        <time>2018-11-16T12:35:32Z</time>
      </trkpt>
      <trkpt lat="42.859038" lon="0.623688">
        <ele>1026.4</ele>
        <time>2018-11-16T12:35:41Z</time>
      </trkpt>
      <trkpt lat="42.859093" lon="0.623843">
        <ele>1027.9</ele>
        <time>2018-11-16T12:35:50Z</time>
      </trkpt>
      <trkpt lat="42.859122" lon="0.624017">
        <ele>1030.3</ele>
        <time>2018-11-16T12:36:01Z</time>
      </trkpt>
      <trkpt lat="42.859137" lon="0.624190">
        <ele>1032.3</ele>
        <time>2018-11-16T12:36:11Z</time>
      </trkpt>
      <trkpt lat="42.859056" lon="0.624359">
        <ele>1034.8</ele>
        <time>2018-11-16T12:36:21Z</time>
      </trkpt>
      <trkpt lat="42.858927" lon="0.624379">
        <ele>1037.9</ele>
        <time>2018-11-16T12:36:31Z</time>
      </trkpt>
      <trkpt lat="42.858809" lon="0.624332">
        <ele>1040.8</ele>
        <time>2018-11-16T12:36:43Z</time>
      </trkpt>
      <trkpt lat="42.858730" lon="0.624218">
        <ele>1043.0</ele>
        <time>2018-11-16T12:36:53Z</time>
      </trkpt>
      <trkpt lat="42.858683" lon="0.624051">
        <ele>1045.4</ele>
        <time>2018-11-16T12:37:04Z</time>
      </trkpt>
      <trkpt lat="42.858636" lon="0.623875">
        <ele>1048.6</ele>
        <time>2018-11-16T12:37:17Z</time>
      </trkpt>
      <trkpt lat="42.858644" lon="0.623693">
        <ele>1050.2</ele>
        <time>2018-11-16T12:37:27Z</time>
      </trkpt>
      <trkpt lat="42.858583" lon="0.623572">
        <ele>1050.8</ele>
        <time>2018-11-16T12:37:35Z</time>
      </trkpt>
      <trkpt lat="42.858484" lon="0.623562">
        <ele>1051.7</ele>
        <time>2018-11-16T12:37:42Z</time>
      </trkpt>
      <trkpt lat="42.858420" lon="0.623621">
        <ele>1052.6</ele>
        <time>2018-11-16T12:37:48Z</time>
      </trkpt>
      <trkpt lat="42.858375" lon="0.623712">
        <ele>1053.4</ele>
        <time>2018-11-16T12:37:54Z</time>
      </trkpt>
      <trkpt lat="42.858315" lon="0.623768">
        <ele>1054.3</ele>
        <time>2018-11-16T12:38:00Z</time>
      </trkpt>
      <trkpt lat="42.858234" lon="0.623873">
        <ele>1055.8</ele>
        <time>2018-11-16T12:38:09Z</time>
      </trkpt>
      <trkpt lat="42.858162" lon="0.623976">
        <ele>1057.0</ele>
        <time>2018-11-16T12:38:16Z</time>
      </trkpt>
      <trkpt lat="42.858094" lon="0.624092">
        <ele>1058.4</ele>
        <time>2018-11-16T12:38:24Z</time>
      </trkpt>
      <trkpt lat="42.858041" lon="0.624213">
        <ele>1059.8</ele>
        <time>2018-11-16T12:38:32Z</time>
      </trkpt>
      <trkpt lat="42.858028" lon="0.624333">
        <ele>1061.9</ele>
        <time>2018-11-16T12:38:40Z</time>
      </trkpt>
      <trkpt lat="42.858102" lon="0.624403">
        <ele>1063.7</ele>
        <time>2018-11-16T12:38:48Z</time>
      </trkpt>
      <trkpt lat="42.858191" lon="0.624411">
        <ele>1066.3</ele>
        <time>2018-11-16T12:38:57Z</time>
      </trkpt>
      <trkpt lat="42.858292" lon="0.624407">
        <ele>1069.0</ele>
        <time>2018-11-16T12:39:07Z</time>
      </trkpt>
      <trkpt lat="42.858390" lon="0.624448">
        <ele>1071.0</ele>
        <time>2018-11-16T12:39:16Z</time>
      </trkpt>
      <trkpt lat="42.858378" lon="0.624549">
        <ele>1072.5</ele>
        <time>2018-11-16T12:39:24Z</time>
      </trkpt>
      <trkpt lat="42.858336" lon="0.624617">
        <ele>1074.8</ele>
        <time>2018-11-16T12:39:45Z</time>
      </trkpt>
      <trkpt lat="42.858308" lon="0.624749">
        <ele>1076.2</ele>
        <time>2018-11-16T12:39:55Z</time>
      </trkpt>
      <trkpt lat="42.858303" lon="0.624889">
        <ele>1078.4</ele>
        <time>2018-11-16T12:40:05Z</time>
      </trkpt>
      <trkpt lat="42.858292" lon="0.625017">
        <ele>1080.1</ele>
        <time>2018-11-16T12:40:14Z</time>
      </trkpt>
      <trkpt lat="42.858273" lon="0.625145">
        <ele>1082.3</ele>
        <time>2018-11-16T12:40:24Z</time>
      </trkpt>
      <trkpt lat="42.858271" lon="0.625282">
        <ele>1084.2</ele>
        <time>2018-11-16T12:40:34Z</time>
      </trkpt>
      <trkpt lat="42.858366" lon="0.625318">
        <ele>1086.5</ele>
        <time>2018-11-16T12:40:43Z</time>
      </trkpt>
      <trkpt lat="42.858435" lon="0.625390">
        <ele>1088.2</ele>
        <time>2018-11-16T12:40:52Z</time>
      </trkpt>
      <trkpt lat="42.858346" lon="0.625487">
        <ele>1089.9</ele>
        <time>2018-11-16T12:41:02Z</time>
      </trkpt>
      <trkpt lat="42.858348" lon="0.625624">
        <ele>1091.8</ele>
        <time>2018-11-16T12:41:13Z</time>
      </trkpt>
      <trkpt lat="42.858451" lon="0.625676">
        <ele>1093.3</ele>
        <time>2018-11-16T12:41:21Z</time>
      </trkpt>
      <trkpt lat="42.858489" lon="0.625765">
        <ele>1095.5</ele>
        <time>2018-11-16T12:41:31Z</time>
      </trkpt>
      <trkpt lat="42.858432" lon="0.625884">
        <ele>1097.9</ele>
        <time>2018-11-16T12:41:41Z</time>
      </trkpt>
      <trkpt lat="42.858404" lon="0.626023">
        <ele>1099.8</ele>
        <time>2018-11-16T12:41:50Z</time>
      </trkpt>
      <trkpt lat="42.858361" lon="0.626161">
        <ele>1101.9</ele>
        <time>2018-11-16T12:42:00Z</time>
      </trkpt>
      <trkpt lat="42.858351" lon="0.626330">
        <ele>1104.3</ele>
        <time>2018-11-16T12:42:13Z</time>
      </trkpt>
      <trkpt lat="42.858449" lon="0.626369">
        <ele>1106.6</ele>
        <time>2018-11-16T12:42:23Z</time>
      </trkpt>
      <trkpt lat="42.858555" lon="0.626340">
        <ele>1108.5</ele>
        <time>2018-11-16T12:42:32Z</time>
      </trkpt>
      <trkpt lat="42.858670" lon="0.626327">
        <ele>1109.9</ele>
        <time>2018-11-16T12:42:40Z</time>
      </trkpt>
      <trkpt lat="42.858736" lon="0.626439">
        <ele>1111.7</ele>
        <time>2018-11-16T12:42:49Z</time>
      </trkpt>
      <trkpt lat="42.858723" lon="0.626587">
        <ele>1113.2</ele>
        <time>2018-11-16T12:42:58Z</time>
      </trkpt>
      <trkpt lat="42.858663" lon="0.626693">
        <ele>1114.5</ele>
        <time>2018-11-16T12:43:07Z</time>
      </trkpt>
      <trkpt lat="42.858598" lon="0.626829">
        <ele>1116.9</ele>
        <time>2018-11-16T12:43:18Z</time>
      </trkpt>
      <trkpt lat="42.858573" lon="0.626945">
        <ele>1118.2</ele>
        <time>2018-11-16T12:43:26Z</time>
      </trkpt>
      <trkpt lat="42.858532" lon="0.627087">
        <ele>1120.7</ele>
        <time>2018-11-16T12:43:38Z</time>
      </trkpt>
      <trkpt lat="42.858459" lon="0.627163">
        <ele>1122.7</ele>
        <time>2018-11-16T12:43:47Z</time>
      </trkpt>
      <trkpt lat="42.858363" lon="0.627219">
        <ele>1125.7</ele>
        <time>2018-11-16T12:44:00Z</time>
      </trkpt>
      <trkpt lat="42.858261" lon="0.627227">
        <ele>1128.1</ele>
        <time>2018-11-16T12:44:11Z</time>
      </trkpt>
      <trkpt lat="42.858131" lon="0.627167">
        <ele>1130.2</ele>
        <time>2018-11-16T12:44:23Z</time>
      </trkpt>
      <trkpt lat="42.858019" lon="0.627146">
        <ele>1133.4</ele>
        <time>2018-11-16T12:44:36Z</time>
      </trkpt>
      <trkpt lat="42.857915" lon="0.627199">
        <ele>1135.8</ele>
        <time>2018-11-16T12:44:46Z</time>
      </trkpt>
      <trkpt lat="42.857884" lon="0.627332">
        <ele>1138.8</ele>
        <time>2018-11-16T12:44:57Z</time>
      </trkpt>
      <trkpt lat="42.857942" lon="0.627472">
        <ele>1141.3</ele>
        <time>2018-11-16T12:45:08Z</time>
      </trkpt>
      <trkpt lat="42.858006" lon="0.627633">
        <ele>1143.6</ele>
        <time>2018-11-16T12:45:19Z</time>
      </trkpt>
      <trkpt lat="42.858028" lon="0.627779">
        <ele>1145.7</ele>
        <time>2018-11-16T12:45:30Z</time>
      </trkpt>
      <trkpt lat="42.857983" lon="0.627940">
        <ele>1148.4</ele>
        <time>2018-11-16T12:45:41Z</time>
      </trkpt>
      <trkpt lat="42.857889" lon="0.628014">
        <ele>1151.1</ele>
        <time>2018-11-16T12:45:51Z</time>
      </trkpt>
      <trkpt lat="42.857770" lon="0.627968">
        <ele>1153.4</ele>
        <time>2018-11-16T12:46:03Z</time>
      </trkpt>
      <trkpt lat="42.857670" lon="0.627958">
        <ele>1156.4</ele>
        <time>2018-11-16T12:46:18Z</time>
      </trkpt>
      <trkpt lat="42.857678" lon="0.628076">
        <ele>1159.8</ele>
        <time>2018-11-16T12:46:35Z</time>
      </trkpt>
      <trkpt lat="42.857735" lon="0.628264">
        <ele>1161.7</ele>
        <time>2018-11-16T12:46:48Z</time>
      </trkpt>
      <trkpt lat="42.857751" lon="0.628424">
        <ele>1163.6</ele>
        <time>2018-11-16T12:46:59Z</time>
      </trkpt>
      <trkpt lat="42.857766" lon="0.628594">
        <ele>1165.2</ele>
        <time>2018-11-16T12:47:12Z</time>
      </trkpt>
      <trkpt lat="42.857749" lon="0.628731">
        <ele>1166.9</ele>
        <time>2018-11-16T12:47:23Z</time>
      </trkpt>
      <trkpt lat="42.857612" lon="0.628747">
        <ele>1169.4</ele>
        <time>2018-11-16T12:47:36Z</time>
      </trkpt>
      <trkpt lat="42.857498" lon="0.628736">
        <ele>1171.2</ele>
        <time>2018-11-16T12:47:46Z</time>
      </trkpt>
      <trkpt lat="42.857471" lon="0.628826">
        <ele>1174.6</ele>
        <time>2018-11-16T12:48:01Z</time>
      </trkpt>
      <trkpt lat="42.857459" lon="0.629010">
        <ele>1177.2</ele>
        <time>2018-11-16T12:48:16Z</time>
      </trkpt>
      <trkpt lat="42.857456" lon="0.629151">
        <ele>1179.3</ele>
        <time>2018-11-16T12:48:28Z</time>
      </trkpt>
      <trkpt lat="42.857466" lon="0.629328">
        <ele>1182.1</ele>
        <time>2018-11-16T12:48:40Z</time>
      </trkpt>
      <trkpt lat="42.857464" lon="0.629474">
        <ele>1184.0</ele>
        <time>2018-11-16T12:48:51Z</time>
      </trkpt>
      <trkpt lat="42.857454" lon="0.629603">
        <ele>1186.1</ele>
        <time>2018-11-16T12:49:03Z</time>
      </trkpt>
      <trkpt lat="42.857441" lon="0.629753">
        <ele>1187.9</ele>
        <time>2018-11-16T12:49:13Z</time>
      </trkpt>
      <trkpt lat="42.857441" lon="0.629966">
        <ele>1190.6</ele>
        <time>2018-11-16T12:49:27Z</time>
      </trkpt>
      <trkpt lat="42.857457" lon="0.630069">
        <ele>1193.5</ele>
        <time>2018-11-16T12:49:59Z</time>
      </trkpt>
      <trkpt lat="42.857416" lon="0.630223">
        <ele>1195.4</ele>
        <time>2018-11-16T12:50:13Z</time>
      </trkpt>
      <trkpt lat="42.857404" lon="0.630377">
        <ele>1198.1</ele>
        <time>2018-11-16T12:50:28Z</time>
      </trkpt>
      <trkpt lat="42.857390" lon="0.630562">
        <ele>1201.2</ele>
        <time>2018-11-16T12:50:45Z</time>
      </trkpt>
      <trkpt lat="42.857372" lon="0.630768">
        <ele>1204.8</ele>
        <time>2018-11-16T12:51:03Z</time>
      </trkpt>
      <trkpt lat="42.857319" lon="0.630941">
        <ele>1207.8</ele>
        <time>2018-11-16T12:51:17Z</time>
      </trkpt>
      <trkpt lat="42.857217" lon="0.631008">
        <ele>1211.0</ele>
        <time>2018-11-16T12:51:33Z</time>
      </trkpt>
      <trkpt lat="42.857181" lon="0.631141">
        <ele>1214.8</ele>
        <time>2018-11-16T12:51:50Z</time>
      </trkpt>
      <trkpt lat="42.857199" lon="0.631307">
        <ele>1219.8</ele>
        <time>2018-11-16T12:52:10Z</time>
      </trkpt>
      <trkpt lat="42.857207" lon="0.631446">
        <ele>1223.2</ele>
        <time>2018-11-16T12:52:25Z</time>
      </trkpt>
      <trkpt lat="42.857204" lon="0.631572">
        <ele>1225.3</ele>
        <time>2018-11-16T12:52:36Z</time>
      </trkpt>
      <trkpt lat="42.857159" lon="0.631682">
        <ele>1227.4</ele>
        <time>2018-11-16T12:52:48Z</time>
      </trkpt>
      <trkpt lat="42.857078" lon="0.631771">
        <ele>1229.7</ele>
        <time>2018-11-16T12:53:01Z</time>
      </trkpt>
      <trkpt lat="42.856993" lon="0.631852">
        <ele>1232.4</ele>
        <time>2018-11-16T12:53:16Z</time>
      </trkpt>
      <trkpt lat="42.856864" lon="0.631903">
        <ele>1234.3</ele>
        <time>2018-11-16T12:53:26Z</time>
      </trkpt>
      <trkpt lat="42.856734" lon="0.631925">
        <ele>1235.2</ele>
        <time>2018-11-16T12:53:33Z</time>
      </trkpt>
      <trkpt lat="42.856630" lon="0.631954">
        <ele>1236.3</ele>
        <time>2018-11-16T12:53:40Z</time>
      </trkpt>
      <trkpt lat="42.856545" lon="0.632003">
        <ele>1237.3</ele>
        <time>2018-11-16T12:53:48Z</time>
      </trkpt>
      <trkpt lat="42.856464" lon="0.632093">
        <ele>1238.2</ele>
        <time>2018-11-16T12:53:57Z</time>
      </trkpt>
      <trkpt lat="42.856389" lon="0.632189">
        <ele>1240.0</ele>
        <time>2018-11-16T12:54:06Z</time>
      </trkpt>
      <trkpt lat="42.856320" lon="0.632275">
        <ele>1241.8</ele>
        <time>2018-11-16T12:54:14Z</time>
      </trkpt>
      <trkpt lat="42.856263" lon="0.632371">
        <ele>1243.2</ele>
        <time>2018-11-16T12:54:23Z</time>
      </trkpt>
      <trkpt lat="42.856211" lon="0.632457">
        <ele>1244.6</ele>
        <time>2018-11-16T12:54:31Z</time>
      </trkpt>
      <trkpt lat="42.856147" lon="0.632547">
        <ele>1245.7</ele>
        <time>2018-11-16T12:54:39Z</time>
      </trkpt>
      <trkpt lat="42.856070" lon="0.632655">
        <ele>1246.7</ele>
        <time>2018-11-16T12:54:48Z</time>
      </trkpt>
      <trkpt lat="42.856055" lon="0.632784">
        <ele>1248.5</ele>
        <time>2018-11-16T12:54:56Z</time>
      </trkpt>
      <trkpt lat="42.856056" lon="0.632900">
        <ele>1250.6</ele>
        <time>2018-11-16T12:55:05Z</time>
      </trkpt>
      <trkpt lat="42.856090" lon="0.633028">
        <ele>1252.7</ele>
        <time>2018-11-16T12:55:16Z</time>
      </trkpt>
      <trkpt lat="42.856142" lon="0.633130">
        <ele>1253.9</ele>
        <time>2018-11-16T12:55:23Z</time>
      </trkpt>
      <trkpt lat="42.856152" lon="0.633256">
        <ele>1256.2</ele>
        <time>2018-11-16T12:55:34Z</time>
      </trkpt>
      <trkpt lat="42.856153" lon="0.633384">
        <ele>1258.2</ele>
        <time>2018-11-16T12:55:44Z</time>
      </trkpt>
      <trkpt lat="42.856178" lon="0.633485">
        <ele>1260.0</ele>
        <time>2018-11-16T12:55:53Z</time>
      </trkpt>
      <trkpt lat="42.856198" lon="0.633600">
        <ele>1261.7</ele>
        <time>2018-11-16T12:56:03Z</time>
      </trkpt>
      <trkpt lat="42.856274" lon="0.633683">
        <ele>1263.0</ele>
        <time>2018-11-16T12:56:11Z</time>
      </trkpt>
      <trkpt lat="42.856363" lon="0.633739">
        <ele>1264.5</ele>
        <time>2018-11-16T12:56:19Z</time>
      </trkpt>
      <trkpt lat="42.856448" lon="0.633803">
        <ele>1266.0</ele>
        <time>2018-11-16T12:56:27Z</time>
      </trkpt>
      <trkpt lat="42.856540" lon="0.633859">
        <ele>1267.5</ele>
        <time>2018-11-16T12:56:35Z</time>
      </trkpt>
      <trkpt lat="42.856629" lon="0.633892">
        <ele>1269.3</ele>
        <time>2018-11-16T12:56:42Z</time>
      </trkpt>
      <trkpt lat="42.856728" lon="0.633936">
        <ele>1271.3</ele>
        <time>2018-11-16T12:56:50Z</time>
      </trkpt>
      <trkpt lat="42.856827" lon="0.633965">
        <ele>1272.7</ele>
        <time>2018-11-16T12:56:57Z</time>
      </trkpt>
      <trkpt lat="42.856914" lon="0.634002">
        <ele>1274.7</ele>
        <time>2018-11-16T12:57:05Z</time>
      </trkpt>
      <trkpt lat="42.856997" lon="0.634038">
        <ele>1276.0</ele>
        <time>2018-11-16T12:57:12Z</time>
      </trkpt>
      <trkpt lat="42.857091" lon="0.634041">
        <ele>1277.3</ele>
        <time>2018-11-16T12:57:19Z</time>
      </trkpt>
      <trkpt lat="42.857183" lon="0.634072">
        <ele>1278.8</ele>
        <time>2018-11-16T12:57:27Z</time>
      </trkpt>
      <trkpt lat="42.857280" lon="0.634100">
        <ele>1280.6</ele>
        <time>2018-11-16T12:57:35Z</time>
      </trkpt>
      <trkpt lat="42.857368" lon="0.634165">
        <ele>1281.9</ele>
        <time>2018-11-16T12:57:43Z</time>
      </trkpt>
      <trkpt lat="42.857434" lon="0.634257">
        <ele>1284.3</ele>
        <time>2018-11-16T12:57:57Z</time>
      </trkpt>
      <trkpt lat="42.857509" lon="0.634347">
        <ele>1284.5</ele>
        <time>2018-11-16T12:58:03Z</time>
      </trkpt>
      <trkpt lat="42.857550" lon="0.634429">
        <ele>1284.8</ele>
        <time>2018-11-16T12:58:11Z</time>
      </trkpt>
      <trkpt lat="42.857438" lon="0.634493">
        <ele>1286.2</ele>
        <time>2018-11-16T12:58:21Z</time>
      </trkpt>
      <trkpt lat="42.857347" lon="0.634522">
        <ele>1288.6</ele>
        <time>2018-11-16T12:58:32Z</time>
      </trkpt>
      <trkpt lat="42.857258" lon="0.634563">
        <ele>1290.4</ele>
        <time>2018-11-16T12:58:42Z</time>
      </trkpt>
      <trkpt lat="42.857157" lon="0.634619">
        <ele>1292.4</ele>
        <time>2018-11-16T12:58:51Z</time>
      </trkpt>
      <trkpt lat="42.857065" lon="0.634678">
        <ele>1294.0</ele>
        <time>2018-11-16T12:59:00Z</time>
      </trkpt>
      <trkpt lat="42.856965" lon="0.634753">
        <ele>1296.2</ele>
        <time>2018-11-16T12:59:10Z</time>
      </trkpt>
      <trkpt lat="42.856871" lon="0.634801">
        <ele>1297.7</ele>
        <time>2018-11-16T12:59:19Z</time>
      </trkpt>
      <trkpt lat="42.856786" lon="0.634837">
        <ele>1299.5</ele>
        <time>2018-11-16T12:59:28Z</time>
      </trkpt>
      <trkpt lat="42.856703" lon="0.634897">
        <ele>1301.6</ele>
        <time>2018-11-16T12:59:37Z</time>
      </trkpt>
      <trkpt lat="42.856624" lon="0.634975">
        <ele>1303.0</ele>
        <time>2018-11-16T12:59:46Z</time>
      </trkpt>
      <trkpt lat="42.856536" lon="0.635039">
        <ele>1304.3</ele>
        <time>2018-11-16T12:59:54Z</time>
      </trkpt>
      <trkpt lat="42.856442" lon="0.635081">
        <ele>1306.1</ele>
        <time>2018-11-16T13:00:02Z</time>
      </trkpt>
      <trkpt lat="42.856358" lon="0.635140">
        <ele>1307.5</ele>
        <time>2018-11-16T13:00:09Z</time>
      </trkpt>
      <trkpt lat="42.856281" lon="0.635200">
        <ele>1308.9</ele>
        <time>2018-11-16T13:00:17Z</time>
      </trkpt>
      <trkpt lat="42.856200" lon="0.635252">
        <ele>1310.5</ele>
        <time>2018-11-16T13:00:25Z</time>
      </trkpt>
      <trkpt lat="42.856116" lon="0.635303">
        <ele>1311.7</ele>
        <time>2018-11-16T13:00:33Z</time>
      </trkpt>
      <trkpt lat="42.856027" lon="0.635358">
        <ele>1313.4</ele>
        <time>2018-11-16T13:00:42Z</time>
      </trkpt>
      <trkpt lat="42.855939" lon="0.635392">
        <ele>1315.0</ele>
        <time>2018-11-16T13:00:49Z</time>
      </trkpt>
      <trkpt lat="42.855856" lon="0.635447">
        <ele>1316.7</ele>
        <time>2018-11-16T13:00:56Z</time>
      </trkpt>
      <trkpt lat="42.855765" lon="0.635497">
        <ele>1317.9</ele>
        <time>2018-11-16T13:01:04Z</time>
      </trkpt>
      <trkpt lat="42.855684" lon="0.635558">
        <ele>1319.1</ele>
        <time>2018-11-16T13:01:12Z</time>
      </trkpt>
      <trkpt lat="42.855603" lon="0.635630">
        <ele>1321.1</ele>
        <time>2018-11-16T13:01:21Z</time>
      </trkpt>
      <trkpt lat="42.855515" lon="0.635669">
        <ele>1322.8</ele>
        <time>2018-11-16T13:01:29Z</time>
      </trkpt>
      <trkpt lat="42.855426" lon="0.635702">
        <ele>1324.2</ele>
        <time>2018-11-16T13:01:37Z</time>
      </trkpt>
      <trkpt lat="42.855355" lon="0.635770">
        <ele>1325.7</ele>
        <time>2018-11-16T13:01:44Z</time>
      </trkpt>
      <trkpt lat="42.855279" lon="0.635853">
        <ele>1327.0</ele>
        <time>2018-11-16T13:01:52Z</time>
      </trkpt>
      <trkpt lat="42.855208" lon="0.635931">
        <ele>1328.3</ele>
        <time>2018-11-16T13:02:00Z</time>
      </trkpt>
      <trkpt lat="42.855122" lon="0.636011">
        <ele>1329.6</ele>
        <time>2018-11-16T13:02:08Z</time>
      </trkpt>
      <trkpt lat="42.855048" lon="0.636094">
        <ele>1330.8</ele>
        <time>2018-11-16T13:02:15Z</time>
      </trkpt>
      <trkpt lat="42.854970" lon="0.636184">
        <ele>1332.4</ele>
        <time>2018-11-16T13:02:23Z</time>
      </trkpt>
      <trkpt lat="42.854903" lon="0.636273">
        <ele>1333.6</ele>
        <time>2018-11-16T13:02:30Z</time>
      </trkpt>
      <trkpt lat="42.854838" lon="0.636358">
        <ele>1334.9</ele>
        <time>2018-11-16T13:02:37Z</time>
      </trkpt>
      <trkpt lat="42.854786" lon="0.636463">
        <ele>1336.4</ele>
        <time>2018-11-16T13:02:45Z</time>
      </trkpt>
      <trkpt lat="42.854745" lon="0.636579">
        <ele>1337.7</ele>
        <time>2018-11-16T13:02:52Z</time>
      </trkpt>
      <trkpt lat="42.854728" lon="0.636702">
        <ele>1339.0</ele>
        <time>2018-11-16T13:02:59Z</time>
      </trkpt>
      <trkpt lat="42.854705" lon="0.636822">
        <ele>1340.1</ele>
        <time>2018-11-16T13:03:06Z</time>
      </trkpt>
      <trkpt lat="42.854695" lon="0.636950">
        <ele>1341.4</ele>
        <time>2018-11-16T13:03:14Z</time>
      </trkpt>
      <trkpt lat="42.854685" lon="0.637074">
        <ele>1342.6</ele>
        <time>2018-11-16T13:03:21Z</time>
      </trkpt>
      <trkpt lat="42.854650" lon="0.637208">
        <ele>1344.2</ele>
        <time>2018-11-16T13:03:29Z</time>
      </trkpt>
      <trkpt lat="42.854629" lon="0.637336">
        <ele>1345.7</ele>
        <time>2018-11-16T13:03:36Z</time>
      </trkpt>
      <trkpt lat="42.854590" lon="0.637462">
        <ele>1346.9</ele>
        <time>2018-11-16T13:03:44Z</time>
      </trkpt>
      <trkpt lat="42.854572" lon="0.637597">
        <ele>1348.2</ele>
        <time>2018-11-16T13:03:52Z</time>
      </trkpt>
      <trkpt lat="42.854539" lon="0.637721">
        <ele>1349.3</ele>
        <time>2018-11-16T13:03:59Z</time>
      </trkpt>
      <trkpt lat="42.854518" lon="0.637849">
        <ele>1350.3</ele>
        <time>2018-11-16T13:04:06Z</time>
      </trkpt>
      <trkpt lat="42.854498" lon="0.637964">
        <ele>1351.4</ele>
        <time>2018-11-16T13:04:12Z</time>
      </trkpt>
      <trkpt lat="42.854463" lon="0.638078">
        <ele>1352.7</ele>
        <time>2018-11-16T13:04:20Z</time>
      </trkpt>
      <trkpt lat="42.854425" lon="0.638187">
        <ele>1353.9</ele>
        <time>2018-11-16T13:04:29Z</time>
      </trkpt>
      <trkpt lat="42.854459" lon="0.638293">
        <ele>1355.4</ele>
        <time>2018-11-16T13:04:39Z</time>
      </trkpt>
      <trkpt lat="42.854559" lon="0.638272">
        <ele>1357.1</ele>
        <time>2018-11-16T13:04:48Z</time>
      </trkpt>
      <trkpt lat="42.854659" lon="0.638248">
        <ele>1358.8</ele>
        <time>2018-11-16T13:04:57Z</time>
      </trkpt>
      <trkpt lat="42.854763" lon="0.638226">
        <ele>1360.4</ele>
        <time>2018-11-16T13:05:05Z</time>
      </trkpt>
      <trkpt lat="42.854865" lon="0.638219">
        <ele>1362.0</ele>
        <time>2018-11-16T13:05:12Z</time>
      </trkpt>
      <trkpt lat="42.854971" lon="0.638201">
        <ele>1363.6</ele>
        <time>2018-11-16T13:05:20Z</time>
      </trkpt>
      <trkpt lat="42.855056" lon="0.638215">
        <ele>1365.3</ele>
        <time>2018-11-16T13:05:27Z</time>
      </trkpt>
      <trkpt lat="42.855138" lon="0.638240">
        <ele>1366.8</ele>
        <time>2018-11-16T13:05:34Z</time>
      </trkpt>
      <trkpt lat="42.855235" lon="0.638264">
        <ele>1368.7</ele>
        <time>2018-11-16T13:05:43Z</time>
      </trkpt>
      <trkpt lat="42.855321" lon="0.638299">
        <ele>1370.8</ele>
        <time>2018-11-16T13:05:51Z</time>
      </trkpt>
      <trkpt lat="42.855410" lon="0.638348">
        <ele>1372.7</ele>
        <time>2018-11-16T13:05:59Z</time>
      </trkpt>
      <trkpt lat="42.855495" lon="0.638410">
        <ele>1374.5</ele>
        <time>2018-11-16T13:06:07Z</time>
      </trkpt>
      <trkpt lat="42.855562" lon="0.638478">
        <ele>1375.9</ele>
        <time>2018-11-16T13:06:14Z</time>
      </trkpt>
      <trkpt lat="42.855635" lon="0.638545">
        <ele>1378.2</ele>
        <time>2018-11-16T13:06:22Z</time>
      </trkpt>
      <trkpt lat="42.855701" lon="0.638629">
        <ele>1379.9</ele>
        <time>2018-11-16T13:06:30Z</time>
      </trkpt>
      <trkpt lat="42.855783" lon="0.638716">
        <ele>1381.4</ele>
        <time>2018-11-16T13:06:38Z</time>
      </trkpt>
      <trkpt lat="42.855854" lon="0.638805">
        <ele>1382.9</ele>
        <time>2018-11-16T13:06:46Z</time>
      </trkpt>
      <trkpt lat="42.855926" lon="0.638883">
        <ele>1384.1</ele>
        <time>2018-11-16T13:06:53Z</time>
      </trkpt>
      <trkpt lat="42.855996" lon="0.638962">
        <ele>1385.8</ele>
        <time>2018-11-16T13:07:01Z</time>
      </trkpt>
      <trkpt lat="42.856069" lon="0.639053">
        <ele>1387.4</ele>
        <time>2018-11-16T13:07:10Z</time>
      </trkpt>
      <trkpt lat="42.856144" lon="0.639130">
        <ele>1388.8</ele>
        <time>2018-11-16T13:07:18Z</time>
      </trkpt>
      <trkpt lat="42.856228" lon="0.639216">
        <ele>1390.5</ele>
        <time>2018-11-16T13:07:26Z</time>
      </trkpt>
      <trkpt lat="42.856281" lon="0.639327">
        <ele>1392.4</ele>
        <time>2018-11-16T13:07:35Z</time>
      </trkpt>
      <trkpt lat="42.856317" lon="0.639454">
        <ele>1394.0</ele>
        <time>2018-11-16T13:07:44Z</time>
      </trkpt>
      <trkpt lat="42.856346" lon="0.639578">
        <ele>1394.9</ele>
        <time>2018-11-16T13:07:52Z</time>
      </trkpt>
      <trkpt lat="42.856381" lon="0.639676">
        <ele>1396.4</ele>
        <time>2018-11-16T13:08:15Z</time>
      </trkpt>
      <trkpt lat="42.856421" lon="0.639808">
        <ele>1397.9</ele>
        <time>2018-11-16T13:08:26Z</time>
      </trkpt>
      <trkpt lat="42.856479" lon="0.639940">
        <ele>1399.2</ele>
        <time>2018-11-16T13:08:35Z</time>
      </trkpt>
      <trkpt lat="42.856524" lon="0.640074">
        <ele>1400.4</ele>
        <time>2018-11-16T13:08:44Z</time>
      </trkpt>
      <trkpt lat="42.856570" lon="0.640241">
        <ele>1402.1</ele>
        <time>2018-11-16T13:08:53Z</time>
      </trkpt>
      <trkpt lat="42.856610" lon="0.640418">
        <ele>1403.3</ele>
        <time>2018-11-16T13:09:01Z</time>
      </trkpt>
      <trkpt lat="42.856642" lon="0.640583">
        <ele>1404.8</ele>
        <time>2018-11-16T13:09:09Z</time>
      </trkpt>
      <trkpt lat="42.856695" lon="0.640762">
        <ele>1406.6</ele>
        <time>2018-11-16T13:09:20Z</time>
      </trkpt>
      <trkpt lat="42.856740" lon="0.640913">
        <ele>1407.7</ele>
        <time>2018-11-16T13:09:29Z</time>
      </trkpt>
      <trkpt lat="42.856793" lon="0.641093">
        <ele>1409.2</ele>
        <time>2018-11-16T13:09:38Z</time>
      </trkpt>
      <trkpt lat="42.856823" lon="0.641248">
        <ele>1410.6</ele>
        <time>2018-11-16T13:09:46Z</time>
      </trkpt>
      <trkpt lat="42.856809" lon="0.641421">
        <ele>1412.3</ele>
        <time>2018-11-16T13:09:55Z</time>
      </trkpt>
      <trkpt lat="42.856825" lon="0.641552">
        <ele>1414.9</ele>
        <time>2018-11-16T13:10:03Z</time>
      </trkpt>
      <trkpt lat="42.856868" lon="0.641700">
        <ele>1417.1</ele>
        <time>2018-11-16T13:10:12Z</time>
      </trkpt>
      <trkpt lat="42.856911" lon="0.641864">
        <ele>1419.1</ele>
        <time>2018-11-16T13:10:21Z</time>
      </trkpt>
      <trkpt lat="42.856932" lon="0.641991">
        <ele>1420.7</ele>
        <time>2018-11-16T13:10:27Z</time>
      </trkpt>
      <trkpt lat="42.856978" lon="0.642119">
        <ele>1423.1</ele>
        <time>2018-11-16T13:10:35Z</time>
      </trkpt>
      <trkpt lat="42.857001" lon="0.642269">
        <ele>1424.8</ele>
        <time>2018-11-16T13:10:43Z</time>
      </trkpt>
      <trkpt lat="42.856980" lon="0.642416">
        <ele>1426.7</ele>
        <time>2018-11-16T13:10:51Z</time>
      </trkpt>
      <trkpt lat="42.857009" lon="0.642556">
        <ele>1428.7</ele>
        <time>2018-11-16T13:10:59Z</time>
      </trkpt>
      <trkpt lat="42.857022" lon="0.642693">
        <ele>1430.8</ele>
        <time>2018-11-16T13:11:08Z</time>
      </trkpt>
      <trkpt lat="42.857060" lon="0.642823">
        <ele>1432.9</ele>
        <time>2018-11-16T13:11:17Z</time>
      </trkpt>
      <trkpt lat="42.857083" lon="0.642976">
        <ele>1434.5</ele>
        <time>2018-11-16T13:11:26Z</time>
      </trkpt>
      <trkpt lat="42.857064" lon="0.643109">
        <ele>1436.7</ele>
        <time>2018-11-16T13:11:34Z</time>
      </trkpt>
      <trkpt lat="42.857114" lon="0.643252">
        <ele>1438.3</ele>
        <time>2018-11-16T13:11:43Z</time>
      </trkpt>
      <trkpt lat="42.857130" lon="0.643388">
        <ele>1440.2</ele>
        <time>2018-11-16T13:11:54Z</time>
      </trkpt>
      <trkpt lat="42.857115" lon="0.643557">
        <ele>1441.8</ele>
        <time>2018-11-16T13:12:04Z</time>
      </trkpt>
      <trkpt lat="42.857158" lon="0.643715">
        <ele>1443.0</ele>
        <time>2018-11-16T13:12:14Z</time>
      </trkpt>
      <trkpt lat="42.857176" lon="0.643878">
        <ele>1444.7</ele>
        <time>2018-11-16T13:12:25Z</time>
      </trkpt>
      <trkpt lat="42.857186" lon="0.644036">
        <ele>1446.5</ele>
        <time>2018-11-16T13:12:36Z</time>
      </trkpt>
      <trkpt lat="42.857222" lon="0.644174">
        <ele>1448.9</ele>
        <time>2018-11-16T13:12:46Z</time>
      </trkpt>
      <trkpt lat="42.857240" lon="0.644339">
        <ele>1451.5</ele>
        <time>2018-11-16T13:12:57Z</time>
      </trkpt>
      <trkpt lat="42.857256" lon="0.644541">
        <ele>1453.5</ele>
        <time>2018-11-16T13:13:06Z</time>
      </trkpt>
      <trkpt lat="42.857293" lon="0.644679">
        <ele>1455.5</ele>
        <time>2018-11-16T13:13:14Z</time>
      </trkpt>
      <trkpt lat="42.857296" lon="0.644839">
        <ele>1457.4</ele>
        <time>2018-11-16T13:13:22Z</time>
      </trkpt>
      <trkpt lat="42.857299" lon="0.644977">
        <ele>1459.2</ele>
        <time>2018-11-16T13:13:31Z</time>
      </trkpt>
      <trkpt lat="42.857310" lon="0.645113">
        <ele>1460.7</ele>
        <time>2018-11-16T13:13:39Z</time>
      </trkpt>
      <trkpt lat="42.857318" lon="0.645271">
        <ele>1462.4</ele>
        <time>2018-11-16T13:13:48Z</time>
      </trkpt>
      <trkpt lat="42.857324" lon="0.645436">
        <ele>1464.5</ele>
        <time>2018-11-16T13:13:58Z</time>
      </trkpt>
      <trkpt lat="42.857356" lon="0.645582">
        <ele>1466.5</ele>
        <time>2018-11-16T13:14:07Z</time>
      </trkpt>
      <trkpt lat="42.857326" lon="0.645726">
        <ele>1468.7</ele>
        <time>2018-11-16T13:14:17Z</time>
      </trkpt>
      <trkpt lat="42.857297" lon="0.645898">
        <ele>1470.3</ele>
        <time>2018-11-16T13:14:25Z</time>
      </trkpt>
      <trkpt lat="42.857294" lon="0.646049">
        <ele>1471.6</ele>
        <time>2018-11-16T13:14:33Z</time>
      </trkpt>
      <trkpt lat="42.857279" lon="0.646202">
        <ele>1473.7</ele>
        <time>2018-11-16T13:14:43Z</time>
      </trkpt>
      <trkpt lat="42.857240" lon="0.646359">
        <ele>1475.4</ele>
        <time>2018-11-16T13:14:53Z</time>
      </trkpt>
      <trkpt lat="42.857234" lon="0.646544">
        <ele>1476.2</ele>
        <time>2018-11-16T13:15:02Z</time>
      </trkpt>
      <trkpt lat="42.857200" lon="0.646719">
        <ele>1477.3</ele>
        <time>2018-11-16T13:15:11Z</time>
      </trkpt>
      <trkpt lat="42.857173" lon="0.646904">
        <ele>1478.2</ele>
        <time>2018-11-16T13:15:19Z</time>
      </trkpt>
      <trkpt lat="42.857165" lon="0.647070">
        <ele>1479.2</ele>
        <time>2018-11-16T13:15:28Z</time>
      </trkpt>
      <trkpt lat="42.857157" lon="0.647201">
        <ele>1479.7</ele>
        <time>2018-11-16T13:15:34Z</time>
      </trkpt>
      <trkpt lat="42.857137" lon="0.647319">
        <ele>1480.6</ele>
        <time>2018-11-16T13:15:44Z</time>
      </trkpt>
      <trkpt lat="42.857058" lon="0.647424">
        <ele>1481.9</ele>
        <time>2018-11-16T13:15:57Z</time>
      </trkpt>
      <trkpt lat="42.857027" lon="0.647643">
        <ele>1483.3</ele>
        <time>2018-11-16T13:16:08Z</time>
      </trkpt>
      <trkpt lat="42.856996" lon="0.647814">
        <ele>1485.6</ele>
        <time>2018-11-16T13:16:19Z</time>
      </trkpt>
      <trkpt lat="42.856965" lon="0.647988">
        <ele>1488.0</ele>
        <time>2018-11-16T13:16:29Z</time>
      </trkpt>
      <trkpt lat="42.856948" lon="0.648156">
        <ele>1489.9</ele>
        <time>2018-11-16T13:16:38Z</time>
      </trkpt>
      <trkpt lat="42.856941" lon="0.648301">
        <ele>1492.4</ele>
        <time>2018-11-16T13:16:48Z</time>
      </trkpt>
      <trkpt lat="42.856913" lon="0.648449">
        <ele>1494.3</ele>
        <time>2018-11-16T13:16:58Z</time>
      </trkpt>
      <trkpt lat="42.856917" lon="0.648593">
        <ele>1496.1</ele>
        <time>2018-11-16T13:17:09Z</time>
      </trkpt>
      <trkpt lat="42.856904" lon="0.648787">
        <ele>1497.9</ele>
        <time>2018-11-16T13:17:20Z</time>
      </trkpt>
      <trkpt lat="42.856897" lon="0.648983">
        <ele>1498.7</ele>
        <time>2018-11-16T13:17:29Z</time>
      </trkpt>
      <trkpt lat="42.856877" lon="0.649136">
        <ele>1499.3</ele>
        <time>2018-11-16T13:17:37Z</time>
      </trkpt>
      <trkpt lat="42.856862" lon="0.649289">
        <ele>1500.2</ele>
        <time>2018-11-16T13:17:45Z</time>
      </trkpt>
      <trkpt lat="42.856854" lon="0.649435">
        <ele>1501.4</ele>
        <time>2018-11-16T13:17:54Z</time>
      </trkpt>
      <trkpt lat="42.856883" lon="0.649564">
        <ele>1502.5</ele>
        <time>2018-11-16T13:18:02Z</time>
      </trkpt>
      <trkpt lat="42.856874" lon="0.649701">
        <ele>1503.6</ele>
        <time>2018-11-16T13:18:10Z</time>
      </trkpt>
      <trkpt lat="42.856848" lon="0.649841">
        <ele>1504.6</ele>
        <time>2018-11-16T13:18:17Z</time>
      </trkpt>
      <trkpt lat="42.856852" lon="0.649966">
        <ele>1505.8</ele>
        <time>2018-11-16T13:18:25Z</time>
      </trkpt>
      <trkpt lat="42.856849" lon="0.650116">
        <ele>1507.3</ele>
        <time>2018-11-16T13:18:34Z</time>
      </trkpt>
      <trkpt lat="42.856851" lon="0.650254">
        <ele>1508.4</ele>
        <time>2018-11-16T13:18:42Z</time>
      </trkpt>
      <trkpt lat="42.856874" lon="0.650390">
        <ele>1509.4</ele>
        <time>2018-11-16T13:18:50Z</time>
      </trkpt>
      <trkpt lat="42.856905" lon="0.650508">
        <ele>1510.7</ele>
        <time>2018-11-16T13:18:58Z</time>
      </trkpt>
      <trkpt lat="42.856930" lon="0.650611">
        <ele>1512.4</ele>
        <time>2018-11-16T13:19:17Z</time>
      </trkpt>
      <trkpt lat="42.856964" lon="0.650708">
        <ele>1513.0</ele>
        <time>2018-11-16T13:19:25Z</time>
      </trkpt>
      <trkpt lat="42.856983" lon="0.650859">
        <ele>1513.9</ele>
        <time>2018-11-16T13:19:33Z</time>
      </trkpt>
      <trkpt lat="42.856983" lon="0.650990">
        <ele>1514.7</ele>
        <time>2018-11-16T13:19:39Z</time>
      </trkpt>
      <trkpt lat="42.856996" lon="0.651122">
        <ele>1515.8</ele>
        <time>2018-11-16T13:19:47Z</time>
      </trkpt>
      <trkpt lat="42.857002" lon="0.651248">
        <ele>1517.1</ele>
        <time>2018-11-16T13:19:55Z</time>
      </trkpt>
      <trkpt lat="42.857022" lon="0.651384">
        <ele>1518.8</ele>
        <time>2018-11-16T13:20:04Z</time>
      </trkpt>
      <trkpt lat="42.857009" lon="0.651500">
        <ele>1521.2</ele>
        <time>2018-11-16T13:20:12Z</time>
      </trkpt>
      <trkpt lat="42.856985" lon="0.651637">
        <ele>1523.2</ele>
        <time>2018-11-16T13:20:21Z</time>
      </trkpt>
      <trkpt lat="42.856981" lon="0.651762">
        <ele>1524.7</ele>
        <time>2018-11-16T13:20:28Z</time>
      </trkpt>
      <trkpt lat="42.856983" lon="0.651892">
        <ele>1526.8</ele>
        <time>2018-11-16T13:20:37Z</time>
      </trkpt>
      <trkpt lat="42.857003" lon="0.652056">
        <ele>1528.4</ele>
        <time>2018-11-16T13:20:45Z</time>
      </trkpt>
      <trkpt lat="42.857021" lon="0.652178">
        <ele>1530.3</ele>
        <time>2018-11-16T13:20:53Z</time>
      </trkpt>
      <trkpt lat="42.857061" lon="0.652282">
        <ele>1531.9</ele>
        <time>2018-11-16T13:21:00Z</time>
      </trkpt>
      <trkpt lat="42.857113" lon="0.652393">
        <ele>1533.6</ele>
        <time>2018-11-16T13:21:08Z</time>
      </trkpt>
      <trkpt lat="42.857160" lon="0.652505">
        <ele>1535.3</ele>
        <time>2018-11-16T13:21:17Z</time>
      </trkpt>
      <trkpt lat="42.857182" lon="0.652602">
        <ele>1536.6</ele>
        <time>2018-11-16T13:21:24Z</time>
      </trkpt>
      <trkpt lat="42.857201" lon="0.652754">
        <ele>1538.6</ele>
        <time>2018-11-16T13:21:35Z</time>
      </trkpt>
      <trkpt lat="42.857208" lon="0.652895">
        <ele>1540.4</ele>
        <time>2018-11-16T13:21:44Z</time>
      </trkpt>
      <trkpt lat="42.857202" lon="0.653034">
        <ele>1542.1</ele>
        <time>2018-11-16T13:21:53Z</time>
      </trkpt>
      <trkpt lat="42.857197" lon="0.653193">
        <ele>1543.8</ele>
        <time>2018-11-16T13:22:02Z</time>
      </trkpt>
      <trkpt lat="42.857173" lon="0.653358">
        <ele>1545.2</ele>
        <time>2018-11-16T13:22:11Z</time>
      </trkpt>
      <trkpt lat="42.857150" lon="0.653482">
        <ele>1547.0</ele>
        <time>2018-11-16T13:22:19Z</time>
      </trkpt>
      <trkpt lat="42.857129" lon="0.653609">
        <ele>1548.1</ele>
        <time>2018-11-16T13:22:27Z</time>
      </trkpt>
      <trkpt lat="42.857100" lon="0.653755">
        <ele>1549.3</ele>
        <time>2018-11-16T13:22:36Z</time>
      </trkpt>
      <trkpt lat="42.857074" lon="0.653886">
        <ele>1550.6</ele>
        <time>2018-11-16T13:22:45Z</time>
      </trkpt>
      <trkpt lat="42.857034" lon="0.654018">
        <ele>1551.7</ele>
        <time>2018-11-16T13:22:54Z</time>
      </trkpt>
      <trkpt lat="42.857009" lon="0.654132">
        <ele>1552.9</ele>
        <time>2018-11-16T13:23:02Z</time>
      </trkpt>
      <trkpt lat="42.856977" lon="0.654254">
        <ele>1554.4</ele>
        <time>2018-11-16T13:23:10Z</time>
      </trkpt>
      <trkpt lat="42.856935" lon="0.654367">
        <ele>1555.9</ele>
        <time>2018-11-16T13:23:18Z</time>
      </trkpt>
      <trkpt lat="42.856885" lon="0.654490">
        <ele>1557.1</ele>
        <time>2018-11-16T13:23:26Z</time>
      </trkpt>
      <trkpt lat="42.856855" lon="0.654609">
        <ele>1558.6</ele>
        <time>2018-11-16T13:23:34Z</time>
      </trkpt>
      <trkpt lat="42.856801" lon="0.654718">
        <ele>1560.0</ele>
        <time>2018-11-16T13:23:43Z</time>
      </trkpt>
      <trkpt lat="42.856754" lon="0.654836">
        <ele>1561.2</ele>
        <time>2018-11-16T13:23:50Z</time>
      </trkpt>
      <trkpt lat="42.856695" lon="0.654954">
        <ele>1562.9</ele>
        <time>2018-11-16T13:23:58Z</time>
      </trkpt>
      <trkpt lat="42.856655" lon="0.655072">
        <ele>1564.0</ele>
        <time>2018-11-16T13:24:05Z</time>
      </trkpt>
      <trkpt lat="42.856622" lon="0.655162">
        <ele>1565.2</ele>
        <time>2018-11-16T13:24:13Z</time>
      </trkpt>
      <trkpt lat="42.856728" lon="0.655115">
        <ele>1567.4</ele>
        <time>2018-11-16T13:24:23Z</time>
      </trkpt>
      <trkpt lat="42.856801" lon="0.655042">
        <ele>1568.9</ele>
        <time>2018-11-16T13:24:42Z</time>
      </trkpt>
      <trkpt lat="42.856886" lon="0.654988">
        <ele>1569.8</ele>
        <time>2018-11-16T13:24:55Z</time>
      </trkpt>
      <trkpt lat="42.856962" lon="0.654914">
        <ele>1570.7</ele>
        <time>2018-11-16T13:25:03Z</time>
      </trkpt>
      <trkpt lat="42.857048" lon="0.654859">
        <ele>1571.9</ele>
        <time>2018-11-16T13:25:10Z</time>
      </trkpt>
      <trkpt lat="42.857121" lon="0.654793">
        <ele>1573.4</ele>
        <time>2018-11-16T13:25:17Z</time>
      </trkpt>
      <trkpt lat="42.857216" lon="0.654761">
        <ele>1574.4</ele>
        <time>2018-11-16T13:25:24Z</time>
      </trkpt>
      <trkpt lat="42.857295" lon="0.654673">
        <ele>1575.4</ele>
        <time>2018-11-16T13:25:31Z</time>
      </trkpt>
      <trkpt lat="42.857371" lon="0.654601">
        <ele>1576.9</ele>
        <time>2018-11-16T13:25:38Z</time>
      </trkpt>
      <trkpt lat="42.857448" lon="0.654528">
        <ele>1578.3</ele>
        <time>2018-11-16T13:25:46Z</time>
      </trkpt>
      <trkpt lat="42.857530" lon="0.654489">
        <ele>1579.3</ele>
        <time>2018-11-16T13:25:52Z</time>
      </trkpt>
      <trkpt lat="42.857621" lon="0.654437">
        <ele>1580.6</ele>
        <time>2018-11-16T13:26:01Z</time>
      </trkpt>
      <trkpt lat="42.857710" lon="0.654380">
        <ele>1581.9</ele>
        <time>2018-11-16T13:26:09Z</time>
      </trkpt>
      <trkpt lat="42.857794" lon="0.654314">
        <ele>1582.8</ele>
        <time>2018-11-16T13:26:16Z</time>
      </trkpt>
      <trkpt lat="42.857863" lon="0.654368">
        <ele>1585.0</ele>
        <time>2018-11-16T13:26:39Z</time>
      </trkpt>
      <trkpt lat="42.857844" lon="0.654492">
        <ele>1586.4</ele>
        <time>2018-11-16T13:26:48Z</time>
      </trkpt>
      <trkpt lat="42.857773" lon="0.654600">
        <ele>1587.7</ele>
        <time>2018-11-16T13:26:55Z</time>
      </trkpt>
      <trkpt lat="42.857698" lon="0.654693">
        <ele>1589.1</ele>
        <time>2018-11-16T13:27:02Z</time>
      </trkpt>
      <trkpt lat="42.857610" lon="0.654788">
        <ele>1590.1</ele>
        <time>2018-11-16T13:27:09Z</time>
      </trkpt>
      <trkpt lat="42.857559" lon="0.654899">
        <ele>1590.9</ele>
        <time>2018-11-16T13:27:16Z</time>
      </trkpt>
      <trkpt lat="42.857514" lon="0.655008">
        <ele>1591.7</ele>
        <time>2018-11-16T13:27:24Z</time>
      </trkpt>
      <trkpt lat="42.857466" lon="0.655133">
        <ele>1592.8</ele>
        <time>2018-11-16T13:27:33Z</time>
      </trkpt>
      <trkpt lat="42.857402" lon="0.655274">
        <ele>1593.8</ele>
        <time>2018-11-16T13:27:41Z</time>
      </trkpt>
      <trkpt lat="42.857390" lon="0.655402">
        <ele>1595.1</ele>
        <time>2018-11-16T13:27:48Z</time>
      </trkpt>
      <trkpt lat="42.857371" lon="0.655524">
        <ele>1596.2</ele>
        <time>2018-11-16T13:27:54Z</time>
      </trkpt>
      <trkpt lat="42.857359" lon="0.655643">
        <ele>1597.7</ele>
        <time>2018-11-16T13:28:03Z</time>
      </trkpt>
      <trkpt lat="42.857324" lon="0.655778">
        <ele>1599.1</ele>
        <time>2018-11-16T13:28:10Z</time>
      </trkpt>
      <trkpt lat="42.857307" lon="0.655900">
        <ele>1600.6</ele>
        <time>2018-11-16T13:28:16Z</time>
      </trkpt>
      <trkpt lat="42.857293" lon="0.656033">
        <ele>1601.7</ele>
        <time>2018-11-16T13:28:23Z</time>
      </trkpt>
      <trkpt lat="42.857300" lon="0.656161">
        <ele>1602.8</ele>
        <time>2018-11-16T13:28:29Z</time>
      </trkpt>
      <trkpt lat="42.857316" lon="0.656291">
        <ele>1604.0</ele>
        <time>2018-11-16T13:28:37Z</time>
      </trkpt>
      <trkpt lat="42.857348" lon="0.656393">
        <ele>1605.2</ele>
        <time>2018-11-16T13:28:43Z</time>
      </trkpt>
      <trkpt lat="42.857355" lon="0.656523">
        <ele>1606.6</ele>
        <time>2018-11-16T13:28:51Z</time>
      </trkpt>
      <trkpt lat="42.857354" lon="0.656661">
        <ele>1607.6</ele>
        <time>2018-11-16T13:28:58Z</time>
      </trkpt>
      <trkpt lat="42.857370" lon="0.656792">
        <ele>1608.8</ele>
        <time>2018-11-16T13:29:05Z</time>
      </trkpt>
      <trkpt lat="42.857395" lon="0.656928">
        <ele>1610.1</ele>
        <time>2018-11-16T13:29:13Z</time>
      </trkpt>
      <trkpt lat="42.857405" lon="0.657074">
        <ele>1611.6</ele>
        <time>2018-11-16T13:29:20Z</time>
      </trkpt>
      <trkpt lat="42.857395" lon="0.657196">
        <ele>1612.7</ele>
        <time>2018-11-16T13:29:26Z</time>
      </trkpt>
      <trkpt lat="42.857395" lon="0.657335">
        <ele>1614.4</ele>
        <time>2018-11-16T13:29:33Z</time>
      </trkpt>
      <trkpt lat="42.857384" lon="0.657495">
        <ele>1616.0</ele>
        <time>2018-11-16T13:29:41Z</time>
      </trkpt>
      <trkpt lat="42.857381" lon="0.657643">
        <ele>1617.5</ele>
        <time>2018-11-16T13:29:48Z</time>
      </trkpt>
      <trkpt lat="42.857365" lon="0.657778">
        <ele>1618.9</ele>
        <time>2018-11-16T13:29:55Z</time>
      </trkpt>
      <trkpt lat="42.857338" lon="0.657899">
        <ele>1619.9</ele>
        <time>2018-11-16T13:30:01Z</time>
      </trkpt>
      <trkpt lat="42.857317" lon="0.658021">
        <ele>1621.3</ele>
        <time>2018-11-16T13:30:08Z</time>
      </trkpt>
      <trkpt lat="42.857298" lon="0.658155">
        <ele>1622.6</ele>
        <time>2018-11-16T13:30:16Z</time>
      </trkpt>
      <trkpt lat="42.857280" lon="0.658279">
        <ele>1623.9</ele>
        <time>2018-11-16T13:30:23Z</time>
      </trkpt>
      <trkpt lat="42.857239" lon="0.658386">
        <ele>1625.3</ele>
        <time>2018-11-16T13:30:31Z</time>
      </trkpt>
      <trkpt lat="42.857215" lon="0.658504">
        <ele>1626.7</ele>
        <time>2018-11-16T13:30:38Z</time>
      </trkpt>
      <trkpt lat="42.857171" lon="0.658622">
        <ele>1628.2</ele>
        <time>2018-11-16T13:30:45Z</time>
      </trkpt>
      <trkpt lat="42.857160" lon="0.658746">
        <ele>1629.3</ele>
        <time>2018-11-16T13:30:53Z</time>
      </trkpt>
      <trkpt lat="42.857135" lon="0.658853">
        <ele>1630.3</ele>
        <time>2018-11-16T13:31:00Z</time>
      </trkpt>
      <trkpt lat="42.857112" lon="0.658968">
        <ele>1631.4</ele>
        <time>2018-11-16T13:31:07Z</time>
      </trkpt>
      <trkpt lat="42.857093" lon="0.659074">
        <ele>1632.8</ele>
        <time>2018-11-16T13:31:14Z</time>
      </trkpt>
      <trkpt lat="42.857069" lon="0.659202">
        <ele>1634.6</ele>
        <time>2018-11-16T13:31:22Z</time>
      </trkpt>
      <trkpt lat="42.857019" lon="0.659318">
        <ele>1636.3</ele>
        <time>2018-11-16T13:31:30Z</time>
      </trkpt>
      <trkpt lat="42.856968" lon="0.659424">
        <ele>1638.5</ele>
        <time>2018-11-16T13:31:38Z</time>
      </trkpt>
      <trkpt lat="42.856941" lon="0.659544">
        <ele>1640.2</ele>
        <time>2018-11-16T13:31:47Z</time>
      </trkpt>
      <trkpt lat="42.856942" lon="0.659669">
        <ele>1641.2</ele>
        <time>2018-11-16T13:31:53Z</time>
      </trkpt>
      <trkpt lat="42.856893" lon="0.659769">
        <ele>1642.9</ele>
        <time>2018-11-16T13:32:01Z</time>
      </trkpt>
      <trkpt lat="42.856829" lon="0.659886">
        <ele>1644.8</ele>
        <time>2018-11-16T13:32:10Z</time>
      </trkpt>
      <trkpt lat="42.856821" lon="0.660023">
        <ele>1646.2</ele>
        <time>2018-11-16T13:32:18Z</time>
      </trkpt>
      <trkpt lat="42.856809" lon="0.660150">
        <ele>1648.2</ele>
        <time>2018-11-16T13:32:27Z</time>
      </trkpt>
      <trkpt lat="42.856758" lon="0.660256">
        <ele>1649.6</ele>
        <time>2018-11-16T13:32:35Z</time>
      </trkpt>
      <trkpt lat="42.856663" lon="0.660265">
        <ele>1650.7</ele>
        <time>2018-11-16T13:32:42Z</time>
      </trkpt>
      <trkpt lat="42.856571" lon="0.660320">
        <ele>1651.7</ele>
        <time>2018-11-16T13:32:49Z</time>
      </trkpt>
      <trkpt lat="42.856485" lon="0.660400">
        <ele>1652.6</ele>
        <time>2018-11-16T13:32:57Z</time>
      </trkpt>
      <trkpt lat="42.856388" lon="0.660453">
        <ele>1653.8</ele>
        <time>2018-11-16T13:33:05Z</time>
      </trkpt>
      <trkpt lat="42.856289" lon="0.660477">
        <ele>1654.9</ele>
        <time>2018-11-16T13:33:13Z</time>
      </trkpt>
      <trkpt lat="42.856197" lon="0.660530">
        <ele>1656.3</ele>
        <time>2018-11-16T13:33:21Z</time>
      </trkpt>
      <trkpt lat="42.856102" lon="0.660562">
        <ele>1657.8</ele>
        <time>2018-11-16T13:33:30Z</time>
      </trkpt>
      <trkpt lat="42.855976" lon="0.660591">
        <ele>1658.9</ele>
        <time>2018-11-16T13:33:38Z</time>
      </trkpt>
      <trkpt lat="42.855872" lon="0.660623">
        <ele>1659.8</ele>
        <time>2018-11-16T13:33:46Z</time>
      </trkpt>
      <trkpt lat="42.855790" lon="0.660570">
        <ele>1660.8</ele>
        <time>2018-11-16T13:33:53Z</time>
      </trkpt>
      <trkpt lat="42.855745" lon="0.660439">
        <ele>1661.8</ele>
        <time>2018-11-16T13:34:00Z</time>
      </trkpt>
      <trkpt lat="42.855720" lon="0.660312">
        <ele>1662.8</ele>
        <time>2018-11-16T13:34:06Z</time>
      </trkpt>
      <trkpt lat="42.855681" lon="0.660216">
        <ele>1663.8</ele>
        <time>2018-11-16T13:34:12Z</time>
      </trkpt>
      <trkpt lat="42.855635" lon="0.660116">
        <ele>1664.2</ele>
        <time>2018-11-16T13:34:19Z</time>
      </trkpt>
      <trkpt lat="42.855579" lon="0.660005">
        <ele>1665.1</ele>
        <time>2018-11-16T13:34:27Z</time>
      </trkpt>
      <trkpt lat="42.855528" lon="0.659883">
        <ele>1665.7</ele>
        <time>2018-11-16T13:34:34Z</time>
      </trkpt>
      <trkpt lat="42.855498" lon="0.659785">
        <ele>1667.1</ele>
        <time>2018-11-16T13:34:54Z</time>
      </trkpt>
      <trkpt lat="42.855447" lon="0.659677">
        <ele>1667.6</ele>
        <time>2018-11-16T13:35:03Z</time>
      </trkpt>
      <trkpt lat="42.855405" lon="0.659588">
        <ele>1668.8</ele>
        <time>2018-11-16T13:35:20Z</time>
      </trkpt>
      <trkpt lat="42.855318" lon="0.659593">
        <ele>1669.7</ele>
        <time>2018-11-16T13:35:30Z</time>
      </trkpt>
      <trkpt lat="42.855227" lon="0.659615">
        <ele>1670.8</ele>
        <time>2018-11-16T13:35:40Z</time>
      </trkpt>
      <trkpt lat="42.855128" lon="0.659628">
        <ele>1672.2</ele>
        <time>2018-11-16T13:35:48Z</time>
      </trkpt>
      <trkpt lat="42.855029" lon="0.659666">
        <ele>1673.2</ele>
        <time>2018-11-16T13:35:55Z</time>
      </trkpt>
      <trkpt lat="42.854941" lon="0.659676">
        <ele>1674.3</ele>
        <time>2018-11-16T13:36:02Z</time>
      </trkpt>
      <trkpt lat="42.854845" lon="0.659678">
        <ele>1675.6</ele>
        <time>2018-11-16T13:36:09Z</time>
      </trkpt>
      <trkpt lat="42.854753" lon="0.659692">
        <ele>1676.7</ele>
        <time>2018-11-16T13:36:15Z</time>
      </trkpt>
      <trkpt lat="42.854668" lon="0.659733">
        <ele>1678.0</ele>
        <time>2018-11-16T13:36:22Z</time>
      </trkpt>
      <trkpt lat="42.854575" lon="0.659788">
        <ele>1679.2</ele>
        <time>2018-11-16T13:36:29Z</time>
      </trkpt>
      <trkpt lat="42.854491" lon="0.659856">
        <ele>1680.1</ele>
        <time>2018-11-16T13:36:36Z</time>
      </trkpt>
      <trkpt lat="42.854411" lon="0.659947">
        <ele>1681.4</ele>
        <time>2018-11-16T13:36:44Z</time>
      </trkpt>
      <trkpt lat="42.854354" lon="0.660054">
        <ele>1682.5</ele>
        <time>2018-11-16T13:36:51Z</time>
      </trkpt>
      <trkpt lat="42.854301" lon="0.660169">
        <ele>1683.3</ele>
        <time>2018-11-16T13:36:59Z</time>
      </trkpt>
      <trkpt lat="42.854266" lon="0.660298">
        <ele>1684.9</ele>
        <time>2018-11-16T13:37:07Z</time>
      </trkpt>
      <trkpt lat="42.854250" lon="0.660425">
        <ele>1686.2</ele>
        <time>2018-11-16T13:37:13Z</time>
      </trkpt>
      <trkpt lat="42.854240" lon="0.660533">
        <ele>1687.1</ele>
        <time>2018-11-16T13:37:19Z</time>
      </trkpt>
      <trkpt lat="42.854219" lon="0.660669">
        <ele>1688.4</ele>
        <time>2018-11-16T13:37:27Z</time>
      </trkpt>
      <trkpt lat="42.854202" lon="0.660807">
        <ele>1689.9</ele>
        <time>2018-11-16T13:37:34Z</time>
      </trkpt>
      <trkpt lat="42.854198" lon="0.660933">
        <ele>1691.2</ele>
        <time>2018-11-16T13:37:41Z</time>
      </trkpt>
      <trkpt lat="42.854208" lon="0.661055">
        <ele>1692.1</ele>
        <time>2018-11-16T13:37:47Z</time>
      </trkpt>
      <trkpt lat="42.854189" lon="0.661187">
        <ele>1693.4</ele>
        <time>2018-11-16T13:37:55Z</time>
      </trkpt>
      <trkpt lat="42.854163" lon="0.661317">
        <ele>1695.3</ele>
        <time>2018-11-16T13:38:03Z</time>
      </trkpt>
      <trkpt lat="42.854154" lon="0.661455">
        <ele>1697.0</ele>
        <time>2018-11-16T13:38:11Z</time>
      </trkpt>
      <trkpt lat="42.854211" lon="0.661524">
        <ele>1698.7</ele>
        <time>2018-11-16T13:38:19Z</time>
      </trkpt>
      <trkpt lat="42.854298" lon="0.661436">
        <ele>1699.8</ele>
        <time>2018-11-16T13:38:26Z</time>
      </trkpt>
      <trkpt lat="42.854384" lon="0.661359">
        <ele>1700.8</ele>
        <time>2018-11-16T13:38:34Z</time>
      </trkpt>
      <trkpt lat="42.854483" lon="0.661347">
        <ele>1701.5</ele>
        <time>2018-11-16T13:38:41Z</time>
      </trkpt>
      <trkpt lat="42.854574" lon="0.661393">
        <ele>1703.2</ele>
        <time>2018-11-16T13:38:48Z</time>
      </trkpt>
      <trkpt lat="42.854625" lon="0.661518">
        <ele>1705.0</ele>
        <time>2018-11-16T13:38:56Z</time>
      </trkpt>
      <trkpt lat="42.854614" lon="0.661657">
        <ele>1706.7</ele>
        <time>2018-11-16T13:39:05Z</time>
      </trkpt>
      <trkpt lat="42.854582" lon="0.661780">
        <ele>1708.5</ele>
        <time>2018-11-16T13:39:12Z</time>
      </trkpt>
      <trkpt lat="42.854519" lon="0.661882">
        <ele>1710.3</ele>
        <time>2018-11-16T13:39:21Z</time>
      </trkpt>
      <trkpt lat="42.854449" lon="0.661981">
        <ele>1711.7</ele>
        <time>2018-11-16T13:39:29Z</time>
      </trkpt>
      <trkpt lat="42.854383" lon="0.662062">
        <ele>1713.1</ele>
        <time>2018-11-16T13:39:36Z</time>
      </trkpt>
      <trkpt lat="42.854317" lon="0.662150">
        <ele>1714.1</ele>
        <time>2018-11-16T13:39:43Z</time>
      </trkpt>
      <trkpt lat="42.854253" lon="0.662231">
        <ele>1715.3</ele>
        <time>2018-11-16T13:39:51Z</time>
      </trkpt>
      <trkpt lat="42.854175" lon="0.662318">
        <ele>1716.4</ele>
        <time>2018-11-16T13:40:00Z</time>
      </trkpt>
      <trkpt lat="42.854094" lon="0.662398">
        <ele>1717.7</ele>
        <time>2018-11-16T13:40:08Z</time>
      </trkpt>
      <trkpt lat="42.854013" lon="0.662491">
        <ele>1719.0</ele>
        <time>2018-11-16T13:40:16Z</time>
      </trkpt>
      <trkpt lat="42.853930" lon="0.662534">
        <ele>1719.9</ele>
        <time>2018-11-16T13:40:23Z</time>
      </trkpt>
      <trkpt lat="42.853837" lon="0.662537">
        <ele>1721.3</ele>
        <time>2018-11-16T13:40:31Z</time>
      </trkpt>
      <trkpt lat="42.853764" lon="0.662599">
        <ele>1722.7</ele>
        <time>2018-11-16T13:40:40Z</time>
      </trkpt>
      <trkpt lat="42.853850" lon="0.662654">
        <ele>1724.5</ele>
        <time>2018-11-16T13:40:51Z</time>
      </trkpt>
      <trkpt lat="42.853955" lon="0.662679">
        <ele>1726.3</ele>
        <time>2018-11-16T13:41:11Z</time>
      </trkpt>
      <trkpt lat="42.854066" lon="0.662687">
        <ele>1727.7</ele>
        <time>2018-11-16T13:41:20Z</time>
      </trkpt>
      <trkpt lat="42.854166" lon="0.662693">
        <ele>1728.8</ele>
        <time>2018-11-16T13:41:28Z</time>
      </trkpt>
      <trkpt lat="42.854251" lon="0.662698">
        <ele>1729.7</ele>
        <time>2018-11-16T13:41:34Z</time>
      </trkpt>
      <trkpt lat="42.854334" lon="0.662719">
        <ele>1731.2</ele>
        <time>2018-11-16T13:41:42Z</time>
      </trkpt>
      <trkpt lat="42.854378" lon="0.662809">
        <ele>1732.7</ele>
        <time>2018-11-16T13:41:49Z</time>
      </trkpt>
      <trkpt lat="42.854311" lon="0.662900">
        <ele>1734.9</ele>
        <time>2018-11-16T13:41:58Z</time>
      </trkpt>
      <trkpt lat="42.854213" lon="0.662957">
        <ele>1736.8</ele>
        <time>2018-11-16T13:42:06Z</time>
      </trkpt>
      <trkpt lat="42.854121" lon="0.663002">
        <ele>1739.0</ele>
        <time>2018-11-16T13:42:15Z</time>
      </trkpt>
      <trkpt lat="42.854046" lon="0.663070">
        <ele>1741.1</ele>
        <time>2018-11-16T13:42:26Z</time>
      </trkpt>
      <trkpt lat="42.853975" lon="0.663115">
        <ele>1742.8</ele>
        <time>2018-11-16T13:42:35Z</time>
      </trkpt>
      <trkpt lat="42.853884" lon="0.663168">
        <ele>1744.0</ele>
        <time>2018-11-16T13:42:43Z</time>
      </trkpt>
      <trkpt lat="42.853799" lon="0.663205">
        <ele>1745.4</ele>
        <time>2018-11-16T13:42:51Z</time>
      </trkpt>
      <trkpt lat="42.853741" lon="0.663314">
        <ele>1747.4</ele>
        <time>2018-11-16T13:43:02Z</time>
      </trkpt>
      <trkpt lat="42.853668" lon="0.663423">
        <ele>1751.4</ele>
        <time>2018-11-16T13:43:16Z</time>
      </trkpt>
      <trkpt lat="42.853594" lon="0.663507">
        <ele>1754.9</ele>
        <time>2018-11-16T13:43:29Z</time>
      </trkpt>
      <trkpt lat="42.853552" lon="0.663607">
        <ele>1758.7</ele>
        <time>2018-11-16T13:43:44Z</time>
      </trkpt>
      <trkpt lat="42.853490" lon="0.663690">
        <ele>1762.1</ele>
        <time>2018-11-16T13:43:58Z</time>
      </trkpt>
      <trkpt lat="42.853443" lon="0.663774">
        <ele>1765.4</ele>
        <time>2018-11-16T13:44:12Z</time>
      </trkpt>
      <trkpt lat="42.853418" lon="0.663879">
        <ele>1769.6</ele>
        <time>2018-11-16T13:44:29Z</time>
      </trkpt>
      <trkpt lat="42.853359" lon="0.663968">
        <ele>1773.3</ele>
        <time>2018-11-16T13:44:43Z</time>
      </trkpt>
      <trkpt lat="42.853296" lon="0.664064">
        <ele>1776.7</ele>
        <time>2018-11-16T13:44:57Z</time>
      </trkpt>
      <trkpt lat="42.853230" lon="0.664151">
        <ele>1780.8</ele>
        <time>2018-11-16T13:45:16Z</time>
      </trkpt>
      <trkpt lat="42.853158" lon="0.664225">
        <ele>1784.1</ele>
        <time>2018-11-16T13:45:31Z</time>
      </trkpt>
      <trkpt lat="42.853063" lon="0.664266">
        <ele>1786.9</ele>
        <time>2018-11-16T13:45:47Z</time>
      </trkpt>
      <trkpt lat="42.852978" lon="0.664288">
        <ele>1789.9</ele>
        <time>2018-11-16T13:46:02Z</time>
      </trkpt>
      <trkpt lat="42.852891" lon="0.664313">
        <ele>1791.8</ele>
        <time>2018-11-16T13:46:13Z</time>
      </trkpt>
      <trkpt lat="42.852829" lon="0.664392">
        <ele>1794.2</ele>
        <time>2018-11-16T13:46:26Z</time>
      </trkpt>
      <trkpt lat="42.852757" lon="0.664456">
        <ele>1797.6</ele>
        <time>2018-11-16T13:46:43Z</time>
      </trkpt>
      <trkpt lat="42.852692" lon="0.664538">
        <ele>1800.5</ele>
        <time>2018-11-16T13:46:58Z</time>
      </trkpt>
      <trkpt lat="42.852640" lon="0.664655">
        <ele>1803.5</ele>
        <time>2018-11-16T13:47:14Z</time>
      </trkpt>
      <trkpt lat="42.852558" lon="0.664733">
        <ele>1807.1</ele>
        <time>2018-11-16T13:47:29Z</time>
      </trkpt>
      <trkpt lat="42.852472" lon="0.664810">
        <ele>1810.7</ele>
        <time>2018-11-16T13:47:45Z</time>
      </trkpt>
      <trkpt lat="42.852395" lon="0.664890">
        <ele>1813.7</ele>
        <time>2018-11-16T13:48:02Z</time>
      </trkpt>
      <trkpt lat="42.852343" lon="0.664991">
        <ele>1817.5</ele>
        <time>2018-11-16T13:48:20Z</time>
      </trkpt>
      <trkpt lat="42.852349" lon="0.665110">
        <ele>1820.4</ele>
        <time>2018-11-16T13:48:32Z</time>
      </trkpt>
      <trkpt lat="42.852367" lon="0.665207">
        <ele>1823.4</ele>
        <time>2018-11-16T13:48:47Z</time>
      </trkpt>
      <trkpt lat="42.852356" lon="0.665329">
        <ele>1827.1</ele>
        <time>2018-11-16T13:49:05Z</time>
      </trkpt>
      <trkpt lat="42.852365" lon="0.665462">
        <ele>1830.8</ele>
        <time>2018-11-16T13:49:22Z</time>
      </trkpt>
      <trkpt lat="42.852354" lon="0.665574">
        <ele>1834.9</ele>
        <time>2018-11-16T13:49:40Z</time>
      </trkpt>
      <trkpt lat="42.852377" lon="0.665671">
        <ele>1839.4</ele>
        <time>2018-11-16T13:49:57Z</time>
      </trkpt>
      <trkpt lat="42.852333" lon="0.665770">
        <ele>1843.0</ele>
        <time>2018-11-16T13:50:14Z</time>
      </trkpt>
      <trkpt lat="42.852317" lon="0.665875">
        <ele>1846.4</ele>
        <time>2018-11-16T13:50:31Z</time>
      </trkpt>
      <trkpt lat="42.852300" lon="0.665990">
        <ele>1849.9</ele>
        <time>2018-11-16T13:50:50Z</time>
      </trkpt>
      <trkpt lat="42.852252" lon="0.666103">
        <ele>1852.8</ele>
        <time>2018-11-16T13:51:07Z</time>
      </trkpt>
      <trkpt lat="42.852223" lon="0.666201">
        <ele>1856.3</ele>
        <time>2018-11-16T13:51:25Z</time>
      </trkpt>
      <trkpt lat="42.852210" lon="0.666317">
        <ele>1859.2</ele>
        <time>2018-11-16T13:51:42Z</time>
      </trkpt>
      <trkpt lat="42.852188" lon="0.666431">
        <ele>1862.8</ele>
        <time>2018-11-16T13:52:01Z</time>
      </trkpt>
      <trkpt lat="42.852204" lon="0.666555">
        <ele>1866.0</ele>
        <time>2018-11-16T13:52:19Z</time>
      </trkpt>
      <trkpt lat="42.852192" lon="0.666686">
        <ele>1869.3</ele>
        <time>2018-11-16T13:52:37Z</time>
      </trkpt>
      <trkpt lat="42.852174" lon="0.666827">
        <ele>1871.6</ele>
        <time>2018-11-16T13:53:03Z</time>
      </trkpt>
      <trkpt lat="42.852151" lon="0.666945">
        <ele>1874.2</ele>
        <time>2018-11-16T13:53:19Z</time>
      </trkpt>
      <trkpt lat="42.852112" lon="0.667069">
        <ele>1876.7</ele>
        <time>2018-11-16T13:53:33Z</time>
      </trkpt>
      <trkpt lat="42.852054" lon="0.667178">
        <ele>1877.2</ele>
        <time>2018-11-16T13:53:43Z</time>
      </trkpt>
      <trkpt lat="42.852018" lon="0.667301">
        <ele>1876.6</ele>
        <time>2018-11-16T13:53:53Z</time>
      </trkpt>
      <trkpt lat="42.851976" lon="0.667422">
        <ele>1876.0</ele>
        <time>2018-11-16T13:54:04Z</time>
      </trkpt>
      <trkpt lat="42.851948" lon="0.667537">
        <ele>1876.4</ele>
        <time>2018-11-16T13:54:13Z</time>
      </trkpt>
      <trkpt lat="42.851927" lon="0.667658">
        <ele>1878.0</ele>
        <time>2018-11-16T13:54:24Z</time>
      </trkpt>
      <trkpt lat="42.851925" lon="0.667786">
        <ele>1880.0</ele>
        <time>2018-11-16T13:54:35Z</time>
      </trkpt>
      <trkpt lat="42.851901" lon="0.667903">
        <ele>1881.7</ele>
        <time>2018-11-16T13:54:47Z</time>
      </trkpt>
      <trkpt lat="42.851851" lon="0.668015">
        <ele>1884.2</ele>
        <time>2018-11-16T13:54:59Z</time>
      </trkpt>
      <trkpt lat="42.851829" lon="0.668114">
        <ele>1886.6</ele>
        <time>2018-11-16T13:55:11Z</time>
      </trkpt>
      <trkpt lat="42.851774" lon="0.668227">
        <ele>1890.3</ele>
        <time>2018-11-16T13:55:30Z</time>
      </trkpt>
      <trkpt lat="42.851738" lon="0.668346">
        <ele>1893.0</ele>
        <time>2018-11-16T13:55:47Z</time>
      </trkpt>
      <trkpt lat="42.851699" lon="0.668453">
        <ele>1896.4</ele>
        <time>2018-11-16T13:56:18Z</time>
      </trkpt>
      <trkpt lat="42.851668" lon="0.668598">
        <ele>1898.0</ele>
        <time>2018-11-16T13:56:31Z</time>
      </trkpt>
      <trkpt lat="42.851644" lon="0.668725">
        <ele>1900.4</ele>
        <time>2018-11-16T13:56:42Z</time>
      </trkpt>
      <trkpt lat="42.851622" lon="0.668835">
        <ele>1902.3</ele>
        <time>2018-11-16T13:56:51Z</time>
      </trkpt>
      <trkpt lat="42.851578" lon="0.668952">
        <ele>1905.1</ele>
        <time>2018-11-16T13:57:01Z</time>
      </trkpt>
      <trkpt lat="42.851541" lon="0.669065">
        <ele>1907.6</ele>
        <time>2018-11-16T13:57:10Z</time>
      </trkpt>
      <trkpt lat="42.851509" lon="0.669199">
        <ele>1909.9</ele>
        <time>2018-11-16T13:57:20Z</time>
      </trkpt>
      <trkpt lat="42.851476" lon="0.669329">
        <ele>1912.3</ele>
        <time>2018-11-16T13:57:30Z</time>
      </trkpt>
      <trkpt lat="42.851448" lon="0.669463">
        <ele>1914.4</ele>
        <time>2018-11-16T13:57:41Z</time>
      </trkpt>
      <trkpt lat="42.851409" lon="0.669584">
        <ele>1916.1</ele>
        <time>2018-11-16T13:57:51Z</time>
      </trkpt>
      <trkpt lat="42.851399" lon="0.669707">
        <ele>1917.7</ele>
        <time>2018-11-16T13:58:00Z</time>
      </trkpt>
      <trkpt lat="42.851382" lon="0.669851">
        <ele>1919.3</ele>
        <time>2018-11-16T13:58:09Z</time>
      </trkpt>
      <trkpt lat="42.851357" lon="0.669985">
        <ele>1920.7</ele>
        <time>2018-11-16T13:58:18Z</time>
      </trkpt>
      <trkpt lat="42.851347" lon="0.670117">
        <ele>1921.8</ele>
        <time>2018-11-16T13:58:26Z</time>
      </trkpt>
      <trkpt lat="42.851328" lon="0.670249">
        <ele>1922.5</ele>
        <time>2018-11-16T13:58:34Z</time>
      </trkpt>
      <trkpt lat="42.851328" lon="0.670389">
        <ele>1922.9</ele>
        <time>2018-11-16T13:58:42Z</time>
      </trkpt>
      <trkpt lat="42.851354" lon="0.670506">
        <ele>1923.6</ele>
        <time>2018-11-16T13:58:49Z</time>
      </trkpt>
      <trkpt lat="42.851383" lon="0.670623">
        <ele>1924.1</ele>
        <time>2018-11-16T13:58:56Z</time>
      </trkpt>
      <trkpt lat="42.851407" lon="0.670739">
        <ele>1924.7</ele>
        <time>2018-11-16T13:59:04Z</time>
      </trkpt>
      <trkpt lat="42.851420" lon="0.670858">
        <ele>1925.6</ele>
        <time>2018-11-16T13:59:12Z</time>
      </trkpt>
      <trkpt lat="42.851440" lon="0.671000">
        <ele>1927.0</ele>
        <time>2018-11-16T13:59:21Z</time>
      </trkpt>
      <trkpt lat="42.851460" lon="0.671131">
        <ele>1928.0</ele>
        <time>2018-11-16T13:59:29Z</time>
      </trkpt>
      <trkpt lat="42.851486" lon="0.671274">
        <ele>1929.4</ele>
        <time>2018-11-16T13:59:38Z</time>
      </trkpt>
      <trkpt lat="42.851503" lon="0.671391">
        <ele>1931.1</ele>
        <time>2018-11-16T13:59:47Z</time>
      </trkpt>
      <trkpt lat="42.851518" lon="0.671526">
        <ele>1932.8</ele>
        <time>2018-11-16T13:59:56Z</time>
      </trkpt>
      <trkpt lat="42.851550" lon="0.671671">
        <ele>1934.5</ele>
        <time>2018-11-16T14:00:05Z</time>
      </trkpt>
      <trkpt lat="42.851567" lon="0.671794">
        <ele>1935.9</ele>
        <time>2018-11-16T14:00:12Z</time>
      </trkpt>
      <trkpt lat="42.851591" lon="0.671908">
        <ele>1936.8</ele>
        <time>2018-11-16T14:00:19Z</time>
      </trkpt>
      <trkpt lat="42.851619" lon="0.672031">
        <ele>1937.8</ele>
        <time>2018-11-16T14:00:27Z</time>
      </trkpt>
      <trkpt lat="42.851662" lon="0.672144">
        <ele>1938.6</ele>
        <time>2018-11-16T14:00:35Z</time>
      </trkpt>
      <trkpt lat="42.851701" lon="0.672254">
        <ele>1939.7</ele>
        <time>2018-11-16T14:00:44Z</time>
      </trkpt>
      <trkpt lat="42.851750" lon="0.672360">
        <ele>1941.1</ele>
        <time>2018-11-16T14:00:52Z</time>
      </trkpt>
      <trkpt lat="42.851760" lon="0.672493">
        <ele>1942.9</ele>
        <time>2018-11-16T14:01:01Z</time>
      </trkpt>
      <trkpt lat="42.851761" lon="0.672623">
        <ele>1944.3</ele>
        <time>2018-11-16T14:01:09Z</time>
      </trkpt>
      <trkpt lat="42.851777" lon="0.672741">
        <ele>1945.2</ele>
        <time>2018-11-16T14:01:16Z</time>
      </trkpt>
      <trkpt lat="42.851792" lon="0.672860">
        <ele>1946.4</ele>
        <time>2018-11-16T14:01:25Z</time>
      </trkpt>
      <trkpt lat="42.851811" lon="0.672987">
        <ele>1947.6</ele>
        <time>2018-11-16T14:01:34Z</time>
      </trkpt>
      <trkpt lat="42.851845" lon="0.673102">
        <ele>1949.2</ele>
        <time>2018-11-16T14:01:43Z</time>
      </trkpt>
      <trkpt lat="42.851899" lon="0.673201">
        <ele>1951.6</ele>
        <time>2018-11-16T14:01:55Z</time>
      </trkpt>
      <trkpt lat="42.851946" lon="0.673279">
        <ele>1954.7</ele>
        <time>2018-11-16T14:02:08Z</time>
      </trkpt>
      <trkpt lat="42.852015" lon="0.673363">
        <ele>1957.8</ele>
        <time>2018-11-16T14:02:23Z</time>
      </trkpt>
      <trkpt lat="42.852109" lon="0.673423">
        <ele>1960.2</ele>
        <time>2018-11-16T14:02:36Z</time>
      </trkpt>
      <trkpt lat="42.852116" lon="0.673422">
        <ele>1962.1</ele>
        <time>2018-11-16T14:02:54Z</time>
      </trkpt>
      <trkpt lat="42.852201" lon="0.673492">
        <ele>1963.3</ele>
        <time>2018-11-16T14:03:08Z</time>
      </trkpt>
      <trkpt lat="42.852291" lon="0.673504">
        <ele>1964.9</ele>
        <time>2018-11-16T14:03:17Z</time>
      </trkpt>
      <trkpt lat="42.852376" lon="0.673477">
        <ele>1967.0</ele>
        <time>2018-11-16T14:03:28Z</time>
      </trkpt>
      <trkpt lat="42.852461" lon="0.673444">
        <ele>1968.7</ele>
        <time>2018-11-16T14:03:39Z</time>
      </trkpt>
      <trkpt lat="42.852552" lon="0.673436">
        <ele>1969.9</ele>
        <time>2018-11-16T14:03:50Z</time>
      </trkpt>
      <trkpt lat="42.852643" lon="0.673491">
        <ele>1970.9</ele>
        <time>2018-11-16T14:04:02Z</time>
      </trkpt>
      <trkpt lat="42.852753" lon="0.673540">
        <ele>1971.4</ele>
        <time>2018-11-16T14:04:11Z</time>
      </trkpt>
      <trkpt lat="42.852821" lon="0.673594">
        <ele>1972.2</ele>
        <time>2018-11-16T14:04:20Z</time>
      </trkpt>
      <trkpt lat="42.852882" lon="0.673661">
        <ele>1973.5</ele>
        <time>2018-11-16T14:04:30Z</time>
      </trkpt>
      <trkpt lat="42.852950" lon="0.673721">
        <ele>1975.2</ele>
        <time>2018-11-16T14:04:41Z</time>
      </trkpt>
      <trkpt lat="42.853012" lon="0.673832">
        <ele>1977.8</ele>
        <time>2018-11-16T14:04:52Z</time>
      </trkpt>
      <trkpt lat="42.853112" lon="0.673814">
        <ele>1980.8</ele>
        <time>2018-11-16T14:05:07Z</time>
      </trkpt>
      <trkpt lat="42.853190" lon="0.673884">
        <ele>1984.6</ele>
        <time>2018-11-16T14:05:23Z</time>
      </trkpt>
      <trkpt lat="42.853241" lon="0.673942">
        <ele>1988.5</ele>
        <time>2018-11-16T14:05:44Z</time>
      </trkpt>
      <trkpt lat="42.853309" lon="0.674008">
        <ele>1992.4</ele>
        <time>2018-11-16T14:06:04Z</time>
      </trkpt>
      <trkpt lat="42.853367" lon="0.674042">
        <ele>1996.5</ele>
        <time>2018-11-16T14:06:25Z</time>
      </trkpt>
      <trkpt lat="42.853400" lon="0.674136">
        <ele>1999.9</ele>
        <time>2018-11-16T14:06:41Z</time>
      </trkpt>
      <trkpt lat="42.853416" lon="0.674255">
        <ele>2006.4</ele>
        <time>2018-11-16T14:08:26Z</time>
      </trkpt>
      <trkpt lat="42.853494" lon="0.674336">
        <ele>2007.0</ele>
        <time>2018-11-16T14:08:35Z</time>
      </trkpt>
      <trkpt lat="42.853605" lon="0.674385">
        <ele>2008.2</ele>
        <time>2018-11-16T14:09:06Z</time>
      </trkpt>
      <trkpt lat="42.853692" lon="0.674329">
        <ele>2008.3</ele>
        <time>2018-11-16T14:09:15Z</time>
      </trkpt>
      <trkpt lat="42.853764" lon="0.674239">
        <ele>2008.8</ele>
        <time>2018-11-16T14:09:25Z</time>
      </trkpt>
      <trkpt lat="42.853855" lon="0.674169">
        <ele>2009.7</ele>
        <time>2018-11-16T14:09:43Z</time>
      </trkpt>
      <trkpt lat="42.853920" lon="0.674068">
        <ele>2010.6</ele>
        <time>2018-11-16T14:09:53Z</time>
      </trkpt>
      <trkpt lat="42.853993" lon="0.673979">
        <ele>2011.3</ele>
        <time>2018-11-16T14:10:02Z</time>
      </trkpt>
      <trkpt lat="42.854046" lon="0.673882">
        <ele>2011.8</ele>
        <time>2018-11-16T14:10:11Z</time>
      </trkpt>
      <trkpt lat="42.854098" lon="0.673777">
        <ele>2011.7</ele>
        <time>2018-11-16T14:10:22Z</time>
      </trkpt>
      <trkpt lat="42.854160" lon="0.673659">
        <ele>2011.6</ele>
        <time>2018-11-16T14:10:33Z</time>
      </trkpt>
      <trkpt lat="42.854277" lon="0.673657">
        <ele>2011.4</ele>
        <time>2018-11-16T14:10:44Z</time>
      </trkpt>
      <trkpt lat="42.854356" lon="0.673565">
        <ele>2012.3</ele>
        <time>2018-11-16T14:10:55Z</time>
      </trkpt>
      <trkpt lat="42.854435" lon="0.673485">
        <ele>2013.3</ele>
        <time>2018-11-16T14:11:06Z</time>
      </trkpt>
      <trkpt lat="42.854516" lon="0.673432">
        <ele>2014.4</ele>
        <time>2018-11-16T14:11:18Z</time>
      </trkpt>
      <trkpt lat="42.854589" lon="0.673341">
        <ele>2016.2</ele>
        <time>2018-11-16T14:11:31Z</time>
      </trkpt>
      <trkpt lat="42.854664" lon="0.673258">
        <ele>2017.5</ele>
        <time>2018-11-16T14:11:43Z</time>
      </trkpt>
      <trkpt lat="42.854732" lon="0.673179">
        <ele>2019.0</ele>
        <time>2018-11-16T14:11:53Z</time>
      </trkpt>
      <trkpt lat="42.854804" lon="0.673091">
        <ele>2020.4</ele>
        <time>2018-11-16T14:12:05Z</time>
      </trkpt>
      <trkpt lat="42.854884" lon="0.673033">
        <ele>2021.5</ele>
        <time>2018-11-16T14:12:16Z</time>
      </trkpt>
      <trkpt lat="42.854962" lon="0.672950">
        <ele>2022.9</ele>
        <time>2018-11-16T14:12:27Z</time>
      </trkpt>
      <trkpt lat="42.855050" lon="0.672865">
        <ele>2024.1</ele>
        <time>2018-11-16T14:12:37Z</time>
      </trkpt>
      <trkpt lat="42.855133" lon="0.672813">
        <ele>2026.1</ele>
        <time>2018-11-16T14:12:46Z</time>
      </trkpt>
      <trkpt lat="42.855196" lon="0.672731">
        <ele>2028.0</ele>
        <time>2018-11-16T14:12:57Z</time>
      </trkpt>
      <trkpt lat="42.855283" lon="0.672656">
        <ele>2030.0</ele>
        <time>2018-11-16T14:13:10Z</time>
      </trkpt>
      <trkpt lat="42.855357" lon="0.672570">
        <ele>2033.3</ele>
        <time>2018-11-16T14:13:26Z</time>
      </trkpt>
      <trkpt lat="42.855398" lon="0.672448">
        <ele>2036.0</ele>
        <time>2018-11-16T14:13:40Z</time>
      </trkpt>
      <trkpt lat="42.855436" lon="0.672343">
        <ele>2038.1</ele>
        <time>2018-11-16T14:13:53Z</time>
      </trkpt>
      <trkpt lat="42.855501" lon="0.672247">
        <ele>2040.7</ele>
        <time>2018-11-16T14:14:06Z</time>
      </trkpt>
      <trkpt lat="42.855571" lon="0.672146">
        <ele>2043.6</ele>
        <time>2018-11-16T14:14:21Z</time>
      </trkpt>
      <trkpt lat="42.855856" lon="0.671469">
        <ele>2075.9</ele>
        <time>2018-11-16T14:17:25Z</time>
      </trkpt>
      <trkpt lat="42.855881" lon="0.671382">
        <ele>2077.8</ele>
        <time>2018-11-16T14:17:38Z</time>
      </trkpt>
      <trkpt lat="42.855959" lon="0.671313">
        <ele>2081.6</ele>
        <time>2018-11-16T14:17:53Z</time>
      </trkpt>
      <trkpt lat="42.856028" lon="0.671188">
        <ele>2088.8</ele>
        <time>2018-11-16T14:18:54Z</time>
      </trkpt>
      <trkpt lat="42.856042" lon="0.671060">
        <ele>2091.1</ele>
        <time>2018-11-16T14:19:10Z</time>
      </trkpt>
      <trkpt lat="42.856156" lon="0.671039">
        <ele>2092.4</ele>
        <time>2018-11-16T14:19:43Z</time>
      </trkpt>
      <trkpt lat="42.856275" lon="0.671044">
        <ele>2094.3</ele>
        <time>2018-11-16T14:19:57Z</time>
      </trkpt>
      <trkpt lat="42.856389" lon="0.671017">
        <ele>2095.1</ele>
        <time>2018-11-16T14:20:08Z</time>
      </trkpt>
      <trkpt lat="42.856497" lon="0.671043">
        <ele>2096.7</ele>
        <time>2018-11-16T14:20:22Z</time>
      </trkpt>
      <trkpt lat="42.856583" lon="0.671058">
        <ele>2098.6</ele>
        <time>2018-11-16T14:20:36Z</time>
      </trkpt>
      <trkpt lat="42.856687" lon="0.671032">
        <ele>2100.6</ele>
        <time>2018-11-16T14:20:50Z</time>
      </trkpt>
      <trkpt lat="42.856771" lon="0.671043">
        <ele>2102.1</ele>
        <time>2018-11-16T14:21:03Z</time>
      </trkpt>
      <trkpt lat="42.856853" lon="0.671039">
        <ele>2104.5</ele>
        <time>2018-11-16T14:21:17Z</time>
      </trkpt>
      <trkpt lat="42.856941" lon="0.671053">
        <ele>2106.2</ele>
        <time>2018-11-16T14:21:29Z</time>
      </trkpt>
      <trkpt lat="42.857030" lon="0.671063">
        <ele>2108.6</ele>
        <time>2018-11-16T14:21:43Z</time>
      </trkpt>
      <trkpt lat="42.857130" lon="0.671043">
        <ele>2111.7</ele>
        <time>2018-11-16T14:22:00Z</time>
      </trkpt>
      <trkpt lat="42.857234" lon="0.671033">
        <ele>2113.6</ele>
        <time>2018-11-16T14:22:14Z</time>
      </trkpt>
      <trkpt lat="42.857335" lon="0.670973">
        <ele>2116.7</ele>
        <time>2018-11-16T14:22:28Z</time>
      </trkpt>
      <trkpt lat="42.857407" lon="0.670891">
        <ele>2117.7</ele>
        <time>2018-11-16T14:22:40Z</time>
      </trkpt>
      <trkpt lat="42.857504" lon="0.670833">
        <ele>2118.6</ele>
        <time>2018-11-16T14:22:54Z</time>
      </trkpt>
      <trkpt lat="42.857596" lon="0.670795">
        <ele>2120.1</ele>
        <time>2018-11-16T14:23:07Z</time>
      </trkpt>
      <trkpt lat="42.857674" lon="0.670789">
        <ele>2123.4</ele>
        <time>2018-11-16T14:23:23Z</time>
      </trkpt>
      <trkpt lat="42.857769" lon="0.670769">
        <ele>2124.7</ele>
        <time>2018-11-16T14:23:34Z</time>
      </trkpt>
      <trkpt lat="42.857826" lon="0.670784">
        <ele>2126.7</ele>
        <time>2018-11-16T14:23:51Z</time>
      </trkpt>
      <trkpt lat="42.857848" lon="0.670771">
        <ele>2127.1</ele>
        <time>2018-11-16T14:24:22Z</time>
      </trkpt>
      <trkpt lat="42.857939" lon="0.670763">
        <ele>2128.0</ele>
        <time>2018-11-16T14:24:32Z</time>
      </trkpt>
      <trkpt lat="42.858020" lon="0.670832">
        <ele>2128.2</ele>
        <time>2018-11-16T14:24:42Z</time>
      </trkpt>
      <trkpt lat="42.858116" lon="0.670851">
        <ele>2128.1</ele>
        <time>2018-11-16T14:24:51Z</time>
      </trkpt>
      <trkpt lat="42.858212" lon="0.670819">
        <ele>2128.5</ele>
        <time>2018-11-16T14:25:00Z</time>
      </trkpt>
      <trkpt lat="42.858316" lon="0.670770">
        <ele>2129.2</ele>
        <time>2018-11-16T14:25:09Z</time>
      </trkpt>
      <trkpt lat="42.858410" lon="0.670746">
        <ele>2130.0</ele>
        <time>2018-11-16T14:25:18Z</time>
      </trkpt>
      <trkpt lat="42.858504" lon="0.670749">
        <ele>2130.5</ele>
        <time>2018-11-16T14:25:27Z</time>
      </trkpt>
      <trkpt lat="42.858609" lon="0.670736">
        <ele>2130.6</ele>
        <time>2018-11-16T14:25:36Z</time>
      </trkpt>
      <trkpt lat="42.858701" lon="0.670727">
        <ele>2130.9</ele>
        <time>2018-11-16T14:25:45Z</time>
      </trkpt>
      <trkpt lat="42.858792" lon="0.670724">
        <ele>2131.5</ele>
        <time>2018-11-16T14:25:54Z</time>
      </trkpt>
      <trkpt lat="42.858886" lon="0.670737">
        <ele>2132.3</ele>
        <time>2018-11-16T14:26:04Z</time>
      </trkpt>
      <trkpt lat="42.858968" lon="0.670769">
        <ele>2133.0</ele>
        <time>2018-11-16T14:26:14Z</time>
      </trkpt>
      <trkpt lat="42.859062" lon="0.670763">
        <ele>2134.4</ele>
        <time>2018-11-16T14:26:27Z</time>
      </trkpt>
      <trkpt lat="42.859169" lon="0.670768">
        <ele>2138.3</ele>
        <time>2018-11-16T14:26:45Z</time>
      </trkpt>
      <trkpt lat="42.859257" lon="0.670760">
        <ele>2141.8</ele>
        <time>2018-11-16T14:27:03Z</time>
      </trkpt>
      <trkpt lat="42.859333" lon="0.670819">
        <ele>2144.3</ele>
        <time>2018-11-16T14:27:16Z</time>
      </trkpt>
      <trkpt lat="42.859368" lon="0.670693">
        <ele>2151.2</ele>
        <time>2018-11-16T14:42:03Z</time>
      </trkpt>
      <trkpt lat="42.859398" lon="0.670567">
        <ele>2150.0</ele>
        <time>2018-11-16T14:42:10Z</time>
      </trkpt>
      <trkpt lat="42.859402" lon="0.670436">
        <ele>2148.2</ele>
        <time>2018-11-16T14:42:18Z</time>
      </trkpt>
      <trkpt lat="42.859422" lon="0.670323">
        <ele>2144.6</ele>
        <time>2018-11-16T14:42:29Z</time>
      </trkpt>
      <trkpt lat="42.859439" lon="0.670194">
        <ele>2141.0</ele>
        <time>2018-11-16T14:42:42Z</time>
      </trkpt>
      <trkpt lat="42.859492" lon="0.670085">
        <ele>2136.4</ele>
        <time>2018-11-16T14:42:54Z</time>
      </trkpt>
      <trkpt lat="42.859529" lon="0.669970">
        <ele>2132.4</ele>
        <time>2018-11-16T14:43:06Z</time>
      </trkpt>
      <trkpt lat="42.859592" lon="0.669832">
        <ele>2128.5</ele>
        <time>2018-11-16T14:43:20Z</time>
      </trkpt>
      <trkpt lat="42.859621" lon="0.669722">
        <ele>2125.8</ele>
        <time>2018-11-16T14:43:31Z</time>
      </trkpt>
      <trkpt lat="42.859655" lon="0.669607">
        <ele>2121.5</ele>
        <time>2018-11-16T14:43:46Z</time>
      </trkpt>
      <trkpt lat="42.859692" lon="0.669475">
        <ele>2119.4</ele>
        <time>2018-11-16T14:43:53Z</time>
      </trkpt>
      <trkpt lat="42.859725" lon="0.669354">
        <ele>2116.8</ele>
        <time>2018-11-16T14:43:59Z</time>
      </trkpt>
      <trkpt lat="42.859738" lon="0.669221">
        <ele>2114.0</ele>
        <time>2018-11-16T14:44:05Z</time>
      </trkpt>
      <trkpt lat="42.859755" lon="0.669081">
        <ele>2110.0</ele>
        <time>2018-11-16T14:44:12Z</time>
      </trkpt>
      <trkpt lat="42.859790" lon="0.668937">
        <ele>2107.0</ele>
        <time>2018-11-16T14:44:18Z</time>
      </trkpt>
      <trkpt lat="42.859806" lon="0.668801">
        <ele>2103.9</ele>
        <time>2018-11-16T14:44:24Z</time>
      </trkpt>
      <trkpt lat="42.859838" lon="0.668669">
        <ele>2100.9</ele>
        <time>2018-11-16T14:44:30Z</time>
      </trkpt>
      <trkpt lat="42.859849" lon="0.668541">
        <ele>2098.1</ele>
        <time>2018-11-16T14:44:36Z</time>
      </trkpt>
      <trkpt lat="42.859860" lon="0.668411">
        <ele>2093.6</ele>
        <time>2018-11-16T14:44:44Z</time>
      </trkpt>
      <trkpt lat="42.859888" lon="0.668280">
        <ele>2089.4</ele>
        <time>2018-11-16T14:44:52Z</time>
      </trkpt>
      <trkpt lat="42.859905" lon="0.668150">
        <ele>2085.0</ele>
        <time>2018-11-16T14:45:00Z</time>
      </trkpt>
      <trkpt lat="42.859910" lon="0.668014">
        <ele>2082.2</ele>
        <time>2018-11-16T14:45:07Z</time>
      </trkpt>
      <trkpt lat="42.859926" lon="0.667884">
        <ele>2079.3</ele>
        <time>2018-11-16T14:45:13Z</time>
      </trkpt>
      <trkpt lat="42.859934" lon="0.667746">
        <ele>2075.6</ele>
        <time>2018-11-16T14:45:20Z</time>
      </trkpt>
      <trkpt lat="42.859923" lon="0.667617">
        <ele>2070.9</ele>
        <time>2018-11-16T14:45:27Z</time>
      </trkpt>
      <trkpt lat="42.859938" lon="0.667505">
        <ele>2067.0</ele>
        <time>2018-11-16T14:45:34Z</time>
      </trkpt>
      <trkpt lat="42.859956" lon="0.667375">
        <ele>2062.6</ele>
        <time>2018-11-16T14:45:43Z</time>
      </trkpt>
      <trkpt lat="42.859969" lon="0.667242">
        <ele>2058.1</ele>
        <time>2018-11-16T14:45:51Z</time>
      </trkpt>
      <trkpt lat="42.859990" lon="0.667125">
        <ele>2054.4</ele>
        <time>2018-11-16T14:45:58Z</time>
      </trkpt>
      <trkpt lat="42.859999" lon="0.666986">
        <ele>2050.7</ele>
        <time>2018-11-16T14:46:04Z</time>
      </trkpt>
      <trkpt lat="42.859998" lon="0.666851">
        <ele>2047.1</ele>
        <time>2018-11-16T14:46:10Z</time>
      </trkpt>
      <trkpt lat="42.859976" lon="0.666727">
        <ele>2043.2</ele>
        <time>2018-11-16T14:46:16Z</time>
      </trkpt>
      <trkpt lat="42.859977" lon="0.666578">
        <ele>2037.8</ele>
        <time>2018-11-16T14:46:23Z</time>
      </trkpt>
      <trkpt lat="42.859988" lon="0.666449">
        <ele>2034.4</ele>
        <time>2018-11-16T14:46:29Z</time>
      </trkpt>
      <trkpt lat="42.860014" lon="0.666322">
        <ele>2031.4</ele>
        <time>2018-11-16T14:46:35Z</time>
      </trkpt>
      <trkpt lat="42.860019" lon="0.666204">
        <ele>2028.2</ele>
        <time>2018-11-16T14:46:42Z</time>
      </trkpt>
      <trkpt lat="42.860003" lon="0.666081">
        <ele>2024.1</ele>
        <time>2018-11-16T14:46:55Z</time>
      </trkpt>
      <trkpt lat="42.859986" lon="0.665948">
        <ele>2023.7</ele>
        <time>2018-11-16T14:47:02Z</time>
      </trkpt>
      <trkpt lat="42.860005" lon="0.665818">
        <ele>2022.3</ele>
        <time>2018-11-16T14:47:09Z</time>
      </trkpt>
      <trkpt lat="42.860025" lon="0.665693">
        <ele>2021.8</ele>
        <time>2018-11-16T14:47:16Z</time>
      </trkpt>
      <trkpt lat="42.860047" lon="0.665572">
        <ele>2021.2</ele>
        <time>2018-11-16T14:47:23Z</time>
      </trkpt>
      <trkpt lat="42.860062" lon="0.665454">
        <ele>2019.4</ele>
        <time>2018-11-16T14:47:32Z</time>
      </trkpt>
      <trkpt lat="42.860098" lon="0.665327">
        <ele>2016.7</ele>
        <time>2018-11-16T14:47:41Z</time>
      </trkpt>
      <trkpt lat="42.860141" lon="0.665206">
        <ele>2014.4</ele>
        <time>2018-11-16T14:47:49Z</time>
      </trkpt>
      <trkpt lat="42.860164" lon="0.665086">
        <ele>2010.3</ele>
        <time>2018-11-16T14:48:01Z</time>
      </trkpt>
      <trkpt lat="42.860182" lon="0.664960">
        <ele>2006.2</ele>
        <time>2018-11-16T14:48:12Z</time>
      </trkpt>
      <trkpt lat="42.860197" lon="0.664819">
        <ele>2002.2</ele>
        <time>2018-11-16T14:48:22Z</time>
      </trkpt>
      <trkpt lat="42.860217" lon="0.664678">
        <ele>1997.6</ele>
        <time>2018-11-16T14:48:31Z</time>
      </trkpt>
      <trkpt lat="42.860230" lon="0.664542">
        <ele>1992.6</ele>
        <time>2018-11-16T14:48:44Z</time>
      </trkpt>
      <trkpt lat="42.860191" lon="0.664497">
        <ele>1988.4</ele>
        <time>2018-11-16T14:48:55Z</time>
      </trkpt>
      <trkpt lat="42.860191" lon="0.664397">
        <ele>1984.1</ele>
        <time>2018-11-16T14:49:11Z</time>
      </trkpt>
      <trkpt lat="42.860239" lon="0.664303">
        <ele>1982.0</ele>
        <time>2018-11-16T14:49:18Z</time>
      </trkpt>
      <trkpt lat="42.860275" lon="0.664209">
        <ele>1980.1</ele>
        <time>2018-11-16T14:49:57Z</time>
      </trkpt>
      <trkpt lat="42.860297" lon="0.664095">
        <ele>1978.1</ele>
        <time>2018-11-16T14:50:06Z</time>
      </trkpt>
      <trkpt lat="42.860333" lon="0.663985">
        <ele>1976.6</ele>
        <time>2018-11-16T14:50:12Z</time>
      </trkpt>
      <trkpt lat="42.860375" lon="0.663868">
        <ele>1975.6</ele>
        <time>2018-11-16T14:50:19Z</time>
      </trkpt>
      <trkpt lat="42.860420" lon="0.663754">
        <ele>1975.2</ele>
        <time>2018-11-16T14:50:26Z</time>
      </trkpt>
      <trkpt lat="42.860460" lon="0.663643">
        <ele>1975.4</ele>
        <time>2018-11-16T14:50:34Z</time>
      </trkpt>
      <trkpt lat="42.860498" lon="0.663519">
        <ele>1975.8</ele>
        <time>2018-11-16T14:50:42Z</time>
      </trkpt>
      <trkpt lat="42.860535" lon="0.663414">
        <ele>1975.5</ele>
        <time>2018-11-16T14:50:48Z</time>
      </trkpt>
      <trkpt lat="42.860587" lon="0.663319">
        <ele>1974.0</ele>
        <time>2018-11-16T14:50:55Z</time>
      </trkpt>
      <trkpt lat="42.860640" lon="0.663210">
        <ele>1972.1</ele>
        <time>2018-11-16T14:51:01Z</time>
      </trkpt>
      <trkpt lat="42.860674" lon="0.663087">
        <ele>1970.7</ele>
        <time>2018-11-16T14:51:07Z</time>
      </trkpt>
      <trkpt lat="42.860697" lon="0.662960">
        <ele>1969.6</ele>
        <time>2018-11-16T14:51:13Z</time>
      </trkpt>
      <trkpt lat="42.860734" lon="0.662852">
        <ele>1969.0</ele>
        <time>2018-11-16T14:51:19Z</time>
      </trkpt>
      <trkpt lat="42.860760" lon="0.662727">
        <ele>1969.3</ele>
        <time>2018-11-16T14:51:26Z</time>
      </trkpt>
      <trkpt lat="42.860807" lon="0.662621">
        <ele>1969.5</ele>
        <time>2018-11-16T14:51:34Z</time>
      </trkpt>
      <trkpt lat="42.860868" lon="0.662504">
        <ele>1970.5</ele>
        <time>2018-11-16T14:51:42Z</time>
      </trkpt>
      <trkpt lat="42.860908" lon="0.662393">
        <ele>1971.6</ele>
        <time>2018-11-16T14:51:49Z</time>
      </trkpt>
      <trkpt lat="42.860905" lon="0.662260">
        <ele>1971.9</ele>
        <time>2018-11-16T14:51:56Z</time>
      </trkpt>
      <trkpt lat="42.860943" lon="0.662161">
        <ele>1971.9</ele>
        <time>2018-11-16T14:52:07Z</time>
      </trkpt>
      <trkpt lat="42.860952" lon="0.662032">
        <ele>1971.6</ele>
        <time>2018-11-16T14:52:14Z</time>
      </trkpt>
      <trkpt lat="42.860961" lon="0.661907">
        <ele>1971.0</ele>
        <time>2018-11-16T14:52:20Z</time>
      </trkpt>
      <trkpt lat="42.860985" lon="0.661776">
        <ele>1970.0</ele>
        <time>2018-11-16T14:52:27Z</time>
      </trkpt>
      <trkpt lat="42.861000" lon="0.661652">
        <ele>1969.3</ele>
        <time>2018-11-16T14:52:34Z</time>
      </trkpt>
      <trkpt lat="42.861040" lon="0.661529">
        <ele>1967.8</ele>
        <time>2018-11-16T14:52:40Z</time>
      </trkpt>
      <trkpt lat="42.861059" lon="0.661395">
        <ele>1966.1</ele>
        <time>2018-11-16T14:52:47Z</time>
      </trkpt>
      <trkpt lat="42.861086" lon="0.661278">
        <ele>1965.4</ele>
        <time>2018-11-16T14:52:54Z</time>
      </trkpt>
      <trkpt lat="42.861106" lon="0.661143">
        <ele>1964.3</ele>
        <time>2018-11-16T14:53:29Z</time>
      </trkpt>
      <trkpt lat="42.861113" lon="0.661004">
        <ele>1964.0</ele>
        <time>2018-11-16T14:53:39Z</time>
      </trkpt>
      <trkpt lat="42.861121" lon="0.660881">
        <ele>1963.7</ele>
        <time>2018-11-16T14:53:47Z</time>
      </trkpt>
      <trkpt lat="42.861129" lon="0.660751">
        <ele>1963.0</ele>
        <time>2018-11-16T14:53:55Z</time>
      </trkpt>
      <trkpt lat="42.861141" lon="0.660621">
        <ele>1962.3</ele>
        <time>2018-11-16T14:54:02Z</time>
      </trkpt>
      <trkpt lat="42.861166" lon="0.660492">
        <ele>1962.7</ele>
        <time>2018-11-16T14:54:10Z</time>
      </trkpt>
      <trkpt lat="42.861181" lon="0.660372">
        <ele>1962.1</ele>
        <time>2018-11-16T14:54:18Z</time>
      </trkpt>
      <trkpt lat="42.861208" lon="0.660261">
        <ele>1960.9</ele>
        <time>2018-11-16T14:54:25Z</time>
      </trkpt>
      <trkpt lat="42.861217" lon="0.660137">
        <ele>1959.9</ele>
        <time>2018-11-16T14:54:33Z</time>
      </trkpt>
      <trkpt lat="42.861240" lon="0.660007">
        <ele>1958.6</ele>
        <time>2018-11-16T14:54:40Z</time>
      </trkpt>
      <trkpt lat="42.861275" lon="0.659859">
        <ele>1957.8</ele>
        <time>2018-11-16T14:54:48Z</time>
      </trkpt>
      <trkpt lat="42.861296" lon="0.659722">
        <ele>1956.7</ele>
        <time>2018-11-16T14:54:56Z</time>
      </trkpt>
      <trkpt lat="42.861317" lon="0.659591">
        <ele>1955.3</ele>
        <time>2018-11-16T14:55:03Z</time>
      </trkpt>
      <trkpt lat="42.861373" lon="0.659497">
        <ele>1954.8</ele>
        <time>2018-11-16T14:55:12Z</time>
      </trkpt>
      <trkpt lat="42.861370" lon="0.659388">
        <ele>1954.9</ele>
        <time>2018-11-16T14:57:05Z</time>
      </trkpt>
      <trkpt lat="42.861430" lon="0.659300">
        <ele>1951.4</ele>
        <time>2018-11-16T14:57:17Z</time>
      </trkpt>
      <trkpt lat="42.861494" lon="0.659198">
        <ele>1948.8</ele>
        <time>2018-11-16T14:57:25Z</time>
      </trkpt>
      <trkpt lat="42.861512" lon="0.659097">
        <ele>1944.8</ele>
        <time>2018-11-16T14:57:35Z</time>
      </trkpt>
      <trkpt lat="42.861608" lon="0.659055">
        <ele>1941.8</ele>
        <time>2018-11-16T14:57:42Z</time>
      </trkpt>
      <trkpt lat="42.861693" lon="0.658994">
        <ele>1938.4</ele>
        <time>2018-11-16T14:57:50Z</time>
      </trkpt>
      <trkpt lat="42.861779" lon="0.658945">
        <ele>1935.7</ele>
        <time>2018-11-16T14:57:57Z</time>
      </trkpt>
      <trkpt lat="42.861864" lon="0.658870">
        <ele>1932.1</ele>
        <time>2018-11-16T14:58:05Z</time>
      </trkpt>
      <trkpt lat="42.861949" lon="0.658801">
        <ele>1930.0</ele>
        <time>2018-11-16T14:58:11Z</time>
      </trkpt>
      <trkpt lat="42.862034" lon="0.658742">
        <ele>1928.8</ele>
        <time>2018-11-16T14:58:17Z</time>
      </trkpt>
      <trkpt lat="42.862119" lon="0.658667">
        <ele>1928.4</ele>
        <time>2018-11-16T14:58:24Z</time>
      </trkpt>
      <trkpt lat="42.862193" lon="0.658580">
        <ele>1927.0</ele>
        <time>2018-11-16T14:58:31Z</time>
      </trkpt>
      <trkpt lat="42.862289" lon="0.658539">
        <ele>1925.3</ele>
        <time>2018-11-16T14:58:38Z</time>
      </trkpt>
      <trkpt lat="42.862373" lon="0.658495">
        <ele>1923.8</ele>
        <time>2018-11-16T14:58:43Z</time>
      </trkpt>
      <trkpt lat="42.862467" lon="0.658425">
        <ele>1920.5</ele>
        <time>2018-11-16T14:58:50Z</time>
      </trkpt>
      <trkpt lat="42.862558" lon="0.658372">
        <ele>1918.0</ele>
        <time>2018-11-16T14:58:57Z</time>
      </trkpt>
      <trkpt lat="42.862645" lon="0.658323">
        <ele>1915.8</ele>
        <time>2018-11-16T14:59:04Z</time>
      </trkpt>
      <trkpt lat="42.862734" lon="0.658319">
        <ele>1914.0</ele>
        <time>2018-11-16T14:59:11Z</time>
      </trkpt>
      <trkpt lat="42.862821" lon="0.658262">
        <ele>1912.4</ele>
        <time>2018-11-16T14:59:18Z</time>
      </trkpt>
      <trkpt lat="42.862900" lon="0.658213">
        <ele>1910.2</ele>
        <time>2018-11-16T14:59:24Z</time>
      </trkpt>
      <trkpt lat="42.862994" lon="0.658179">
        <ele>1907.5</ele>
        <time>2018-11-16T14:59:31Z</time>
      </trkpt>
      <trkpt lat="42.863075" lon="0.658117">
        <ele>1905.0</ele>
        <time>2018-11-16T14:59:38Z</time>
      </trkpt>
      <trkpt lat="42.863159" lon="0.658084">
        <ele>1902.9</ele>
        <time>2018-11-16T14:59:44Z</time>
      </trkpt>
      <trkpt lat="42.863253" lon="0.658035">
        <ele>1900.4</ele>
        <time>2018-11-16T14:59:51Z</time>
      </trkpt>
      <trkpt lat="42.863349" lon="0.657980">
        <ele>1897.7</ele>
        <time>2018-11-16T14:59:58Z</time>
      </trkpt>
      <trkpt lat="42.863444" lon="0.657921">
        <ele>1895.2</ele>
        <time>2018-11-16T15:00:04Z</time>
      </trkpt>
      <trkpt lat="42.863542" lon="0.657901">
        <ele>1892.7</ele>
        <time>2018-11-16T15:00:10Z</time>
      </trkpt>
      <trkpt lat="42.863636" lon="0.657866">
        <ele>1890.9</ele>
        <time>2018-11-16T15:00:17Z</time>
      </trkpt>
      <trkpt lat="42.863726" lon="0.657812">
        <ele>1889.4</ele>
        <time>2018-11-16T15:00:33Z</time>
      </trkpt>
      <trkpt lat="42.863853" lon="0.657789">
        <ele>1888.6</ele>
        <time>2018-11-16T15:00:41Z</time>
      </trkpt>
      <trkpt lat="42.863956" lon="0.657711">
        <ele>1887.7</ele>
        <time>2018-11-16T15:00:49Z</time>
      </trkpt>
      <trkpt lat="42.864066" lon="0.657752">
        <ele>1886.6</ele>
        <time>2018-11-16T15:00:58Z</time>
      </trkpt>
      <trkpt lat="42.864156" lon="0.657799">
        <ele>1885.2</ele>
        <time>2018-11-16T15:01:04Z</time>
      </trkpt>
      <trkpt lat="42.864246" lon="0.657857">
        <ele>1884.0</ele>
        <time>2018-11-16T15:01:11Z</time>
      </trkpt>
      <trkpt lat="42.864329" lon="0.657909">
        <ele>1882.9</ele>
        <time>2018-11-16T15:01:17Z</time>
      </trkpt>
      <trkpt lat="42.864429" lon="0.657937">
        <ele>1880.9</ele>
        <time>2018-11-16T15:01:23Z</time>
      </trkpt>
      <trkpt lat="42.864515" lon="0.657953">
        <ele>1879.3</ele>
        <time>2018-11-16T15:01:29Z</time>
      </trkpt>
      <trkpt lat="42.864602" lon="0.657951">
        <ele>1877.8</ele>
        <time>2018-11-16T15:01:35Z</time>
      </trkpt>
      <trkpt lat="42.864692" lon="0.657932">
        <ele>1875.3</ele>
        <time>2018-11-16T15:01:41Z</time>
      </trkpt>
      <trkpt lat="42.864782" lon="0.657922">
        <ele>1872.2</ele>
        <time>2018-11-16T15:01:47Z</time>
      </trkpt>
      <trkpt lat="42.864886" lon="0.657930">
        <ele>1870.0</ele>
        <time>2018-11-16T15:01:54Z</time>
      </trkpt>
      <trkpt lat="42.864990" lon="0.657937">
        <ele>1868.2</ele>
        <time>2018-11-16T15:02:01Z</time>
      </trkpt>
      <trkpt lat="42.865089" lon="0.657981">
        <ele>1866.2</ele>
        <time>2018-11-16T15:02:08Z</time>
      </trkpt>
      <trkpt lat="42.865189" lon="0.658050">
        <ele>1864.7</ele>
        <time>2018-11-16T15:02:15Z</time>
      </trkpt>
      <trkpt lat="42.865294" lon="0.658093">
        <ele>1863.6</ele>
        <time>2018-11-16T15:02:21Z</time>
      </trkpt>
      <trkpt lat="42.865356" lon="0.658195">
        <ele>1863.0</ele>
        <time>2018-11-16T15:02:29Z</time>
      </trkpt>
      <trkpt lat="42.865420" lon="0.658129">
        <ele>1863.2</ele>
        <time>2018-11-16T15:03:00Z</time>
      </trkpt>
      <trkpt lat="42.865454" lon="0.658013">
        <ele>1862.8</ele>
        <time>2018-11-16T15:03:06Z</time>
      </trkpt>
      <trkpt lat="42.865512" lon="0.657896">
        <ele>1862.2</ele>
        <time>2018-11-16T15:03:12Z</time>
      </trkpt>
      <trkpt lat="42.865567" lon="0.657788">
        <ele>1861.6</ele>
        <time>2018-11-16T15:03:18Z</time>
      </trkpt>
      <trkpt lat="42.865639" lon="0.657707">
        <ele>1861.4</ele>
        <time>2018-11-16T15:03:24Z</time>
      </trkpt>
      <trkpt lat="42.865712" lon="0.657626">
        <ele>1861.4</ele>
        <time>2018-11-16T15:03:30Z</time>
      </trkpt>
      <trkpt lat="42.865793" lon="0.657566">
        <ele>1861.2</ele>
        <time>2018-11-16T15:03:36Z</time>
      </trkpt>
      <trkpt lat="42.865878" lon="0.657510">
        <ele>1860.7</ele>
        <time>2018-11-16T15:03:42Z</time>
      </trkpt>
      <trkpt lat="42.865954" lon="0.657464">
        <ele>1860.5</ele>
        <time>2018-11-16T15:03:48Z</time>
      </trkpt>
      <trkpt lat="42.866039" lon="0.657400">
        <ele>1859.9</ele>
        <time>2018-11-16T15:03:55Z</time>
      </trkpt>
      <trkpt lat="42.866120" lon="0.657333">
        <ele>1859.2</ele>
        <time>2018-11-16T15:04:01Z</time>
      </trkpt>
      <trkpt lat="42.866214" lon="0.657291">
        <ele>1858.9</ele>
        <time>2018-11-16T15:04:08Z</time>
      </trkpt>
      <trkpt lat="42.866315" lon="0.657250">
        <ele>1859.0</ele>
        <time>2018-11-16T15:04:15Z</time>
      </trkpt>
      <trkpt lat="42.866382" lon="0.657203">
        <ele>1858.2</ele>
        <time>2018-11-16T15:04:22Z</time>
      </trkpt>
      <trkpt lat="42.866463" lon="0.657270">
        <ele>1857.0</ele>
        <time>2018-11-16T15:04:30Z</time>
      </trkpt>
      <trkpt lat="42.866564" lon="0.657302">
        <ele>1854.7</ele>
        <time>2018-11-16T15:04:36Z</time>
      </trkpt>
      <trkpt lat="42.866657" lon="0.657329">
        <ele>1852.6</ele>
        <time>2018-11-16T15:04:41Z</time>
      </trkpt>
      <trkpt lat="42.866750" lon="0.657348">
        <ele>1849.7</ele>
        <time>2018-11-16T15:04:46Z</time>
      </trkpt>
      <trkpt lat="42.866846" lon="0.657338">
        <ele>1847.2</ele>
        <time>2018-11-16T15:04:52Z</time>
      </trkpt>
      <trkpt lat="42.866945" lon="0.657317">
        <ele>1844.6</ele>
        <time>2018-11-16T15:04:59Z</time>
      </trkpt>
      <trkpt lat="42.867027" lon="0.657257">
        <ele>1842.4</ele>
        <time>2018-11-16T15:05:04Z</time>
      </trkpt>
      <trkpt lat="42.867084" lon="0.657160">
        <ele>1839.1</ele>
        <time>2018-11-16T15:05:11Z</time>
      </trkpt>
      <trkpt lat="42.867157" lon="0.657095">
        <ele>1835.2</ele>
        <time>2018-11-16T15:05:19Z</time>
      </trkpt>
      <trkpt lat="42.867243" lon="0.657053">
        <ele>1832.5</ele>
        <time>2018-11-16T15:05:27Z</time>
      </trkpt>
      <trkpt lat="42.867339" lon="0.656994">
        <ele>1829.8</ele>
        <time>2018-11-16T15:05:34Z</time>
      </trkpt>
      <trkpt lat="42.867408" lon="0.656893">
        <ele>1826.3</ele>
        <time>2018-11-16T15:05:41Z</time>
      </trkpt>
      <trkpt lat="42.867431" lon="0.656776">
        <ele>1823.2</ele>
        <time>2018-11-16T15:05:47Z</time>
      </trkpt>
      <trkpt lat="42.867483" lon="0.656664">
        <ele>1820.5</ele>
        <time>2018-11-16T15:05:53Z</time>
      </trkpt>
      <trkpt lat="42.867543" lon="0.656562">
        <ele>1818.2</ele>
        <time>2018-11-16T15:05:59Z</time>
      </trkpt>
      <trkpt lat="42.867588" lon="0.656448">
        <ele>1815.2</ele>
        <time>2018-11-16T15:06:06Z</time>
      </trkpt>
      <trkpt lat="42.867660" lon="0.656365">
        <ele>1812.7</ele>
        <time>2018-11-16T15:06:13Z</time>
      </trkpt>
      <trkpt lat="42.867700" lon="0.656243">
        <ele>1810.3</ele>
        <time>2018-11-16T15:06:20Z</time>
      </trkpt>
      <trkpt lat="42.867734" lon="0.656115">
        <ele>1807.6</ele>
        <time>2018-11-16T15:06:28Z</time>
      </trkpt>
      <trkpt lat="42.867809" lon="0.656024">
        <ele>1803.9</ele>
        <time>2018-11-16T15:06:38Z</time>
      </trkpt>
      <trkpt lat="42.867882" lon="0.656101">
        <ele>1800.8</ele>
        <time>2018-11-16T15:06:48Z</time>
      </trkpt>
      <trkpt lat="42.867946" lon="0.656040">
        <ele>1796.1</ele>
        <time>2018-11-16T15:06:59Z</time>
      </trkpt>
      <trkpt lat="42.868031" lon="0.655990">
        <ele>1792.9</ele>
        <time>2018-11-16T15:07:07Z</time>
      </trkpt>
      <trkpt lat="42.868111" lon="0.655950">
        <ele>1789.6</ele>
        <time>2018-11-16T15:07:15Z</time>
      </trkpt>
      <trkpt lat="42.868185" lon="0.655872">
        <ele>1785.6</ele>
        <time>2018-11-16T15:07:24Z</time>
      </trkpt>
      <trkpt lat="42.868252" lon="0.655770">
        <ele>1782.6</ele>
        <time>2018-11-16T15:07:31Z</time>
      </trkpt>
      <trkpt lat="42.868300" lon="0.655640">
        <ele>1779.3</ele>
        <time>2018-11-16T15:07:38Z</time>
      </trkpt>
      <trkpt lat="42.868341" lon="0.655529">
        <ele>1776.2</ele>
        <time>2018-11-16T15:07:45Z</time>
      </trkpt>
      <trkpt lat="42.868342" lon="0.655406">
        <ele>1773.6</ele>
        <time>2018-11-16T15:07:52Z</time>
      </trkpt>
      <trkpt lat="42.868383" lon="0.655286">
        <ele>1771.3</ele>
        <time>2018-11-16T15:07:59Z</time>
      </trkpt>
      <trkpt lat="42.868456" lon="0.655241">
        <ele>1769.3</ele>
        <time>2018-11-16T15:08:06Z</time>
      </trkpt>
      <trkpt lat="42.868514" lon="0.655124">
        <ele>1766.3</ele>
        <time>2018-11-16T15:08:13Z</time>
      </trkpt>
      <trkpt lat="42.868558" lon="0.655011">
        <ele>1764.4</ele>
        <time>2018-11-16T15:08:19Z</time>
      </trkpt>
      <trkpt lat="42.868614" lon="0.654925">
        <ele>1762.3</ele>
        <time>2018-11-16T15:08:25Z</time>
      </trkpt>
      <trkpt lat="42.868647" lon="0.654800">
        <ele>1759.8</ele>
        <time>2018-11-16T15:08:33Z</time>
      </trkpt>
      <trkpt lat="42.868671" lon="0.654684">
        <ele>1757.1</ele>
        <time>2018-11-16T15:08:41Z</time>
      </trkpt>
      <trkpt lat="42.868690" lon="0.654572">
        <ele>1754.5</ele>
        <time>2018-11-16T15:08:51Z</time>
      </trkpt>
      <trkpt lat="42.868658" lon="0.654432">
        <ele>1751.2</ele>
        <time>2018-11-16T15:09:12Z</time>
      </trkpt>
      <trkpt lat="42.868631" lon="0.654312">
        <ele>1748.5</ele>
        <time>2018-11-16T15:09:20Z</time>
      </trkpt>
      <trkpt lat="42.868633" lon="0.654181">
        <ele>1745.0</ele>
        <time>2018-11-16T15:09:30Z</time>
      </trkpt>
      <trkpt lat="42.868638" lon="0.653987">
        <ele>1738.2</ele>
        <time>2018-11-16T15:09:49Z</time>
      </trkpt>
      <trkpt lat="42.868649" lon="0.653877">
        <ele>1732.1</ele>
        <time>2018-11-16T15:10:06Z</time>
      </trkpt>
      <trkpt lat="42.868716" lon="0.653793">
        <ele>1728.1</ele>
        <time>2018-11-16T15:10:22Z</time>
      </trkpt>
      <trkpt lat="42.868747" lon="0.653674">
        <ele>1723.9</ele>
        <time>2018-11-16T15:10:39Z</time>
      </trkpt>
      <trkpt lat="42.868786" lon="0.653575">
        <ele>1720.4</ele>
        <time>2018-11-16T15:10:49Z</time>
      </trkpt>
      <trkpt lat="42.868852" lon="0.653474">
        <ele>1718.5</ele>
        <time>2018-11-16T15:10:59Z</time>
      </trkpt>
      <trkpt lat="42.868917" lon="0.653356">
        <ele>1716.6</ele>
        <time>2018-11-16T15:11:09Z</time>
      </trkpt>
      <trkpt lat="42.868986" lon="0.653270">
        <ele>1715.1</ele>
        <time>2018-11-16T15:11:18Z</time>
      </trkpt>
      <trkpt lat="42.869062" lon="0.653187">
        <ele>1713.6</ele>
        <time>2018-11-16T15:11:26Z</time>
      </trkpt>
      <trkpt lat="42.869158" lon="0.653118">
        <ele>1712.3</ele>
        <time>2018-11-16T15:11:35Z</time>
      </trkpt>
      <trkpt lat="42.869238" lon="0.653056">
        <ele>1711.7</ele>
        <time>2018-11-16T15:11:43Z</time>
      </trkpt>
      <trkpt lat="42.869327" lon="0.653003">
        <ele>1710.9</ele>
        <time>2018-11-16T15:11:51Z</time>
      </trkpt>
      <trkpt lat="42.869400" lon="0.652927">
        <ele>1710.2</ele>
        <time>2018-11-16T15:11:58Z</time>
      </trkpt>
      <trkpt lat="42.869488" lon="0.652852">
        <ele>1709.7</ele>
        <time>2018-11-16T15:12:06Z</time>
      </trkpt>
      <trkpt lat="42.869564" lon="0.652784">
        <ele>1709.1</ele>
        <time>2018-11-16T15:12:12Z</time>
      </trkpt>
      <trkpt lat="42.869633" lon="0.652729">
        <ele>1708.2</ele>
        <time>2018-11-16T15:12:19Z</time>
      </trkpt>
      <trkpt lat="42.869714" lon="0.652657">
        <ele>1707.1</ele>
        <time>2018-11-16T15:12:27Z</time>
      </trkpt>
      <trkpt lat="42.869800" lon="0.652580">
        <ele>1706.7</ele>
        <time>2018-11-16T15:12:34Z</time>
      </trkpt>
      <trkpt lat="42.869880" lon="0.652512">
        <ele>1705.9</ele>
        <time>2018-11-16T15:12:41Z</time>
      </trkpt>
      <trkpt lat="42.869954" lon="0.652436">
        <ele>1705.2</ele>
        <time>2018-11-16T15:12:49Z</time>
      </trkpt>
      <trkpt lat="42.870010" lon="0.652338">
        <ele>1704.9</ele>
        <time>2018-11-16T15:12:57Z</time>
      </trkpt>
      <trkpt lat="42.870075" lon="0.652203">
        <ele>1704.0</ele>
        <time>2018-11-16T15:13:06Z</time>
      </trkpt>
      <trkpt lat="42.870147" lon="0.652082">
        <ele>1703.1</ele>
        <time>2018-11-16T15:13:13Z</time>
      </trkpt>
      <trkpt lat="42.870199" lon="0.651985">
        <ele>1702.0</ele>
        <time>2018-11-16T15:13:21Z</time>
      </trkpt>
      <trkpt lat="42.870247" lon="0.651868">
        <ele>1701.0</ele>
        <time>2018-11-16T15:13:29Z</time>
      </trkpt>
      <trkpt lat="42.870296" lon="0.651754">
        <ele>1700.2</ele>
        <time>2018-11-16T15:13:36Z</time>
      </trkpt>
      <trkpt lat="42.870357" lon="0.651635">
        <ele>1699.3</ele>
        <time>2018-11-16T15:13:43Z</time>
      </trkpt>
      <trkpt lat="42.870393" lon="0.651522">
        <ele>1698.5</ele>
        <time>2018-11-16T15:13:49Z</time>
      </trkpt>
      <trkpt lat="42.870429" lon="0.651411">
        <ele>1697.5</ele>
        <time>2018-11-16T15:13:55Z</time>
      </trkpt>
      <trkpt lat="42.870502" lon="0.651284">
        <ele>1695.8</ele>
        <time>2018-11-16T15:14:03Z</time>
      </trkpt>
      <trkpt lat="42.870565" lon="0.651178">
        <ele>1694.7</ele>
        <time>2018-11-16T15:14:10Z</time>
      </trkpt>
      <trkpt lat="42.870628" lon="0.651085">
        <ele>1694.0</ele>
        <time>2018-11-16T15:14:16Z</time>
      </trkpt>
      <trkpt lat="42.870694" lon="0.650983">
        <ele>1693.0</ele>
        <time>2018-11-16T15:14:22Z</time>
      </trkpt>
      <trkpt lat="42.870745" lon="0.650875">
        <ele>1692.0</ele>
        <time>2018-11-16T15:14:28Z</time>
      </trkpt>
      <trkpt lat="42.870806" lon="0.650760">
        <ele>1690.9</ele>
        <time>2018-11-16T15:14:35Z</time>
      </trkpt>
      <trkpt lat="42.870867" lon="0.650649">
        <ele>1689.7</ele>
        <time>2018-11-16T15:14:41Z</time>
      </trkpt>
      <trkpt lat="42.870918" lon="0.650536">
        <ele>1688.1</ele>
        <time>2018-11-16T15:14:47Z</time>
      </trkpt>
      <trkpt lat="42.870967" lon="0.650415">
        <ele>1686.3</ele>
        <time>2018-11-16T15:14:53Z</time>
      </trkpt>
      <trkpt lat="42.871032" lon="0.650310">
        <ele>1684.8</ele>
        <time>2018-11-16T15:14:59Z</time>
      </trkpt>
      <trkpt lat="42.871093" lon="0.650205">
        <ele>1682.7</ele>
        <time>2018-11-16T15:15:05Z</time>
      </trkpt>
      <trkpt lat="42.871143" lon="0.650087">
        <ele>1681.1</ele>
        <time>2018-11-16T15:15:11Z</time>
      </trkpt>
      <trkpt lat="42.871187" lon="0.649960">
        <ele>1679.2</ele>
        <time>2018-11-16T15:15:18Z</time>
      </trkpt>
      <trkpt lat="42.871222" lon="0.649839">
        <ele>1677.7</ele>
        <time>2018-11-16T15:15:25Z</time>
      </trkpt>
      <trkpt lat="42.871263" lon="0.649699">
        <ele>1676.9</ele>
        <time>2018-11-16T15:15:31Z</time>
      </trkpt>
      <trkpt lat="42.871334" lon="0.649604">
        <ele>1676.0</ele>
        <time>2018-11-16T15:15:37Z</time>
      </trkpt>
      <trkpt lat="42.871382" lon="0.649489">
        <ele>1675.4</ele>
        <time>2018-11-16T15:15:43Z</time>
      </trkpt>
      <trkpt lat="42.871431" lon="0.649377">
        <ele>1674.7</ele>
        <time>2018-11-16T15:15:49Z</time>
      </trkpt>
      <trkpt lat="42.871481" lon="0.649289">
        <ele>1674.3</ele>
        <time>2018-11-16T15:15:54Z</time>
      </trkpt>
      <trkpt lat="42.871525" lon="0.649192">
        <ele>1673.7</ele>
        <time>2018-11-16T15:16:00Z</time>
      </trkpt>
      <trkpt lat="42.871570" lon="0.649096">
        <ele>1673.2</ele>
        <time>2018-11-16T15:16:06Z</time>
      </trkpt>
      <trkpt lat="42.871619" lon="0.648978">
        <ele>1672.2</ele>
        <time>2018-11-16T15:16:13Z</time>
      </trkpt>
      <trkpt lat="42.871669" lon="0.648858">
        <ele>1671.5</ele>
        <time>2018-11-16T15:16:20Z</time>
      </trkpt>
      <trkpt lat="42.871717" lon="0.648739">
        <ele>1671.4</ele>
        <time>2018-11-16T15:16:26Z</time>
      </trkpt>
      <trkpt lat="42.871742" lon="0.648612">
        <ele>1671.2</ele>
        <time>2018-11-16T15:16:32Z</time>
      </trkpt>
      <trkpt lat="42.871766" lon="0.648501">
        <ele>1670.5</ele>
        <time>2018-11-16T15:16:38Z</time>
      </trkpt>
      <trkpt lat="42.871788" lon="0.648366">
        <ele>1669.8</ele>
        <time>2018-11-16T15:16:44Z</time>
      </trkpt>
      <trkpt lat="42.871809" lon="0.648237">
        <ele>1668.9</ele>
        <time>2018-11-16T15:16:50Z</time>
      </trkpt>
      <trkpt lat="42.871858" lon="0.648119">
        <ele>1668.1</ele>
        <time>2018-11-16T15:16:57Z</time>
      </trkpt>
      <trkpt lat="42.871892" lon="0.647996">
        <ele>1667.5</ele>
        <time>2018-11-16T15:17:04Z</time>
      </trkpt>
      <trkpt lat="42.871915" lon="0.647860">
        <ele>1667.0</ele>
        <time>2018-11-16T15:17:11Z</time>
      </trkpt>
      <trkpt lat="42.871948" lon="0.647732">
        <ele>1666.0</ele>
        <time>2018-11-16T15:17:18Z</time>
      </trkpt>
      <trkpt lat="42.871982" lon="0.647600">
        <ele>1664.9</ele>
        <time>2018-11-16T15:17:25Z</time>
      </trkpt>
      <trkpt lat="42.872003" lon="0.647471">
        <ele>1664.0</ele>
        <time>2018-11-16T15:17:31Z</time>
      </trkpt>
      <trkpt lat="42.872003" lon="0.647343">
        <ele>1662.8</ele>
        <time>2018-11-16T15:17:37Z</time>
      </trkpt>
      <trkpt lat="42.872023" lon="0.647215">
        <ele>1661.0</ele>
        <time>2018-11-16T15:17:44Z</time>
      </trkpt>
      <trkpt lat="42.872034" lon="0.647061">
        <ele>1659.0</ele>
        <time>2018-11-16T15:17:51Z</time>
      </trkpt>
      <trkpt lat="42.872041" lon="0.646940">
        <ele>1657.1</ele>
        <time>2018-11-16T15:17:57Z</time>
      </trkpt>
      <trkpt lat="42.872056" lon="0.646807">
        <ele>1654.6</ele>
        <time>2018-11-16T15:18:03Z</time>
      </trkpt>
      <trkpt lat="42.872070" lon="0.646684">
        <ele>1652.6</ele>
        <time>2018-11-16T15:18:09Z</time>
      </trkpt>
      <trkpt lat="42.872087" lon="0.646554">
        <ele>1650.2</ele>
        <time>2018-11-16T15:18:16Z</time>
      </trkpt>
      <trkpt lat="42.872117" lon="0.646425">
        <ele>1648.0</ele>
        <time>2018-11-16T15:18:23Z</time>
      </trkpt>
      <trkpt lat="42.872137" lon="0.646293">
        <ele>1645.7</ele>
        <time>2018-11-16T15:18:30Z</time>
      </trkpt>
      <trkpt lat="42.872165" lon="0.646170">
        <ele>1643.6</ele>
        <time>2018-11-16T15:18:37Z</time>
      </trkpt>
      <trkpt lat="42.872195" lon="0.646041">
        <ele>1641.2</ele>
        <time>2018-11-16T15:18:44Z</time>
      </trkpt>
      <trkpt lat="42.872205" lon="0.645911">
        <ele>1638.8</ele>
        <time>2018-11-16T15:18:51Z</time>
      </trkpt>
      <trkpt lat="42.872228" lon="0.645791">
        <ele>1636.6</ele>
        <time>2018-11-16T15:18:57Z</time>
      </trkpt>
      <trkpt lat="42.872246" lon="0.645664">
        <ele>1634.4</ele>
        <time>2018-11-16T15:19:03Z</time>
      </trkpt>
      <trkpt lat="42.872271" lon="0.645527">
        <ele>1631.2</ele>
        <time>2018-11-16T15:19:11Z</time>
      </trkpt>
      <trkpt lat="42.872300" lon="0.645396">
        <ele>1628.5</ele>
        <time>2018-11-16T15:19:18Z</time>
      </trkpt>
      <trkpt lat="42.872288" lon="0.645279">
        <ele>1626.4</ele>
        <time>2018-11-16T15:19:24Z</time>
      </trkpt>
      <trkpt lat="42.872317" lon="0.645149">
        <ele>1623.6</ele>
        <time>2018-11-16T15:19:31Z</time>
      </trkpt>
      <trkpt lat="42.872297" lon="0.645030">
        <ele>1621.0</ele>
        <time>2018-11-16T15:19:38Z</time>
      </trkpt>
      <trkpt lat="42.872314" lon="0.644878">
        <ele>1617.2</ele>
        <time>2018-11-16T15:19:46Z</time>
      </trkpt>
      <trkpt lat="42.872326" lon="0.644742">
        <ele>1614.8</ele>
        <time>2018-11-16T15:19:54Z</time>
      </trkpt>
      <trkpt lat="42.872342" lon="0.644608">
        <ele>1612.8</ele>
        <time>2018-11-16T15:20:01Z</time>
      </trkpt>
      <trkpt lat="42.872341" lon="0.644473">
        <ele>1610.1</ele>
        <time>2018-11-16T15:20:08Z</time>
      </trkpt>
      <trkpt lat="42.872362" lon="0.644364">
        <ele>1606.9</ele>
        <time>2018-11-16T15:20:16Z</time>
      </trkpt>
      <trkpt lat="42.872376" lon="0.644225">
        <ele>1604.3</ele>
        <time>2018-11-16T15:20:24Z</time>
      </trkpt>
      <trkpt lat="42.872398" lon="0.644077">
        <ele>1602.2</ele>
        <time>2018-11-16T15:20:33Z</time>
      </trkpt>
      <trkpt lat="42.872425" lon="0.643936">
        <ele>1600.7</ele>
        <time>2018-11-16T15:20:42Z</time>
      </trkpt>
      <trkpt lat="42.872448" lon="0.643814">
        <ele>1598.9</ele>
        <time>2018-11-16T15:21:01Z</time>
      </trkpt>
      <trkpt lat="42.872499" lon="0.643709">
        <ele>1598.6</ele>
        <time>2018-11-16T15:21:15Z</time>
      </trkpt>
      <trkpt lat="42.872516" lon="0.643602">
        <ele>1597.8</ele>
        <time>2018-11-16T15:21:42Z</time>
      </trkpt>
      <trkpt lat="42.872506" lon="0.643489">
        <ele>1597.4</ele>
        <time>2018-11-16T15:21:51Z</time>
      </trkpt>
      <trkpt lat="42.872477" lon="0.643421">
        <ele>1596.7</ele>
        <time>2018-11-16T15:22:39Z</time>
      </trkpt>
      <trkpt lat="42.872523" lon="0.643314">
        <ele>1597.4</ele>
        <time>2018-11-16T15:23:05Z</time>
      </trkpt>
      <trkpt lat="42.872570" lon="0.643201">
        <ele>1597.7</ele>
        <time>2018-11-16T15:23:26Z</time>
      </trkpt>
      <trkpt lat="42.872571" lon="0.643026">
        <ele>1594.8</ele>
        <time>2018-11-16T15:23:42Z</time>
      </trkpt>
      <trkpt lat="42.872601" lon="0.642887">
        <ele>1592.6</ele>
        <time>2018-11-16T15:23:52Z</time>
      </trkpt>
      <trkpt lat="42.872634" lon="0.642700">
        <ele>1591.4</ele>
        <time>2018-11-16T15:24:02Z</time>
      </trkpt>
      <trkpt lat="42.872705" lon="0.642522">
        <ele>1589.8</ele>
        <time>2018-11-16T15:24:16Z</time>
      </trkpt>
      <trkpt lat="42.872709" lon="0.642340">
        <ele>1585.3</ele>
        <time>2018-11-16T15:24:30Z</time>
      </trkpt>
      <trkpt lat="42.872656" lon="0.642166">
        <ele>1582.2</ele>
        <time>2018-11-16T15:24:40Z</time>
      </trkpt>
      <trkpt lat="42.872654" lon="0.641984">
        <ele>1580.2</ele>
        <time>2018-11-16T15:24:50Z</time>
      </trkpt>
      <trkpt lat="42.872684" lon="0.641811">
        <ele>1577.3</ele>
        <time>2018-11-16T15:25:03Z</time>
      </trkpt>
      <trkpt lat="42.872671" lon="0.641638">
        <ele>1573.8</ele>
        <time>2018-11-16T15:25:16Z</time>
      </trkpt>
      <trkpt lat="42.872667" lon="0.641491">
        <ele>1569.0</ele>
        <time>2018-11-16T15:25:30Z</time>
      </trkpt>
      <trkpt lat="42.872688" lon="0.641329">
        <ele>1567.4</ele>
        <time>2018-11-16T15:25:40Z</time>
      </trkpt>
      <trkpt lat="42.872708" lon="0.641186">
        <ele>1566.4</ele>
        <time>2018-11-16T15:25:53Z</time>
      </trkpt>
      <trkpt lat="42.872763" lon="0.641024">
        <ele>1566.1</ele>
        <time>2018-11-16T15:26:03Z</time>
      </trkpt>
      <trkpt lat="42.872768" lon="0.640860">
        <ele>1565.1</ele>
        <time>2018-11-16T15:26:10Z</time>
      </trkpt>
      <trkpt lat="42.872801" lon="0.640721">
        <ele>1562.8</ele>
        <time>2018-11-16T15:26:18Z</time>
      </trkpt>
      <trkpt lat="42.872797" lon="0.640583">
        <ele>1560.5</ele>
        <time>2018-11-16T15:26:25Z</time>
      </trkpt>
      <trkpt lat="42.872799" lon="0.640441">
        <ele>1556.7</ele>
        <time>2018-11-16T15:26:34Z</time>
      </trkpt>
      <trkpt lat="42.872778" lon="0.640282">
        <ele>1552.3</ele>
        <time>2018-11-16T15:26:44Z</time>
      </trkpt>
      <trkpt lat="42.872755" lon="0.640153">
        <ele>1548.9</ele>
        <time>2018-11-16T15:26:52Z</time>
      </trkpt>
      <trkpt lat="42.872728" lon="0.640032">
        <ele>1546.4</ele>
        <time>2018-11-16T15:27:01Z</time>
      </trkpt>
      <trkpt lat="42.872680" lon="0.639916">
        <ele>1544.0</ele>
        <time>2018-11-16T15:27:40Z</time>
      </trkpt>
      <trkpt lat="42.872681" lon="0.639769">
        <ele>1542.3</ele>
        <time>2018-11-16T15:27:49Z</time>
      </trkpt>
      <trkpt lat="42.872686" lon="0.639618">
        <ele>1539.7</ele>
        <time>2018-11-16T15:27:57Z</time>
      </trkpt>
      <trkpt lat="42.872687" lon="0.639459">
        <ele>1536.8</ele>
        <time>2018-11-16T15:28:05Z</time>
      </trkpt>
      <trkpt lat="42.872653" lon="0.639325">
        <ele>1534.6</ele>
        <time>2018-11-16T15:28:13Z</time>
      </trkpt>
      <trkpt lat="42.872618" lon="0.639183">
        <ele>1532.2</ele>
        <time>2018-11-16T15:28:22Z</time>
      </trkpt>
      <trkpt lat="42.872582" lon="0.639029">
        <ele>1530.0</ele>
        <time>2018-11-16T15:28:29Z</time>
      </trkpt>
      <trkpt lat="42.872573" lon="0.638893">
        <ele>1527.7</ele>
        <time>2018-11-16T15:28:37Z</time>
      </trkpt>
      <trkpt lat="42.872546" lon="0.638765">
        <ele>1525.1</ele>
        <time>2018-11-16T15:28:45Z</time>
      </trkpt>
      <trkpt lat="42.872537" lon="0.638637">
        <ele>1523.5</ele>
        <time>2018-11-16T15:29:15Z</time>
      </trkpt>
      <trkpt lat="42.872547" lon="0.638496">
        <ele>1521.5</ele>
        <time>2018-11-16T15:29:25Z</time>
      </trkpt>
      <trkpt lat="42.872531" lon="0.638351">
        <ele>1519.4</ele>
        <time>2018-11-16T15:29:33Z</time>
      </trkpt>
      <trkpt lat="42.872541" lon="0.638207">
        <ele>1516.9</ele>
        <time>2018-11-16T15:29:41Z</time>
      </trkpt>
      <trkpt lat="42.872532" lon="0.638075">
        <ele>1513.7</ele>
        <time>2018-11-16T15:29:51Z</time>
      </trkpt>
      <trkpt lat="42.872513" lon="0.637929">
        <ele>1510.3</ele>
        <time>2018-11-16T15:30:00Z</time>
      </trkpt>
      <trkpt lat="42.872492" lon="0.637805">
        <ele>1508.5</ele>
        <time>2018-11-16T15:30:07Z</time>
      </trkpt>
      <trkpt lat="42.872487" lon="0.637666">
        <ele>1505.2</ele>
        <time>2018-11-16T15:30:18Z</time>
      </trkpt>
      <trkpt lat="42.872452" lon="0.637485">
        <ele>1502.0</ele>
        <time>2018-11-16T15:30:29Z</time>
      </trkpt>
      <trkpt lat="42.872430" lon="0.637340">
        <ele>1498.4</ele>
        <time>2018-11-16T15:30:37Z</time>
      </trkpt>
      <trkpt lat="42.872404" lon="0.637188">
        <ele>1493.8</ele>
        <time>2018-11-16T15:30:48Z</time>
      </trkpt>
      <trkpt lat="42.872384" lon="0.637022">
        <ele>1488.6</ele>
        <time>2018-11-16T15:31:00Z</time>
      </trkpt>
      <trkpt lat="42.872346" lon="0.636856">
        <ele>1485.8</ele>
        <time>2018-11-16T15:31:10Z</time>
      </trkpt>
      <trkpt lat="42.872304" lon="0.636709">
        <ele>1481.4</ele>
        <time>2018-11-16T15:31:21Z</time>
      </trkpt>
      <trkpt lat="42.872313" lon="0.636550">
        <ele>1476.6</ele>
        <time>2018-11-16T15:31:32Z</time>
      </trkpt>
      <trkpt lat="42.872296" lon="0.636393">
        <ele>1473.0</ele>
        <time>2018-11-16T15:31:40Z</time>
      </trkpt>
      <trkpt lat="42.872304" lon="0.636245">
        <ele>1468.6</ele>
        <time>2018-11-16T15:31:48Z</time>
      </trkpt>
      <trkpt lat="42.872250" lon="0.636090">
        <ele>1463.1</ele>
        <time>2018-11-16T15:32:02Z</time>
      </trkpt>
      <trkpt lat="42.872188" lon="0.635955">
        <ele>1460.6</ele>
        <time>2018-11-16T15:32:12Z</time>
      </trkpt>
      <trkpt lat="42.872143" lon="0.635809">
        <ele>1458.0</ele>
        <time>2018-11-16T15:32:22Z</time>
      </trkpt>
      <trkpt lat="42.872106" lon="0.635653">
        <ele>1455.1</ele>
        <time>2018-11-16T15:32:37Z</time>
      </trkpt>
      <trkpt lat="42.872104" lon="0.635481">
        <ele>1454.7</ele>
        <time>2018-11-16T15:32:50Z</time>
      </trkpt>
      <trkpt lat="42.872048" lon="0.635308">
        <ele>1453.6</ele>
        <time>2018-11-16T15:33:03Z</time>
      </trkpt>
      <trkpt lat="42.872030" lon="0.635170">
        <ele>1450.6</ele>
        <time>2018-11-16T15:33:17Z</time>
      </trkpt>
      <trkpt lat="42.872007" lon="0.635056">
        <ele>1446.5</ele>
        <time>2018-11-16T15:33:36Z</time>
      </trkpt>
      <trkpt lat="42.871952" lon="0.634903">
        <ele>1444.5</ele>
        <time>2018-11-16T15:33:50Z</time>
      </trkpt>
      <trkpt lat="42.871894" lon="0.634745">
        <ele>1442.0</ele>
        <time>2018-11-16T15:33:58Z</time>
      </trkpt>
      <trkpt lat="42.871871" lon="0.634618">
        <ele>1439.2</ele>
        <time>2018-11-16T15:34:07Z</time>
      </trkpt>
      <trkpt lat="42.871813" lon="0.634475">
        <ele>1432.8</ele>
        <time>2018-11-16T15:34:24Z</time>
      </trkpt>
      <trkpt lat="42.871726" lon="0.634354">
        <ele>1429.0</ele>
        <time>2018-11-16T15:34:38Z</time>
      </trkpt>
      <trkpt lat="42.871652" lon="0.634231">
        <ele>1426.0</ele>
        <time>2018-11-16T15:34:50Z</time>
      </trkpt>
      <trkpt lat="42.871575" lon="0.634123">
        <ele>1422.0</ele>
        <time>2018-11-16T15:35:05Z</time>
      </trkpt>
      <trkpt lat="42.871549" lon="0.634032">
        <ele>1421.2</ele>
        <time>2018-11-16T15:35:59Z</time>
      </trkpt>
      <trkpt lat="42.871470" lon="0.633962">
        <ele>1417.4</ele>
        <time>2018-11-16T15:36:10Z</time>
      </trkpt>
      <trkpt lat="42.871408" lon="0.633869">
        <ele>1412.8</ele>
        <time>2018-11-16T15:36:21Z</time>
      </trkpt>
      <trkpt lat="42.871342" lon="0.633771">
        <ele>1409.1</ele>
        <time>2018-11-16T15:36:31Z</time>
      </trkpt>
      <trkpt lat="42.871294" lon="0.633665">
        <ele>1403.7</ele>
        <time>2018-11-16T15:36:43Z</time>
      </trkpt>
      <trkpt lat="42.871233" lon="0.633590">
        <ele>1400.3</ele>
        <time>2018-11-16T15:36:52Z</time>
      </trkpt>
      <trkpt lat="42.871176" lon="0.633516">
        <ele>1395.5</ele>
        <time>2018-11-16T15:37:04Z</time>
      </trkpt>
      <trkpt lat="42.871074" lon="0.633469">
        <ele>1389.5</ele>
        <time>2018-11-16T15:37:18Z</time>
      </trkpt>
      <trkpt lat="42.870995" lon="0.633396">
        <ele>1384.5</ele>
        <time>2018-11-16T15:37:30Z</time>
      </trkpt>
      <trkpt lat="42.870928" lon="0.633324">
        <ele>1379.1</ele>
        <time>2018-11-16T15:37:43Z</time>
      </trkpt>
      <trkpt lat="42.870846" lon="0.633262">
        <ele>1373.2</ele>
        <time>2018-11-16T15:37:58Z</time>
      </trkpt>
      <trkpt lat="42.870788" lon="0.633161">
        <ele>1369.1</ele>
        <time>2018-11-16T15:38:10Z</time>
      </trkpt>
      <trkpt lat="42.870710" lon="0.633081">
        <ele>1364.1</ele>
        <time>2018-11-16T15:38:24Z</time>
      </trkpt>
      <trkpt lat="42.870628" lon="0.633039">
        <ele>1360.0</ele>
        <time>2018-11-16T15:38:36Z</time>
      </trkpt>
      <trkpt lat="42.870541" lon="0.633009">
        <ele>1355.3</ele>
        <time>2018-11-16T15:38:49Z</time>
      </trkpt>
      <trkpt lat="42.870449" lon="0.632969">
        <ele>1351.0</ele>
        <time>2018-11-16T15:39:02Z</time>
      </trkpt>
      <trkpt lat="42.870345" lon="0.632927">
        <ele>1346.9</ele>
        <time>2018-11-16T15:39:12Z</time>
      </trkpt>
      <trkpt lat="42.870259" lon="0.632876">
        <ele>1342.5</ele>
        <time>2018-11-16T15:39:23Z</time>
      </trkpt>
      <trkpt lat="42.870165" lon="0.632837">
        <ele>1338.6</ele>
        <time>2018-11-16T15:39:34Z</time>
      </trkpt>
      <trkpt lat="42.870072" lon="0.632794">
        <ele>1333.9</ele>
        <time>2018-11-16T15:39:49Z</time>
      </trkpt>
      <trkpt lat="42.869980" lon="0.632816">
        <ele>1329.9</ele>
        <time>2018-11-16T15:40:01Z</time>
      </trkpt>
      <trkpt lat="42.869866" lon="0.632788">
        <ele>1325.0</ele>
        <time>2018-11-16T15:40:16Z</time>
      </trkpt>
      <trkpt lat="42.869766" lon="0.632747">
        <ele>1320.7</ele>
        <time>2018-11-16T15:40:30Z</time>
      </trkpt>
      <trkpt lat="42.869660" lon="0.632789">
        <ele>1314.2</ele>
        <time>2018-11-16T15:42:03Z</time>
      </trkpt>
      <trkpt lat="42.869540" lon="0.632789">
        <ele>1311.0</ele>
        <time>2018-11-16T15:43:08Z</time>
      </trkpt>
      <trkpt lat="42.869493" lon="0.632648">
        <ele>1309.6</ele>
        <time>2018-11-16T15:43:20Z</time>
      </trkpt>
      <trkpt lat="42.869444" lon="0.632522">
        <ele>1308.5</ele>
        <time>2018-11-16T15:43:30Z</time>
      </trkpt>
      <trkpt lat="42.869457" lon="0.632299">
        <ele>1320.9</ele>
        <time>2018-11-16T15:43:48Z</time>
      </trkpt>
      <trkpt lat="42.869486" lon="0.631961">
        <ele>1312.7</ele>
        <time>2018-11-16T15:44:12Z</time>
      </trkpt>
      <trkpt lat="42.869626" lon="0.631583">
        <ele>1307.1</ele>
        <time>2018-11-16T15:44:42Z</time>
      </trkpt>
      <trkpt lat="42.869751" lon="0.631318">
        <ele>1302.8</ele>
        <time>2018-11-16T15:45:04Z</time>
      </trkpt>
      <trkpt lat="42.869883" lon="0.630906">
        <ele>1293.4</ele>
        <time>2018-11-16T15:45:35Z</time>
      </trkpt>
      <trkpt lat="42.870060" lon="0.630382">
        <ele>1283.0</ele>
        <time>2018-11-16T15:46:16Z</time>
      </trkpt>
      <trkpt lat="42.870226" lon="0.629779">
        <ele>1268.4</ele>
        <time>2018-11-16T15:47:02Z</time>
      </trkpt>
      <trkpt lat="42.870337" lon="0.629379">
        <ele>1257.5</ele>
        <time>2018-11-16T15:47:32Z</time>
      </trkpt>
      <trkpt lat="42.870573" lon="0.628910">
        <ele>1246.6</ele>
        <time>2018-11-16T15:48:12Z</time>
      </trkpt>
      <trkpt lat="42.870779" lon="0.628623">
        <ele>1240.9</ele>
        <time>2018-11-16T15:48:40Z</time>
      </trkpt>
      <trkpt lat="42.870833" lon="0.628448">
        <ele>1235.1</ele>
        <time>2018-11-16T15:48:54Z</time>
      </trkpt>
      <trkpt lat="42.870610" lon="0.628454">
        <ele>1229.8</ele>
        <time>2018-11-16T15:49:16Z</time>
      </trkpt>
      <trkpt lat="42.870350" lon="0.628375">
        <ele>1219.8</ele>
        <time>2018-11-16T15:49:42Z</time>
      </trkpt>
      <trkpt lat="42.870019" lon="0.628279">
        <ele>1207.1</ele>
        <time>2018-11-16T15:50:15Z</time>
      </trkpt>
      <trkpt lat="42.869734" lon="0.628245">
        <ele>1195.8</ele>
        <time>2018-11-16T15:50:44Z</time>
      </trkpt>
      <trkpt lat="42.869267" lon="0.628285">
        <ele>1179.8</ele>
        <time>2018-11-16T15:51:29Z</time>
      </trkpt>
      <trkpt lat="42.868924" lon="0.628256">
        <ele>1169.3</ele>
        <time>2018-11-16T15:52:03Z</time>
      </trkpt>
      <trkpt lat="42.868596" lon="0.628173">
        <ele>1157.9</ele>
        <time>2018-11-16T15:52:35Z</time>
      </trkpt>
      <trkpt lat="42.868285" lon="0.628110">
        <ele>1148.5</ele>
        <time>2018-11-16T15:53:06Z</time>
      </trkpt>
      <trkpt lat="42.868105" lon="0.628076">
        <ele>1138.9</ele>
        <time>2018-11-16T15:53:25Z</time>
      </trkpt>
      <trkpt lat="42.868007" lon="0.628021">
        <ele>1136.0</ele>
        <time>2018-11-16T15:53:35Z</time>
      </trkpt>
      <trkpt lat="42.867915" lon="0.627996">
        <ele>1134.1</ele>
        <time>2018-11-16T15:53:42Z</time>
      </trkpt>
      <trkpt lat="42.867831" lon="0.627948">
        <ele>1131.8</ele>
        <time>2018-11-16T15:53:48Z</time>
      </trkpt>
      <trkpt lat="42.867776" lon="0.627876">
        <ele>1129.8</ele>
        <time>2018-11-16T15:53:54Z</time>
      </trkpt>
      <trkpt lat="42.867674" lon="0.627864">
        <ele>1124.6</ele>
        <time>2018-11-16T15:54:06Z</time>
      </trkpt>
      <trkpt lat="42.867563" lon="0.627826">
        <ele>1122.6</ele>
        <time>2018-11-16T15:54:16Z</time>
      </trkpt>
      <trkpt lat="42.867472" lon="0.627766">
        <ele>1121.0</ele>
        <time>2018-11-16T15:54:23Z</time>
      </trkpt>
      <trkpt lat="42.867401" lon="0.627683">
        <ele>1117.8</ele>
        <time>2018-11-16T15:54:34Z</time>
      </trkpt>
      <trkpt lat="42.867402" lon="0.627549">
        <ele>1115.3</ele>
        <time>2018-11-16T15:54:41Z</time>
      </trkpt>
      <trkpt lat="42.867363" lon="0.627414">
        <ele>1112.4</ele>
        <time>2018-11-16T15:54:48Z</time>
      </trkpt>
      <trkpt lat="42.867295" lon="0.627322">
        <ele>1109.8</ele>
        <time>2018-11-16T15:54:55Z</time>
      </trkpt>
      <trkpt lat="42.867235" lon="0.627204">
        <ele>1107.4</ele>
        <time>2018-11-16T15:55:03Z</time>
      </trkpt>
      <trkpt lat="42.867217" lon="0.627081">
        <ele>1104.6</ele>
        <time>2018-11-16T15:55:11Z</time>
      </trkpt>
      <trkpt lat="42.867176" lon="0.626954">
        <ele>1101.9</ele>
        <time>2018-11-16T15:55:18Z</time>
      </trkpt>
      <trkpt lat="42.867121" lon="0.626846">
        <ele>1099.6</ele>
        <time>2018-11-16T15:55:26Z</time>
      </trkpt>
      <trkpt lat="42.867040" lon="0.626762">
        <ele>1097.8</ele>
        <time>2018-11-16T15:55:33Z</time>
      </trkpt>
      <trkpt lat="42.866983" lon="0.626641">
        <ele>1095.4</ele>
        <time>2018-11-16T15:55:42Z</time>
      </trkpt>
      <trkpt lat="42.866905" lon="0.626606">
        <ele>1093.3</ele>
        <time>2018-11-16T15:56:05Z</time>
      </trkpt>
      <trkpt lat="42.866815" lon="0.626712">
        <ele>1091.9</ele>
        <time>2018-11-16T15:56:17Z</time>
      </trkpt>
      <trkpt lat="42.866796" lon="0.626845">
        <ele>1090.7</ele>
        <time>2018-11-16T15:56:25Z</time>
      </trkpt>
      <trkpt lat="42.866801" lon="0.626977">
        <ele>1089.9</ele>
        <time>2018-11-16T15:56:32Z</time>
      </trkpt>
      <trkpt lat="42.866778" lon="0.627161">
        <ele>1087.2</ele>
        <time>2018-11-16T15:56:44Z</time>
      </trkpt>
      <trkpt lat="42.866782" lon="0.627299">
        <ele>1086.1</ele>
        <time>2018-11-16T15:56:49Z</time>
      </trkpt>
      <trkpt lat="42.866788" lon="0.627412">
        <ele>1084.5</ele>
        <time>2018-11-16T15:57:01Z</time>
      </trkpt>
      <trkpt lat="42.866798" lon="0.627551">
        <ele>1083.7</ele>
        <time>2018-11-16T15:57:13Z</time>
      </trkpt>
      <trkpt lat="42.866767" lon="0.627663">
        <ele>1080.3</ele>
        <time>2018-11-16T15:57:30Z</time>
      </trkpt>
      <trkpt lat="42.866744" lon="0.627820">
        <ele>1079.1</ele>
        <time>2018-11-16T15:57:40Z</time>
      </trkpt>
      <trkpt lat="42.866729" lon="0.627958">
        <ele>1076.9</ele>
        <time>2018-11-16T15:57:48Z</time>
      </trkpt>
      <trkpt lat="42.866706" lon="0.628097">
        <ele>1074.7</ele>
        <time>2018-11-16T15:57:57Z</time>
      </trkpt>
      <trkpt lat="42.866700" lon="0.628231">
        <ele>1073.3</ele>
        <time>2018-11-16T15:58:05Z</time>
      </trkpt>
      <trkpt lat="42.866683" lon="0.628362">
        <ele>1072.1</ele>
        <time>2018-11-16T15:58:13Z</time>
      </trkpt>
      <trkpt lat="42.866626" lon="0.628484">
        <ele>1069.7</ele>
        <time>2018-11-16T15:58:24Z</time>
      </trkpt>
      <trkpt lat="42.866579" lon="0.628591">
        <ele>1067.3</ele>
        <time>2018-11-16T15:58:32Z</time>
      </trkpt>
      <trkpt lat="42.866534" lon="0.628690">
        <ele>1065.2</ele>
        <time>2018-11-16T15:58:39Z</time>
      </trkpt>
      <trkpt lat="42.866486" lon="0.628797">
        <ele>1062.6</ele>
        <time>2018-11-16T15:58:46Z</time>
      </trkpt>
      <trkpt lat="42.866433" lon="0.628918">
        <ele>1060.1</ele>
        <time>2018-11-16T15:58:54Z</time>
      </trkpt>
      <trkpt lat="42.866368" lon="0.629032">
        <ele>1057.5</ele>
        <time>2018-11-16T15:59:02Z</time>
      </trkpt>
      <trkpt lat="42.866294" lon="0.629093">
        <ele>1054.4</ele>
        <time>2018-11-16T15:59:10Z</time>
      </trkpt>
      <trkpt lat="42.866280" lon="0.628972">
        <ele>1052.6</ele>
        <time>2018-11-16T15:59:25Z</time>
      </trkpt>
      <trkpt lat="42.866284" lon="0.628827">
        <ele>1051.2</ele>
        <time>2018-11-16T15:59:34Z</time>
      </trkpt>
      <trkpt lat="42.866262" lon="0.628671">
        <ele>1049.2</ele>
        <time>2018-11-16T15:59:42Z</time>
      </trkpt>
      <trkpt lat="42.866241" lon="0.628528">
        <ele>1047.6</ele>
        <time>2018-11-16T15:59:51Z</time>
      </trkpt>
      <trkpt lat="42.866259" lon="0.628389">
        <ele>1045.4</ele>
        <time>2018-11-16T16:00:06Z</time>
      </trkpt>
      <trkpt lat="42.866254" lon="0.628256">
        <ele>1043.8</ele>
        <time>2018-11-16T16:00:15Z</time>
      </trkpt>
      <trkpt lat="42.866245" lon="0.628112">
        <ele>1042.0</ele>
        <time>2018-11-16T16:00:24Z</time>
      </trkpt>
      <trkpt lat="42.866216" lon="0.627991">
        <ele>1039.8</ele>
        <time>2018-11-16T16:00:33Z</time>
      </trkpt>
      <trkpt lat="42.866186" lon="0.627829">
        <ele>1037.1</ele>
        <time>2018-11-16T16:00:45Z</time>
      </trkpt>
      <trkpt lat="42.866132" lon="0.627681">
        <ele>1034.5</ele>
        <time>2018-11-16T16:00:54Z</time>
      </trkpt>
      <trkpt lat="42.866088" lon="0.627576">
        <ele>1032.3</ele>
        <time>2018-11-16T16:01:03Z</time>
      </trkpt>
      <trkpt lat="42.866033" lon="0.627455">
        <ele>1030.3</ele>
        <time>2018-11-16T16:01:12Z</time>
      </trkpt>
      <trkpt lat="42.866017" lon="0.627316">
        <ele>1027.8</ele>
        <time>2018-11-16T16:01:21Z</time>
      </trkpt>
      <trkpt lat="42.866004" lon="0.627177">
        <ele>1024.8</ele>
        <time>2018-11-16T16:01:33Z</time>
      </trkpt>
      <trkpt lat="42.865961" lon="0.627045">
        <ele>1021.8</ele>
        <time>2018-11-16T16:01:44Z</time>
      </trkpt>
      <trkpt lat="42.865903" lon="0.626924">
        <ele>1019.1</ele>
        <time>2018-11-16T16:01:53Z</time>
      </trkpt>
      <trkpt lat="42.865837" lon="0.626836">
        <ele>1015.9</ele>
        <time>2018-11-16T16:02:04Z</time>
      </trkpt>
      <trkpt lat="42.865777" lon="0.626711">
        <ele>1012.6</ele>
        <time>2018-11-16T16:02:14Z</time>
      </trkpt>
      <trkpt lat="42.865713" lon="0.626609">
        <ele>1009.8</ele>
        <time>2018-11-16T16:02:23Z</time>
      </trkpt>
      <trkpt lat="42.865686" lon="0.626463">
        <ele>1006.6</ele>
        <time>2018-11-16T16:02:35Z</time>
      </trkpt>
      <trkpt lat="42.865641" lon="0.626341">
        <ele>1003.5</ele>
        <time>2018-11-16T16:02:46Z</time>
      </trkpt>
      <trkpt lat="42.865574" lon="0.626218">
        <ele>1000.3</ele>
        <time>2018-11-16T16:02:58Z</time>
      </trkpt>
      <trkpt lat="42.865504" lon="0.626114">
        <ele>997.2</ele>
        <time>2018-11-16T16:03:08Z</time>
      </trkpt>
      <trkpt lat="42.865478" lon="0.625992">
        <ele>994.0</ele>
        <time>2018-11-16T16:03:19Z</time>
      </trkpt>
      <trkpt lat="42.865452" lon="0.625856">
        <ele>990.4</ele>
        <time>2018-11-16T16:03:45Z</time>
      </trkpt>
      <trkpt lat="42.865437" lon="0.625717">
        <ele>988.1</ele>
        <time>2018-11-16T16:03:55Z</time>
      </trkpt>
      <trkpt lat="42.865430" lon="0.625586">
        <ele>985.5</ele>
        <time>2018-11-16T16:04:05Z</time>
      </trkpt>
      <trkpt lat="42.865401" lon="0.625470">
        <ele>983.0</ele>
        <time>2018-11-16T16:04:13Z</time>
      </trkpt>
      <trkpt lat="42.865386" lon="0.625327">
        <ele>978.4</ele>
        <time>2018-11-16T16:04:24Z</time>
      </trkpt>
      <trkpt lat="42.865380" lon="0.625180">
        <ele>974.8</ele>
        <time>2018-11-16T16:04:33Z</time>
      </trkpt>
      <trkpt lat="42.865377" lon="0.625044">
        <ele>972.1</ele>
        <time>2018-11-16T16:04:42Z</time>
      </trkpt>
      <trkpt lat="42.865353" lon="0.624924">
        <ele>968.4</ele>
        <time>2018-11-16T16:04:52Z</time>
      </trkpt>
      <trkpt lat="42.865350" lon="0.624793">
        <ele>965.2</ele>
        <time>2018-11-16T16:05:02Z</time>
      </trkpt>
      <trkpt lat="42.865347" lon="0.624657">
        <ele>962.0</ele>
        <time>2018-11-16T16:05:11Z</time>
      </trkpt>
      <trkpt lat="42.865366" lon="0.624522">
        <ele>959.2</ele>
        <time>2018-11-16T16:05:20Z</time>
      </trkpt>
      <trkpt lat="42.865392" lon="0.624407">
        <ele>956.6</ele>
        <time>2018-11-16T16:05:28Z</time>
      </trkpt>
      <trkpt lat="42.865411" lon="0.624274">
        <ele>954.3</ele>
        <time>2018-11-16T16:05:36Z</time>
      </trkpt>
      <trkpt lat="42.865455" lon="0.624155">
        <ele>952.3</ele>
        <time>2018-11-16T16:05:43Z</time>
      </trkpt>
      <trkpt lat="42.865500" lon="0.624029">
        <ele>950.1</ele>
        <time>2018-11-16T16:05:52Z</time>
      </trkpt>
      <trkpt lat="42.865544" lon="0.623911">
        <ele>948.0</ele>
        <time>2018-11-16T16:06:00Z</time>
      </trkpt>
      <trkpt lat="42.865575" lon="0.623788">
        <ele>945.5</ele>
        <time>2018-11-16T16:06:07Z</time>
      </trkpt>
      <trkpt lat="42.865616" lon="0.623686">
        <ele>942.7</ele>
        <time>2018-11-16T16:06:29Z</time>
      </trkpt>
      <trkpt lat="42.865673" lon="0.623515">
        <ele>941.2</ele>
        <time>2018-11-16T16:06:38Z</time>
      </trkpt>
      <trkpt lat="42.865737" lon="0.623393">
        <ele>939.6</ele>
        <time>2018-11-16T16:06:46Z</time>
      </trkpt>
      <trkpt lat="42.865788" lon="0.623261">
        <ele>938.3</ele>
        <time>2018-11-16T16:06:54Z</time>
      </trkpt>
      <trkpt lat="42.865841" lon="0.623155">
        <ele>937.3</ele>
        <time>2018-11-16T16:07:02Z</time>
      </trkpt>
      <trkpt lat="42.865895" lon="0.623039">
        <ele>936.4</ele>
        <time>2018-11-16T16:07:10Z</time>
      </trkpt>
      <trkpt lat="42.865952" lon="0.622925">
        <ele>935.5</ele>
        <time>2018-11-16T16:07:18Z</time>
      </trkpt>
      <trkpt lat="42.866005" lon="0.622805">
        <ele>934.1</ele>
        <time>2018-11-16T16:07:26Z</time>
      </trkpt>
      <trkpt lat="42.866029" lon="0.622676">
        <ele>932.6</ele>
        <time>2018-11-16T16:07:34Z</time>
      </trkpt>
      <trkpt lat="42.866057" lon="0.622531">
        <ele>930.8</ele>
        <time>2018-11-16T16:07:42Z</time>
      </trkpt>
      <trkpt lat="42.866089" lon="0.622403">
        <ele>929.0</ele>
        <time>2018-11-16T16:07:51Z</time>
      </trkpt>
      <trkpt lat="42.866102" lon="0.622256">
        <ele>926.4</ele>
        <time>2018-11-16T16:08:03Z</time>
      </trkpt>
      <trkpt lat="42.866119" lon="0.622128">
        <ele>924.4</ele>
        <time>2018-11-16T16:08:12Z</time>
      </trkpt>
      <trkpt lat="42.866069" lon="0.622143">
        <ele>921.3</ele>
        <time>2018-11-16T16:08:36Z</time>
      </trkpt>
      <trkpt lat="42.866013" lon="0.622267">
        <ele>921.8</ele>
        <time>2018-11-16T16:08:47Z</time>
      </trkpt>
      <trkpt lat="42.865958" lon="0.622389">
        <ele>921.8</ele>
        <time>2018-11-16T16:08:57Z</time>
      </trkpt>
      <trkpt lat="42.865923" lon="0.622526">
        <ele>921.8</ele>
        <time>2018-11-16T16:09:07Z</time>
      </trkpt>
      <trkpt lat="42.865881" lon="0.622637">
        <ele>921.1</ele>
        <time>2018-11-16T16:09:16Z</time>
      </trkpt>
      <trkpt lat="42.865802" lon="0.622743">
        <ele>920.1</ele>
        <time>2018-11-16T16:09:26Z</time>
      </trkpt>
      <trkpt lat="42.865695" lon="0.622853">
        <ele>919.5</ele>
        <time>2018-11-16T16:09:35Z</time>
      </trkpt>
      <trkpt lat="42.865627" lon="0.622942">
        <ele>918.7</ele>
        <time>2018-11-16T16:09:43Z</time>
      </trkpt>
      <trkpt lat="42.865551" lon="0.623030">
        <ele>917.8</ele>
        <time>2018-11-16T16:09:50Z</time>
      </trkpt>
      <trkpt lat="42.865482" lon="0.623114">
        <ele>916.6</ele>
        <time>2018-11-16T16:09:58Z</time>
      </trkpt>
      <trkpt lat="42.865410" lon="0.623203">
        <ele>916.1</ele>
        <time>2018-11-16T16:10:07Z</time>
      </trkpt>
      <trkpt lat="42.865329" lon="0.623276">
        <ele>915.3</ele>
        <time>2018-11-16T16:10:16Z</time>
      </trkpt>
      <trkpt lat="42.865251" lon="0.623345">
        <ele>913.8</ele>
        <time>2018-11-16T16:10:22Z</time>
      </trkpt>
      <trkpt lat="42.865169" lon="0.623387">
        <ele>911.6</ele>
        <time>2018-11-16T16:10:31Z</time>
      </trkpt>
      <trkpt lat="42.865072" lon="0.623455">
        <ele>909.6</ele>
        <time>2018-11-16T16:10:40Z</time>
      </trkpt>
      <trkpt lat="42.865045" lon="0.623575">
        <ele>907.0</ele>
        <time>2018-11-16T16:10:49Z</time>
      </trkpt>
      <trkpt lat="42.864980" lon="0.623527">
        <ele>905.0</ele>
        <time>2018-11-16T16:11:03Z</time>
      </trkpt>
      <trkpt lat="42.865011" lon="0.623372">
        <ele>903.0</ele>
        <time>2018-11-16T16:11:13Z</time>
      </trkpt>
      <trkpt lat="42.864961" lon="0.623247">
        <ele>900.9</ele>
        <time>2018-11-16T16:11:23Z</time>
      </trkpt>
      <trkpt lat="42.864911" lon="0.623118">
        <ele>900.0</ele>
        <time>2018-11-16T16:11:32Z</time>
      </trkpt>
      <trkpt lat="42.864879" lon="0.622966">
        <ele>900.3</ele>
        <time>2018-11-16T16:11:42Z</time>
      </trkpt>
      <trkpt lat="42.864837" lon="0.622832">
        <ele>901.3</ele>
        <time>2018-11-16T16:11:53Z</time>
      </trkpt>
      <trkpt lat="42.864833" lon="0.622661">
        <ele>902.9</ele>
        <time>2018-11-16T16:12:04Z</time>
      </trkpt>
      <trkpt lat="42.864860" lon="0.622535">
        <ele>902.8</ele>
        <time>2018-11-16T16:12:12Z</time>
      </trkpt>
      <trkpt lat="42.864884" lon="0.622394">
        <ele>901.2</ele>
        <time>2018-11-16T16:12:20Z</time>
      </trkpt>
      <trkpt lat="42.864891" lon="0.622237">
        <ele>898.4</ele>
        <time>2018-11-16T16:12:28Z</time>
      </trkpt>
      <trkpt lat="42.864920" lon="0.622080">
        <ele>896.7</ele>
        <time>2018-11-16T16:12:38Z</time>
      </trkpt>
      <trkpt lat="42.864894" lon="0.621908">
        <ele>895.0</ele>
        <time>2018-11-16T16:12:48Z</time>
      </trkpt>
      <trkpt lat="42.864801" lon="0.621804">
        <ele>895.0</ele>
        <time>2018-11-16T16:12:59Z</time>
      </trkpt>
      <trkpt lat="42.864626" lon="0.621722">
        <ele>895.5</ele>
        <time>2018-11-16T16:13:10Z</time>
      </trkpt>
      <trkpt lat="42.864525" lon="0.621645">
        <ele>895.7</ele>
        <time>2018-11-16T16:13:20Z</time>
      </trkpt>
      <trkpt lat="42.864450" lon="0.621502">
        <ele>895.4</ele>
        <time>2018-11-16T16:13:30Z</time>
      </trkpt>
      <trkpt lat="42.864383" lon="0.621349">
        <ele>894.5</ele>
        <time>2018-11-16T16:13:39Z</time>
      </trkpt>
      <trkpt lat="42.864328" lon="0.621251">
        <ele>893.0</ele>
        <time>2018-11-16T16:13:48Z</time>
      </trkpt>
      <trkpt lat="42.864260" lon="0.621156">
        <ele>892.0</ele>
        <time>2018-11-16T16:13:57Z</time>
      </trkpt>
      <trkpt lat="42.864232" lon="0.621030">
        <ele>891.6</ele>
        <time>2018-11-16T16:14:07Z</time>
      </trkpt>
      <trkpt lat="42.864200" lon="0.620881">
        <ele>891.1</ele>
        <time>2018-11-16T16:14:16Z</time>
      </trkpt>
      <trkpt lat="42.864141" lon="0.620765">
        <ele>889.0</ele>
        <time>2018-11-16T16:14:28Z</time>
      </trkpt>
      <trkpt lat="42.864056" lon="0.620683">
        <ele>887.5</ele>
        <time>2018-11-16T16:14:37Z</time>
      </trkpt>
      <trkpt lat="42.863931" lon="0.620608">
        <ele>886.2</ele>
        <time>2018-11-16T16:14:45Z</time>
      </trkpt>
      <trkpt lat="42.863840" lon="0.620485">
        <ele>885.4</ele>
        <time>2018-11-16T16:14:54Z</time>
      </trkpt>
      <trkpt lat="42.863812" lon="0.620333">
        <ele>884.9</ele>
        <time>2018-11-16T16:15:03Z</time>
      </trkpt>
      <trkpt lat="42.863738" lon="0.620186">
        <ele>884.8</ele>
        <time>2018-11-16T16:15:11Z</time>
      </trkpt>
      <trkpt lat="42.863711" lon="0.620013">
        <ele>884.7</ele>
        <time>2018-11-16T16:15:21Z</time>
      </trkpt>
      <trkpt lat="42.863660" lon="0.619852">
        <ele>884.5</ele>
        <time>2018-11-16T16:15:31Z</time>
      </trkpt>
      <trkpt lat="42.863636" lon="0.619696">
        <ele>884.0</ele>
        <time>2018-11-16T16:15:40Z</time>
      </trkpt>
      <trkpt lat="42.863608" lon="0.619529">
        <ele>883.4</ele>
        <time>2018-11-16T16:15:50Z</time>
      </trkpt>
      <trkpt lat="42.863550" lon="0.619404">
        <ele>881.9</ele>
        <time>2018-11-16T16:15:57Z</time>
      </trkpt>
      <trkpt lat="42.863449" lon="0.619402">
        <ele>879.9</ele>
        <time>2018-11-16T16:16:05Z</time>
      </trkpt>
      <trkpt lat="42.863357" lon="0.619403">
        <ele>878.7</ele>
        <time>2018-11-16T16:16:11Z</time>
      </trkpt>
      <trkpt lat="42.863262" lon="0.619413">
        <ele>877.0</ele>
        <time>2018-11-16T16:16:19Z</time>
      </trkpt>
      <trkpt lat="42.863153" lon="0.619413">
        <ele>876.1</ele>
        <time>2018-11-16T16:16:27Z</time>
      </trkpt>
      <trkpt lat="42.863055" lon="0.619422">
        <ele>875.6</ele>
        <time>2018-11-16T16:16:35Z</time>
      </trkpt>
      <trkpt lat="42.862963" lon="0.619448">
        <ele>874.8</ele>
        <time>2018-11-16T16:17:59Z</time>
      </trkpt>
      <trkpt lat="42.862865" lon="0.619494">
        <ele>874.3</ele>
        <time>2018-11-16T16:18:06Z</time>
      </trkpt>
      <trkpt lat="42.862792" lon="0.619557">
        <ele>873.6</ele>
        <time>2018-11-16T16:18:12Z</time>
      </trkpt>
      <trkpt lat="42.862698" lon="0.619599">
        <ele>872.6</ele>
        <time>2018-11-16T16:18:19Z</time>
      </trkpt>
      <trkpt lat="42.862616" lon="0.619671">
        <ele>871.9</ele>
        <time>2018-11-16T16:18:26Z</time>
      </trkpt>
      <trkpt lat="42.862538" lon="0.619750">
        <ele>871.4</ele>
        <time>2018-11-16T16:18:33Z</time>
      </trkpt>
      <trkpt lat="42.862461" lon="0.619817">
        <ele>870.5</ele>
        <time>2018-11-16T16:18:40Z</time>
      </trkpt>
      <trkpt lat="42.862382" lon="0.619885">
        <ele>869.7</ele>
        <time>2018-11-16T16:18:47Z</time>
      </trkpt>
      <trkpt lat="42.862287" lon="0.619941">
        <ele>869.0</ele>
        <time>2018-11-16T16:18:54Z</time>
      </trkpt>
      <trkpt lat="42.862203" lon="0.620018">
        <ele>868.1</ele>
        <time>2018-11-16T16:19:01Z</time>
      </trkpt>
      <trkpt lat="42.862097" lon="0.620101">
        <ele>867.2</ele>
        <time>2018-11-16T16:19:08Z</time>
      </trkpt>
      <trkpt lat="42.862006" lon="0.620162">
        <ele>866.6</ele>
        <time>2018-11-16T16:19:14Z</time>
      </trkpt>
      <trkpt lat="42.861920" lon="0.620211">
        <ele>866.2</ele>
        <time>2018-11-16T16:19:21Z</time>
      </trkpt>
      <trkpt lat="42.861824" lon="0.620225">
        <ele>865.1</ele>
        <time>2018-11-16T16:19:29Z</time>
      </trkpt>
      <trkpt lat="42.861748" lon="0.620335">
        <ele>864.4</ele>
        <time>2018-11-16T16:19:37Z</time>
      </trkpt>
      <trkpt lat="42.861692" lon="0.620438">
        <ele>865.5</ele>
        <time>2018-11-16T16:19:46Z</time>
      </trkpt>
      <trkpt lat="42.861663" lon="0.620555">
        <ele>868.0</ele>
        <time>2018-11-16T16:19:56Z</time>
      </trkpt>
      <trkpt lat="42.861688" lon="0.620682">
        <ele>870.9</ele>
        <time>2018-11-16T16:20:08Z</time>
      </trkpt>
      <trkpt lat="42.861673" lon="0.620819">
        <ele>873.7</ele>
        <time>2018-11-16T16:20:21Z</time>
      </trkpt>
      <trkpt lat="42.861666" lon="0.620953">
        <ele>875.4</ele>
        <time>2018-11-16T16:20:31Z</time>
      </trkpt>
      <trkpt lat="42.861642" lon="0.621089">
        <ele>876.2</ele>
        <time>2018-11-16T16:20:41Z</time>
      </trkpt>
      <trkpt lat="42.861608" lon="0.621230">
        <ele>876.3</ele>
        <time>2018-11-16T16:20:50Z</time>
      </trkpt>
      <trkpt lat="42.861553" lon="0.621336">
        <ele>876.0</ele>
        <time>2018-11-16T16:20:58Z</time>
      </trkpt>
      <trkpt lat="42.861502" lon="0.621437">
        <ele>876.1</ele>
        <time>2018-11-16T16:21:06Z</time>
      </trkpt>
      <trkpt lat="42.861445" lon="0.621550">
        <ele>876.1</ele>
        <time>2018-11-16T16:21:14Z</time>
      </trkpt>
      <trkpt lat="42.861363" lon="0.621631">
        <ele>875.3</ele>
        <time>2018-11-16T16:21:22Z</time>
      </trkpt>
      <trkpt lat="42.861291" lon="0.621741">
        <ele>874.2</ele>
        <time>2018-11-16T16:21:30Z</time>
      </trkpt>
      <trkpt lat="42.861225" lon="0.621830">
        <ele>871.0</ele>
        <time>2018-11-16T16:21:41Z</time>
      </trkpt>
      <trkpt lat="42.861217" lon="0.621739">
        <ele>870.2</ele>
        <time>2018-11-16T16:21:54Z</time>
      </trkpt>
      <trkpt lat="42.861231" lon="0.621605">
        <ele>870.5</ele>
        <time>2018-11-16T16:22:02Z</time>
      </trkpt>
      <trkpt lat="42.861187" lon="0.621455">
        <ele>871.1</ele>
        <time>2018-11-16T16:22:14Z</time>
      </trkpt>
      <trkpt lat="42.861170" lon="0.621321">
        <ele>872.9</ele>
        <time>2018-11-16T16:22:34Z</time>
      </trkpt>
      <trkpt lat="42.861165" lon="0.621158">
        <ele>873.8</ele>
        <time>2018-11-16T16:22:45Z</time>
      </trkpt>
      <trkpt lat="42.861155" lon="0.621019">
        <ele>875.2</ele>
        <time>2018-11-16T16:22:57Z</time>
      </trkpt>
      <trkpt lat="42.861087" lon="0.620911">
        <ele>876.3</ele>
        <time>2018-11-16T16:23:07Z</time>
      </trkpt>
      <trkpt lat="42.860976" lon="0.620868">
        <ele>877.5</ele>
        <time>2018-11-16T16:23:17Z</time>
      </trkpt>
      <trkpt lat="42.860891" lon="0.620750">
        <ele>879.7</ele>
        <time>2018-11-16T16:23:31Z</time>
      </trkpt>
      <trkpt lat="42.860792" lon="0.620592">
        <ele>882.6</ele>
        <time>2018-11-16T16:23:48Z</time>
      </trkpt>
      <trkpt lat="42.860700" lon="0.620512">
        <ele>884.0</ele>
        <time>2018-11-16T16:24:00Z</time>
      </trkpt>
      <trkpt lat="42.860635" lon="0.620331">
        <ele>883.5</ele>
        <time>2018-11-16T16:24:14Z</time>
      </trkpt>
      <trkpt lat="42.860669" lon="0.620079">
        <ele>883.7</ele>
        <time>2018-11-16T16:24:29Z</time>
      </trkpt>
      <trkpt lat="42.860675" lon="0.619860">
        <ele>883.5</ele>
        <time>2018-11-16T16:24:42Z</time>
      </trkpt>
      <trkpt lat="42.860723" lon="0.619671">
        <ele>883.4</ele>
        <time>2018-11-16T16:24:52Z</time>
      </trkpt>
      <trkpt lat="42.860744" lon="0.619501">
        <ele>883.2</ele>
        <time>2018-11-16T16:25:04Z</time>
      </trkpt>
      <trkpt lat="42.860679" lon="0.619324">
        <ele>882.1</ele>
        <time>2018-11-16T16:25:16Z</time>
      </trkpt>
      <trkpt lat="42.860628" lon="0.619168">
        <ele>880.5</ele>
        <time>2018-11-16T16:25:28Z</time>
      </trkpt>
      <trkpt lat="42.860622" lon="0.618981">
        <ele>879.5</ele>
        <time>2018-11-16T16:25:37Z</time>
      </trkpt>
      <trkpt lat="42.860610" lon="0.618841">
        <ele>880.2</ele>
        <time>2018-11-16T16:25:48Z</time>
      </trkpt>
      <trkpt lat="42.860583" lon="0.618644">
        <ele>882.5</ele>
        <time>2018-11-16T16:26:04Z</time>
      </trkpt>
      <trkpt lat="42.860603" lon="0.618465">
        <ele>884.4</ele>
        <time>2018-11-16T16:26:18Z</time>
      </trkpt>
      <trkpt lat="42.860559" lon="0.618341">
        <ele>886.2</ele>
        <time>2018-11-16T16:26:29Z</time>
      </trkpt>
      <trkpt lat="42.860481" lon="0.618273">
        <ele>887.0</ele>
        <time>2018-11-16T16:26:39Z</time>
      </trkpt>
      <trkpt lat="42.860385" lon="0.618216">
        <ele>888.2</ele>
        <time>2018-11-16T16:26:49Z</time>
      </trkpt>
      <trkpt lat="42.860288" lon="0.618139">
        <ele>889.1</ele>
        <time>2018-11-16T16:27:00Z</time>
      </trkpt>
      <trkpt lat="42.860154" lon="0.618065">
        <ele>891.2</ele>
        <time>2018-11-16T16:27:14Z</time>
      </trkpt>
      <trkpt lat="42.860052" lon="0.617994">
        <ele>893.0</ele>
        <time>2018-11-16T16:27:23Z</time>
      </trkpt>
      <trkpt lat="42.859969" lon="0.617975">
        <ele>894.9</ele>
        <time>2018-11-16T16:27:36Z</time>
      </trkpt>
      <trkpt lat="42.859876" lon="0.618039">
        <ele>895.4</ele>
        <time>2018-11-16T16:27:46Z</time>
      </trkpt>
      <trkpt lat="42.859811" lon="0.618157">
        <ele>895.9</ele>
        <time>2018-11-16T16:27:55Z</time>
      </trkpt>
      <trkpt lat="42.859740" lon="0.618277">
        <ele>896.8</ele>
        <time>2018-11-16T16:28:04Z</time>
      </trkpt>
      <trkpt lat="42.859678" lon="0.618383">
        <ele>897.3</ele>
        <time>2018-11-16T16:28:13Z</time>
      </trkpt>
      <trkpt lat="42.859608" lon="0.618506">
        <ele>897.7</ele>
        <time>2018-11-16T16:28:22Z</time>
      </trkpt>
      <trkpt lat="42.859533" lon="0.618621">
        <ele>898.8</ele>
        <time>2018-11-16T16:28:34Z</time>
      </trkpt>
      <trkpt lat="42.859446" lon="0.618723">
        <ele>899.5</ele>
        <time>2018-11-16T16:28:43Z</time>
      </trkpt>
      <trkpt lat="42.859363" lon="0.618835">
        <ele>899.8</ele>
        <time>2018-11-16T16:28:52Z</time>
      </trkpt>
      <trkpt lat="42.859255" lon="0.618929">
        <ele>899.9</ele>
        <time>2018-11-16T16:29:02Z</time>
      </trkpt>
      <trkpt lat="42.859154" lon="0.619016">
        <ele>900.7</ele>
        <time>2018-11-16T16:29:14Z</time>
      </trkpt>
      <trkpt lat="42.859016" lon="0.619096">
        <ele>901.7</ele>
        <time>2018-11-16T16:29:23Z</time>
      </trkpt>
      <trkpt lat="42.858910" lon="0.619144">
        <ele>903.2</ele>
        <time>2018-11-16T16:29:35Z</time>
      </trkpt>
      <trkpt lat="42.858782" lon="0.619210">
        <ele>904.8</ele>
        <time>2018-11-16T16:29:46Z</time>
      </trkpt>
      <trkpt lat="42.858679" lon="0.619276">
        <ele>906.2</ele>
        <time>2018-11-16T16:29:56Z</time>
      </trkpt>
      <trkpt lat="42.858572" lon="0.619349">
        <ele>908.2</ele>
        <time>2018-11-16T16:30:07Z</time>
      </trkpt>
      <trkpt lat="42.858454" lon="0.619394">
        <ele>909.3</ele>
        <time>2018-11-16T16:30:15Z</time>
      </trkpt>
      <trkpt lat="42.858348" lon="0.619426">
        <ele>910.8</ele>
        <time>2018-11-16T16:30:24Z</time>
      </trkpt>
      <trkpt lat="42.858243" lon="0.619473">
        <ele>911.7</ele>
        <time>2018-11-16T16:30:33Z</time>
      </trkpt>
      <trkpt lat="42.858121" lon="0.619515">
        <ele>913.9</ele>
        <time>2018-11-16T16:30:51Z</time>
      </trkpt>
      <trkpt lat="42.857994" lon="0.619600">
        <ele>916.5</ele>
        <time>2018-11-16T16:31:06Z</time>
      </trkpt>
      <trkpt lat="42.857831" lon="0.619673">
        <ele>918.9</ele>
        <time>2018-11-16T16:31:19Z</time>
      </trkpt>
      <trkpt lat="42.857696" lon="0.619692">
        <ele>920.3</ele>
        <time>2018-11-16T16:31:30Z</time>
      </trkpt>
      <trkpt lat="42.857587" lon="0.619692">
        <ele>921.2</ele>
        <time>2018-11-16T16:31:39Z</time>
      </trkpt>
      <trkpt lat="42.857484" lon="0.619678">
        <ele>921.5</ele>
        <time>2018-11-16T16:31:47Z</time>
      </trkpt>
      <trkpt lat="42.857389" lon="0.619672">
        <ele>921.6</ele>
        <time>2018-11-16T16:31:56Z</time>
      </trkpt>
      <trkpt lat="42.857293" lon="0.619651">
        <ele>921.8</ele>
        <time>2018-11-16T16:32:03Z</time>
      </trkpt>
      <trkpt lat="42.857192" lon="0.619583">
        <ele>923.0</ele>
        <time>2018-11-16T16:32:14Z</time>
      </trkpt>
      <trkpt lat="42.857097" lon="0.619566">
        <ele>924.4</ele>
        <time>2018-11-16T16:32:25Z</time>
      </trkpt>
      <trkpt lat="42.857085" lon="0.619663">
        <ele>926.3</ele>
        <time>2018-11-16T16:33:02Z</time>
      </trkpt>
      <trkpt lat="42.857065" lon="0.619791">
        <ele>927.9</ele>
        <time>2018-11-16T16:33:14Z</time>
      </trkpt>
      <trkpt lat="42.857024" lon="0.619879">
        <ele>930.3</ele>
        <time>2018-11-16T16:33:29Z</time>
      </trkpt>
      <trkpt lat="42.856937" lon="0.619985">
        <ele>930.2</ele>
        <time>2018-11-16T16:33:39Z</time>
      </trkpt>
      <trkpt lat="42.856858" lon="0.620040">
        <ele>929.8</ele>
        <time>2018-11-16T16:33:47Z</time>
      </trkpt>
      <trkpt lat="42.856777" lon="0.620126">
        <ele>929.0</ele>
        <time>2018-11-16T16:33:57Z</time>
      </trkpt>
      <trkpt lat="42.856668" lon="0.620097">
        <ele>928.4</ele>
        <time>2018-11-16T16:34:08Z</time>
      </trkpt>
      <trkpt lat="42.856570" lon="0.620102">
        <ele>927.9</ele>
        <time>2018-11-16T16:34:19Z</time>
      </trkpt>
      <trkpt lat="42.856466" lon="0.620098">
        <ele>926.6</ele>
        <time>2018-11-16T16:34:31Z</time>
      </trkpt>
      <trkpt lat="42.856389" lon="0.620180">
        <ele>925.9</ele>
        <time>2018-11-16T16:34:40Z</time>
      </trkpt>
      <trkpt lat="42.856318" lon="0.620253">
        <ele>925.1</ele>
        <time>2018-11-16T16:34:50Z</time>
      </trkpt>
      <trkpt lat="42.856180" lon="0.620287">
        <ele>924.2</ele>
        <time>2018-11-16T16:34:59Z</time>
      </trkpt>
      <trkpt lat="42.856080" lon="0.620333">
        <ele>923.6</ele>
        <time>2018-11-16T16:35:08Z</time>
      </trkpt>
      <trkpt lat="42.856017" lon="0.620385">
        <ele>924.0</ele>
        <time>2018-11-16T16:35:55Z</time>
      </trkpt>
      <trkpt lat="42.855919" lon="0.620433">
        <ele>923.8</ele>
        <time>2018-11-16T16:36:02Z</time>
      </trkpt>
      <trkpt lat="42.855826" lon="0.620446">
        <ele>923.6</ele>
        <time>2018-11-16T16:36:11Z</time>
      </trkpt>
      <trkpt lat="42.855727" lon="0.620431">
        <ele>922.7</ele>
        <time>2018-11-16T16:36:20Z</time>
      </trkpt>
      <trkpt lat="42.855686" lon="0.620441">
        <ele>922.0</ele>
        <time>2018-11-16T16:36:24Z</time>
      </trkpt>
    </trkseg>
  </trk>
</gpx>

